Provisional Data: Long Run near Gaines, PA


Please select a monitoring station.
Please select start date.
Please select start date.

Toggle Unit: C/F Toggle Unit: C/F
Sample Time Temperature (C) Temperature (F) Specific Conductivity (mS/cm) pH   Turbidity (NTU+) DO (mg/L)
12/11/2021 12:00:00 AM 3.7 38.66 0.089 7.06 3.8 12.47
12/11/2021 12:15:00 AM 3.7 38.66 0.089 7.05 3.83 12.47
12/11/2021 12:30:00 AM 3.71 38.678 0.089 7.04 3.8 12.46
12/11/2021 12:45:00 AM 3.72 38.696 0.089 7.03 3.81 12.46
12/11/2021 1:00:00 AM 3.73 38.714 0.089 7.05 3.77 12.46
12/11/2021 1:15:00 AM 3.74 38.732 0.089 7.05 3.75 12.44
12/11/2021 1:30:00 AM 3.73 38.714 0.089 7.05 3.78 12.44
12/11/2021 1:45:00 AM 3.73 38.714 0.089 7.05 3.79 12.44
12/11/2021 2:00:00 AM 3.74 38.732 0.089 7.06 3.75 12.43
12/11/2021 2:15:00 AM 3.75 38.75 0.089 7.06 3.79 12.42
12/11/2021 2:30:00 AM 3.77 38.786 0.089 7.04 3.78 12.42
12/11/2021 2:45:00 AM 3.8 38.84 0.089 7.07 3.73 12.41
12/11/2021 3:00:00 AM 3.82 38.876 0.089 7.07 3.71 12.4
12/11/2021 3:15:00 AM 3.84 38.912 0.089 7.06 3.76 12.38
12/11/2021 3:30:00 AM 3.87 38.966 0.089 7.07 3.75 12.37
12/11/2021 3:45:00 AM 3.9 39.02 0.089 7.07 3.72 12.36
12/11/2021 4:00:00 AM 3.93 39.074 0.089 7.07 3.78 12.35
12/11/2021 4:15:00 AM 3.95 39.11 0.089 7.06 3.78 12.34
12/11/2021 4:30:00 AM 3.97 39.146 0.088 7.07 3.79 12.33
12/11/2021 4:45:00 AM 3.99 39.182 0.088 7.06 3.85 12.31
12/11/2021 5:00:00 AM 4.01 39.218 0.088 7.06 3.87 12.3
12/11/2021 5:15:00 AM 4.04 39.272 0.088 7.05 3.83 12.28
12/11/2021 5:30:00 AM 4.06 39.308 0.087 7.06 3.85 12.27
12/11/2021 5:45:00 AM 4.08 39.344 0.087 7.05 4.01 12.27
12/11/2021 6:00:00 AM 4.1 39.38 0.086 7.06 4.22 12.27
12/11/2021 6:15:00 AM 4.12 39.416 0.086 7.05 4.3 12.26
12/11/2021 6:30:00 AM 4.15 39.47 0.086 7.05 4.61 12.25
12/11/2021 6:45:00 AM 4.18 39.524 0.088 7.03 4.52 12.24
12/11/2021 7:00:00 AM 4.2 39.56 0.09 7.05 5.04 12.23
12/11/2021 7:15:00 AM 4.23 39.614 0.092 7.05 4.91 12.22
12/11/2021 7:30:00 AM 4.26 39.668 0.094 7.05 4.91 12.21
12/11/2021 7:45:00 AM 4.29 39.722 0.095 7.03 5.24 12.21
12/11/2021 8:00:00 AM 4.31 39.758 0.094 7.05 6.01 12.21
12/11/2021 8:15:00 AM 4.34 39.812 0.093 7.04 5.95 12.22
12/11/2021 8:30:00 AM 4.37 39.866 0.092 7.05 6.73 12.23
12/11/2021 8:45:00 AM 4.41 39.938 0.091 7.04 8.56 12.24
12/11/2021 9:00:00 AM 4.44 39.992 0.092 7.05 13.91 12.25
12/11/2021 9:15:00 AM 4.46 40.028 0.093 7.05 18.76 12.26
12/11/2021 9:30:00 AM 4.49 40.082 0.095 7.06 19.72 12.26
12/11/2021 9:45:00 AM 4.52 40.136 0.096 7 20.46 12.27
12/11/2021 10:00:00 AM 4.55 40.19 0.097 7.02 19.62 12.27
12/11/2021 10:15:00 AM 4.56 40.208 0.099 7.05 19.7 12.27
12/11/2021 10:30:00 AM 4.57 40.226 0.101 7.06 20.75 12.28
12/11/2021 10:45:00 AM 4.58 40.244 0.103 7.16 20.94 12.29
12/11/2021 11:00:00 AM 4.61 40.298 0.103 7.08 21.26 12.31
12/11/2021 11:15:00 AM 4.63 40.334 0.102 7.17 22.99 12.29
12/11/2021 11:30:00 AM 4.67 40.406 0.102 7.17 24.21 12.28
12/11/2021 11:45:00 AM 4.74 40.532 0.101 7.13 24.14 12.26
12/11/2021 12:00:00 PM 4.8 40.64 0.1 7.18 25.21 12.23
12/11/2021 12:15:00 PM 4.88 40.784 0.1 7.18 24.02 12.2
12/11/2021 12:30:00 PM 4.96 40.928 0.099 7.19 24.22 12.18
12/11/2021 12:45:00 PM 5.04 41.072 0.099 7.19 22.25 12.17
12/11/2021 1:00:00 PM 5.1 41.18 0.099 7.2 20.88 12.15
12/11/2021 1:15:00 PM 5.16 41.288 0.099 7.2 19.13 12.12
12/11/2021 1:30:00 PM 5.21 41.378 0.098 7.16 18.21 12.08
12/11/2021 1:45:00 PM 5.27 41.486 0.097 7.16 17.75 12.04
12/11/2021 2:00:00 PM 5.34 41.612 0.096 7.19 16.65 12.02
12/11/2021 2:15:00 PM 5.42 41.756 0.095 7.19 16.46 11.99
12/11/2021 2:30:00 PM 5.5 41.9 0.095 7.14 15.54 11.97
12/11/2021 2:45:00 PM 5.56 42.008 0.094 7.19 14.73 11.94
12/11/2021 3:00:00 PM 5.64 42.152 0.094 7.16 13.84 11.9
12/11/2021 3:15:00 PM 5.7 42.26 0.093 7.18 13 11.88
12/11/2021 3:30:00 PM 5.76 42.368 0.093 7.16 12.35 11.85
12/11/2021 3:45:00 PM 5.82 42.476 0.093 7.18 11.8 11.83
12/11/2021 4:00:00 PM 5.86 42.548 0.093 7.13 11.16 11.79
12/11/2021 4:15:00 PM 5.91 42.638 0.093 7.17 10.69 11.74
12/11/2021 4:30:00 PM 5.96 42.728 0.093 7.15 10.37 11.7
12/11/2021 4:45:00 PM 6.02 42.836 0.092 7.11 9.59 11.66
12/11/2021 5:00:00 PM 6.06 42.908 0.092 7.16 9.73 11.63
12/11/2021 5:15:00 PM 6.11 42.998 0.092 7.15 8.97 11.61
12/11/2021 5:30:00 PM 6.12 43.016 0.092 7.14 9.26 11.59
12/11/2021 5:45:00 PM 6.13 43.034 0.092 7.14 8.96 11.59
12/11/2021 6:00:00 PM 6.14 43.052 0.093 7.14 9.7 11.58
12/11/2021 6:15:00 PM 6.13 43.034 0.093 7.13 8.73 11.59
12/11/2021 6:30:00 PM 6.11 42.998 0.093 7.12 8.43 11.59
12/11/2021 6:45:00 PM 6.1 42.98 0.093 7.14 8.43 11.6
12/11/2021 7:00:00 PM 6.08 42.944 0.094 7.12 8.36 11.61
12/11/2021 7:15:00 PM 6.03 42.854 0.094 7.12 8.08 11.63
12/11/2021 7:30:00 PM 5.99 42.782 0.094 7.08 8 11.65
12/11/2021 7:45:00 PM 5.93 42.674 0.094 7.12 8 11.68
12/11/2021 8:00:00 PM 5.86 42.548 0.094 7.12 7.99 11.7
12/11/2021 8:15:00 PM 5.8 42.44 0.095 7.12 8 11.73
12/11/2021 8:30:00 PM 5.74 42.332 0.095 7.09 7.73 11.76
12/11/2021 8:45:00 PM 5.68 42.224 0.095 7.07 7.84 11.79
12/11/2021 9:00:00 PM 5.62 42.116 0.095 7.12 7.94 11.81
12/11/2021 9:15:00 PM 5.58 42.044 0.096 7.1 7.83 11.83
12/11/2021 9:30:00 PM 5.53 41.954 0.096 7.12 8.19 11.85
12/11/2021 9:45:00 PM 5.47 41.846 0.097 7.11 7.83 11.88
12/11/2021 10:00:00 PM 5.43 41.774 0.097 7.12 7.89 11.89
12/11/2021 10:15:00 PM 5.38 41.684 0.097 7.12 7.91 11.92
12/11/2021 10:30:00 PM 5.32 41.576 0.097 7.12 8.3 11.93
12/11/2021 10:45:00 PM 5.27 41.486 0.097 7.1 8.38 11.96
12/11/2021 11:00:00 PM 5.22 41.396 0.097 7.12 8.33 11.98
12/11/2021 11:15:00 PM 5.17 41.306 0.097 7.08 8.55 11.99
12/11/2021 11:30:00 PM 5.13 41.234 0.097 7.12 8.64 12
12/11/2021 11:45:00 PM 5.09 41.162 0.096 7.12 8.6 12.03
12/12/2021 12:00:00 AM 5.05 41.09 0.096 7.1 8.63 12.03
12/12/2021 12:15:00 AM 5.02 41.036 0.096 7.11 8.64 12.04
12/12/2021 12:30:00 AM 4.97 40.946 0.095 7.1 8.54 12.06
12/12/2021 12:45:00 AM 4.94 40.892 0.095 7.11 8.61 12.09
12/12/2021 1:00:00 AM 4.9 40.82 0.095 7.1 8.69 12.1
12/12/2021 1:15:00 AM 4.87 40.766 0.094 7.11 8.41 12.11
12/12/2021 1:30:00 AM 4.83 40.694 0.094 7.11 8.05 12.12
12/12/2021 1:45:00 AM 4.77 40.586 0.094 7.08 8.06 12.13
12/12/2021 2:00:00 AM 4.71 40.478 0.093 7.09 7.97 12.16
12/12/2021 2:15:00 AM 4.67 40.406 0.093 7.09 7.78 12.18
12/12/2021 2:30:00 AM 4.65 40.37 0.093 7.1 7.68 12.19
12/12/2021 2:45:00 AM 4.61 40.298 0.093 7.09 7.52 12.2
12/12/2021 3:00:00 AM 4.57 40.226 0.092 7.08 7.7 12.22
12/12/2021 3:15:00 AM 4.53 40.154 0.092 7.08 7.48 12.23
12/12/2021 3:30:00 AM 4.51 40.118 0.092 7.08 7.27 12.25
12/12/2021 3:45:00 AM 4.49 40.082 0.092 7.07 7.42 12.26
12/12/2021 4:00:00 AM 4.48 40.064 0.092 7.09 7.24 12.27
12/12/2021 4:15:00 AM 4.46 40.028 0.091 7.08 7.02 12.28
12/12/2021 4:30:00 AM 4.44 39.992 0.091 7.08 7.35 12.29
12/12/2021 4:45:00 AM 4.42 39.956 0.091 7.08 6.81 12.3
12/12/2021 5:00:00 AM 4.38 39.884 0.091 7.07 6.84 12.31
12/12/2021 5:15:00 AM 4.35 39.83 0.091 7.08 6.81 12.32
12/12/2021 5:30:00 AM 4.31 39.758 0.091 7.08 6.64 12.33
12/12/2021 5:45:00 AM 4.27 39.686 0.091 7.07 6.44 12.34
12/12/2021 6:00:00 AM 4.22 39.596 0.091 7.01 6.27 12.36
12/12/2021 6:15:00 AM 4.18 39.524 0.091 7.08 6.2 12.38
12/12/2021 6:30:00 AM 4.14 39.452 0.091 7.07 6.07 12.39
12/12/2021 6:45:00 AM 4.11 39.398 0.091 7.07 5.93 12.4
12/12/2021 7:00:00 AM 4.09 39.362 0.09 7.07 5.93 12.42
12/12/2021 7:15:00 AM 4.06 39.308 0.09 7.07 5.91 12.43
12/12/2021 7:30:00 AM 4.02 39.236 0.09 7.07 5.8 12.45
12/12/2021 7:45:00 AM 4.02 39.236 0.09 7.08 5.78 12.46
12/12/2021 8:00:00 AM 4.02 39.236 0.09 7.07 5.69 12.5
12/12/2021 8:15:00 AM 4.01 39.218 0.09 7.05 5.45 12.55
12/12/2021 8:30:00 AM 4.02 39.236 0.09 7.1 5.53 12.61
12/12/2021 8:45:00 AM 4.04 39.272 0.09 7.12 5.4 12.66
12/12/2021 9:00:00 AM 4.06 39.308 0.09 7.15 5.38 12.73
12/12/2021 9:15:00 AM 4.09 39.362 0.089 7.17 5.24 12.79
12/12/2021 9:30:00 AM 4.12 39.416 0.089 7.19 5.31 12.84
12/12/2021 9:45:00 AM 4.16 39.488 0.089 7.21 5.2 12.87
12/12/2021 10:00:00 AM 4.19 39.542 0.089 7.23 5.12 12.88
12/12/2021 10:15:00 AM 4.25 39.65 0.089 7.22 5.03 12.89
12/12/2021 10:30:00 AM 4.29 39.722 0.089 7.26 5.01 12.89
12/12/2021 10:45:00 AM 4.35 39.83 0.089 7.26 5.07 12.9
12/12/2021 11:00:00 AM 4.43 39.974 0.088 7.29 4.93 12.89
12/12/2021 11:15:00 AM 4.52 40.136 0.088 7.28 4.96 12.87
12/12/2021 11:30:00 AM 4.61 40.298 0.088 7.3 4.93 12.86
12/12/2021 11:45:00 AM 4.72 40.496 0.088 7.31 4.84 12.84
12/12/2021 12:00:00 PM 4.79 40.622 0.088 7.33 4.83 12.82
12/12/2021 12:15:00 PM 4.87 40.766 0.088 7.32 4.82 12.8
12/12/2021 12:30:00 PM 4.95 40.91 0.088 7.32 4.88 12.78
12/12/2021 12:45:00 PM 4.99 40.982 0.087 7.3 4.78 12.76
12/12/2021 1:00:00 PM 5.05 41.09 0.087 7.34 4.77 12.74
12/12/2021 1:15:00 PM 5.08 41.144 0.087 7.29 4.71 12.72
12/12/2021 1:30:00 PM 5.09 41.162 0.087 7.32 4.69 12.68
12/12/2021 1:45:00 PM 5.07 41.126 0.087 7.33 4.68 12.67
12/12/2021 2:00:00 PM 5.05 41.09 0.087 7.31 4.67 12.65
12/12/2021 2:15:00 PM 5.01 41.018 0.087 7.29 4.71 12.62
12/12/2021 2:30:00 PM 4.96 40.928 0.087 7.28 4.68 12.59
12/12/2021 2:45:00 PM 4.89 40.802 0.087 7.26 4.73 12.56
12/12/2021 3:00:00 PM 4.84 40.712 0.087 7.21 4.74 12.55
12/12/2021 3:15:00 PM 4.79 40.622 0.087 7.23 4.67 12.54
12/12/2021 3:30:00 PM 4.76 40.568 0.087 7.22 4.65 12.53
12/12/2021 3:45:00 PM 4.71 40.478 0.087 7.21 4.66 12.52
12/12/2021 4:00:00 PM 4.67 40.406 0.087 7.19 4.64 12.51
12/12/2021 4:15:00 PM 4.63 40.334 0.087 7.18 4.7 12.49
12/12/2021 4:30:00 PM 4.58 40.244 0.087 7.16 4.58 12.47
12/12/2021 4:45:00 PM 4.53 40.154 0.087 7.14 4.67 12.44
12/12/2021 5:00:00 PM 4.47 40.046 0.087 7.1 4.57 12.42
12/12/2021 5:15:00 PM 4.41 39.938 0.087 7.11 4.55 12.41
12/12/2021 5:30:00 PM 4.36 39.848 0.087 7.1 4.63 12.4
12/12/2021 5:45:00 PM 4.3 39.74 0.087 7.09 4.6 12.4
12/12/2021 6:00:00 PM 4.25 39.65 0.087 7.09 4.61 12.42
12/12/2021 6:15:00 PM 4.2 39.56 0.087 7.07 4.58 12.43
12/12/2021 6:30:00 PM 4.15 39.47 0.087 7.08 4.64 12.44
12/12/2021 6:45:00 PM 4.11 39.398 0.087 7.07 4.61 12.45
12/12/2021 7:00:00 PM 4.06 39.308 0.087 7.06 4.73 12.46
12/12/2021 7:15:00 PM 4.02 39.236 0.087 7.06 4.6 12.48
12/12/2021 7:30:00 PM 3.98 39.164 0.087 7.07 4.57 12.5
12/12/2021 7:45:00 PM 3.93 39.074 0.087 7.06 4.6 12.51
12/12/2021 8:00:00 PM 3.89 39.002 0.087 7.02 4.62 12.52
12/12/2021 8:15:00 PM 3.85 38.93 0.087 7.06 4.6 12.53
12/12/2021 8:30:00 PM 3.81 38.858 0.087 7.06 4.6 12.55
12/12/2021 8:45:00 PM 3.77 38.786 0.087 7.05 4.59 12.57
12/12/2021 9:00:00 PM 3.73 38.714 0.087 7.05 4.6 12.59
12/12/2021 9:15:00 PM 3.7 38.66 0.087 7.03 4.65 12.59
12/12/2021 9:30:00 PM 3.66 38.588 0.087 7.06 4.65 12.61
12/12/2021 9:45:00 PM 3.63 38.534 0.087 7.06 4.59 12.62
12/12/2021 10:00:00 PM 3.59 38.462 0.087 7 4.7 12.63
12/12/2021 10:15:00 PM 3.56 38.408 0.087 7.06 4.65 12.64
12/12/2021 10:30:00 PM 3.53 38.354 0.087 7.03 4.61 12.65
12/12/2021 10:45:00 PM 3.5 38.3 0.087 7.05 4.61 12.66
12/12/2021 11:00:00 PM 3.47 38.246 0.087 7.05 4.55 12.67
12/12/2021 11:15:00 PM 3.44 38.192 0.087 7.04 4.57 12.68
12/12/2021 11:30:00 PM 3.42 38.156 0.087 7.05 4.56 12.69
12/12/2021 11:45:00 PM 3.39 38.102 0.087 7.06 4.55 12.69
12/13/2021 12:00:00 AM 3.37 38.066 0.087 7.04 4.53 12.71
12/13/2021 12:15:00 AM 3.35 38.03 0.087 7.04 4.58 12.72
12/13/2021 12:30:00 AM 3.34 38.012 0.087 7.04 4.59 12.72
12/13/2021 12:45:00 AM 3.33 37.994 0.086 7.06 4.51 12.73
12/13/2021 1:00:00 AM 3.32 37.976 0.086 7.04 4.57 12.74
12/13/2021 1:15:00 AM 3.3 37.94 0.086 7.06 4.51 12.74
12/13/2021 1:30:00 AM 3.3 37.94 0.086 7.05 4.48 12.75
12/13/2021 1:45:00 AM 3.3 37.94 0.086 7.03 4.51 12.75
12/13/2021 2:00:00 AM 3.29 37.922 0.086 7.05 4.43 12.75
12/13/2021 2:15:00 AM 3.29 37.922 0.086 7.01 4.5 12.75
12/13/2021 2:30:00 AM 3.28 37.904 0.086 7.05 4.45 12.76
12/13/2021 2:45:00 AM 3.29 37.922 0.086 7.04 4.55 12.76
12/13/2021 3:00:00 AM 3.3 37.94 0.086 7.05 4.44 12.76
12/13/2021 3:15:00 AM 3.31 37.958 0.086 7.06 4.47 12.76
12/13/2021 3:30:00 AM 3.31 37.958 0.086 7.06 4.45 12.76
12/13/2021 3:45:00 AM 3.32 37.976 0.086 7.05 4.42 12.75
12/13/2021 4:00:00 AM 3.33 37.994 0.086 7.06 4.41 12.75
12/13/2021 4:15:00 AM 3.34 38.012 0.086 7.03 4.46 12.75
12/13/2021 4:30:00 AM 3.34 38.012 0.086 7.04 4.4 12.74
12/13/2021 4:45:00 AM 3.35 38.03 0.085 7.05 4.41 12.74
12/13/2021 5:00:00 AM 3.35 38.03 0.085 7.04 4.42 12.75
12/13/2021 5:15:00 AM 3.35 38.03 0.085 7.03 4.44 12.75
12/13/2021 5:30:00 AM 3.35 38.03 0.085 7.04 4.42 12.74
12/13/2021 5:45:00 AM 3.36 38.048 0.085 7.04 4.4 12.74
12/13/2021 6:00:00 AM 3.37 38.066 0.085 7.03 4.45 12.74
12/13/2021 6:15:00 AM 3.37 38.066 0.085 7.06 4.4 12.74
12/13/2021 6:30:00 AM 3.37 38.066 0.085 7.02 4.47 12.74
12/13/2021 6:45:00 AM 3.38 38.084 0.085 7.05 4.45 12.74
12/13/2021 7:00:00 AM 3.38 38.084 0.085 7.05 4.44 12.74
12/13/2021 7:15:00 AM 3.38 38.084 0.085 7.05 4.43 12.73
12/13/2021 7:30:00 AM 3.39 38.102 0.085 7.06 4.42 12.74
12/13/2021 7:45:00 AM 3.4 38.12 0.085 7.04 4.38 12.75
12/13/2021 8:00:00 AM 3.4 38.12 0.085 7.06 4.38 12.77
12/13/2021 8:15:00 AM 3.4 38.12 0.085 7.07 4.34 12.82
12/13/2021 8:30:00 AM 3.42 38.156 0.084 7.05 4.37 12.86
12/13/2021 8:45:00 AM 3.41 38.138 0.084 7.05 4.41 12.89
12/13/2021 9:00:00 AM 3.41 38.138 0.084 7.11 4.42 12.93
12/13/2021 9:15:00 AM 3.42 38.156 0.084 7.12 4.32 12.97
12/13/2021 9:30:00 AM 3.44 38.192 0.084 7.14 4.31 13.01
12/13/2021 9:45:00 AM 3.49 38.282 0.084 7.16 4.31 13.06
12/13/2021 10:00:00 AM 3.55 38.39 0.084 7.16 4.29 13.08
12/13/2021 10:15:00 AM 3.64 38.552 0.084 7.19 4.29 13.1
12/13/2021 10:30:00 AM 3.73 38.714 0.083 7.21 4.29 13.1
12/13/2021 10:45:00 AM 3.84 38.912 0.083 7.23 4.26 13.09
12/13/2021 11:00:00 AM 3.95 39.11 0.083 7.24 4.24 13.08
12/13/2021 11:15:00 AM 4.09 39.362 0.083 7.27 4.31 13.06
12/13/2021 11:30:00 AM 4.23 39.614 0.083 7.28 4.24 13.03
12/13/2021 11:45:00 AM 4.36 39.848 0.083 7.28 4.25 12.99
12/13/2021 12:00:00 PM 4.48 40.064 0.082 7.31 4.26 12.96
12/13/2021 12:15:00 PM 4.59 40.262 0.082 7.31 4.32 12.92
12/13/2021 12:30:00 PM 4.69 40.442 0.082 7.31 4.19 12.88
12/13/2021 12:45:00 PM 4.78 40.604 0.082 7.32 4.24 12.84
12/13/2021 1:00:00 PM 4.87 40.766 0.082 7.32 4.23 12.8
12/13/2021 1:15:00 PM 4.93 40.874 0.082 7.31 4.19 12.78
12/13/2021 1:30:00 PM 4.97 40.946 0.082 7.32 4.18 12.73
12/13/2021 1:45:00 PM 4.99 40.982 0.082 7.31 4.25 12.71
12/13/2021 2:00:00 PM 4.99 40.982 0.082 7.29 4.22 12.68
12/13/2021 2:15:00 PM 4.97 40.946 0.082 7.27 4.19 12.65
12/13/2021 2:30:00 PM 4.92 40.856 0.082 7.26 4.31 12.62
12/13/2021 2:45:00 PM 4.88 40.784 0.082 7.21 4.24 12.58
12/13/2021 3:00:00 PM 4.83 40.694 0.082 7.22 4.27 12.55
12/13/2021 3:15:00 PM 4.8 40.64 0.082 7.2 4.26 12.55
12/13/2021 3:30:00 PM 4.77 40.586 0.082 7.21 4.25 12.53
12/13/2021 3:45:00 PM 4.74 40.532 0.082 7.19 4.23 12.52
12/13/2021 4:00:00 PM 4.71 40.478 0.082 7.18 4.24 12.5
12/13/2021 4:15:00 PM 4.68 40.424 0.082 7.17 4.26 12.49
12/13/2021 4:30:00 PM 4.65 40.37 0.082 7.15 4.29 12.46
12/13/2021 4:45:00 PM 4.61 40.298 0.082 7.14 4.31 12.43
12/13/2021 5:00:00 PM 4.56 40.208 0.082 7.13 4.3 12.4
12/13/2021 5:15:00 PM 4.5 40.1 0.082 7.1 4.26 12.39
12/13/2021 5:30:00 PM 4.45 40.01 0.082 7.1 4.27 12.39
12/13/2021 5:45:00 PM 4.4 39.92 0.082 7.08 4.38 12.39
12/13/2021 6:00:00 PM 4.35 39.83 0.082 7.06 4.25 12.4
12/13/2021 6:15:00 PM 4.3 39.74 0.082 7.06 4.34 12.41
12/13/2021 6:30:00 PM 4.26 39.668 0.082 7.05 4.32 12.42
12/13/2021 6:45:00 PM 4.22 39.596 0.082 7.03 4.29 12.44
12/13/2021 7:00:00 PM 4.17 39.506 0.082 7.05 4.27 12.45
12/13/2021 7:15:00 PM 4.13 39.434 0.082 7.01 4.29 12.46
12/13/2021 7:30:00 PM 4.09 39.362 0.082 7.03 4.24 12.48
12/13/2021 7:45:00 PM 4.06 39.308 0.082 7.06 4.26 12.49
12/13/2021 8:00:00 PM 4.02 39.236 0.082 7.04 4.29 12.5
12/13/2021 8:15:00 PM 3.98 39.164 0.082 7.02 4.35 12.52
12/13/2021 8:30:00 PM 3.95 39.11 0.082 7.05 4.38 12.53
12/13/2021 8:45:00 PM 3.91 39.038 0.082 7.03 4.38 12.54
12/13/2021 9:00:00 PM 3.88 38.984 0.082 7.04 4.29 12.56
12/13/2021 9:15:00 PM 3.84 38.912 0.082 7.03 4.28 12.57
12/13/2021 9:30:00 PM 3.81 38.858 0.082 7.03 4.23 12.58
12/13/2021 9:45:00 PM 3.77 38.786 0.082 7.04 4.27 12.6
12/13/2021 10:00:00 PM 3.74 38.732 0.082 7.03 4.32 12.62
12/13/2021 10:15:00 PM 3.71 38.678 0.082 7.01 4.31 12.62
12/13/2021 10:30:00 PM 3.68 38.624 0.082 7.04 4.28 12.63
12/13/2021 10:45:00 PM 3.65 38.57 0.082 7.03 4.15 12.65
12/13/2021 11:00:00 PM 3.63 38.534 0.082 7.03 4.18 12.66
12/13/2021 11:15:00 PM 3.6 38.48 0.082 7.04 4.31 12.67
12/13/2021 11:30:00 PM 3.58 38.444 0.082 7.02 4.26 12.68
12/13/2021 11:45:00 PM 3.55 38.39 0.082 7.03 4.17 12.69
12/14/2021 12:00:00 AM 3.53 38.354 0.082 7.01 4.21 12.7
12/14/2021 12:15:00 AM 3.5 38.3 0.082 7.03 4.23 12.71
12/14/2021 12:30:00 AM 3.48 38.264 0.082 7 4.18 12.72
12/14/2021 12:45:00 AM 3.46 38.228 0.082 7.03 4.21 12.73
12/14/2021 1:00:00 AM 3.43 38.174 0.082 7.03 4.19 12.74
12/14/2021 1:15:00 AM 3.41 38.138 0.082 7.01 4.21 12.75
12/14/2021 1:30:00 AM 3.39 38.102 0.082 7.01 4.21 12.76
12/14/2021 1:45:00 AM 3.37 38.066 0.082 7.01 4.21 12.77
12/14/2021 2:00:00 AM 3.35 38.03 0.082 7.02 4.22 12.78
12/14/2021 2:15:00 AM 3.33 37.994 0.082 7 4.16 12.79
12/14/2021 2:30:00 AM 3.3 37.94 0.082 7.01 4.17 12.79
12/14/2021 2:45:00 AM 3.28 37.904 0.082 7.01 4.2 12.81
12/14/2021 3:00:00 AM 3.26 37.868 0.082 7 4.19 12.81
12/14/2021 3:15:00 AM 3.24 37.832 0.082 7.01 4.22 12.83
12/14/2021 3:30:00 AM 3.21 37.778 0.082 7 4.15 12.84
12/14/2021 3:45:00 AM 3.19 37.742 0.082 6.99 4.2 12.85
12/14/2021 4:00:00 AM 3.17 37.706 0.082 6.97 4.24 12.85
12/14/2021 4:15:00 AM 3.15 37.67 0.082 6.98 4.22 12.86
12/14/2021 4:30:00 AM 3.12 37.616 0.081 7.01 4.25 12.87
12/14/2021 4:45:00 AM 3.1 37.58 0.081 7.02 4.22 12.88
12/14/2021 5:00:00 AM 3.08 37.544 0.081 7.01 4.2 12.89
12/14/2021 5:15:00 AM 3.06 37.508 0.081 7 4.16 12.9
12/14/2021 5:30:00 AM 3.04 37.472 0.081 6.95 4.2 12.91
12/14/2021 5:45:00 AM 3.02 37.436 0.081 7 4.25 12.92
12/14/2021 6:00:00 AM 3 37.4 0.081 7 4.31 12.93
12/14/2021 6:15:00 AM 2.98 37.364 0.081 7.02 4.24 12.94
12/14/2021 6:30:00 AM 2.96 37.328 0.081 6.96 4.24 12.95
12/14/2021 6:45:00 AM 2.94 37.292 0.081 7.01 4.23 12.96
12/14/2021 7:00:00 AM 2.92 37.256 0.081 7.01 4.25 12.97
12/14/2021 7:15:00 AM 2.9 37.22 0.081 6.99 4.18 12.98
12/14/2021 7:30:00 AM 2.88 37.184 0.081 6.99 4.18 12.99
12/14/2021 7:45:00 AM 2.86 37.148 0.081 7.01 4.16 13.02
12/14/2021 8:00:00 AM 2.85 37.13 0.081 7.02 4.18 13.07
12/14/2021 8:15:00 AM 2.84 37.112 0.081 6.99 4.22 13.12
12/14/2021 8:30:00 AM 2.84 37.112 0.081 7.02 4.28 13.19
12/14/2021 8:45:00 AM 2.84 37.112 0.081 7.06 4.23 13.24
12/14/2021 9:00:00 AM 2.85 37.13 0.081 7.08 4.12 13.29
12/14/2021 9:15:00 AM 2.86 37.148 0.081 7.04 4.17 13.33
12/14/2021 9:30:00 AM 2.89 37.202 0.08 7.1 4.11 13.37
12/14/2021 9:45:00 AM 2.95 37.31 0.08 7.1 4.13 13.4
12/14/2021 10:00:00 AM 3.02 37.436 0.08 7.15 4.05 13.42
12/14/2021 10:15:00 AM 3.12 37.616 0.08 7.15 4.06 13.43
12/14/2021 10:30:00 AM 3.2 37.76 0.08 7.13 4.18 13.42
12/14/2021 10:45:00 AM 3.3 37.94 0.08 7.2 4.08 13.41
12/14/2021 11:00:00 AM 3.43 38.174 0.08 7.16 4.12 13.4
12/14/2021 11:15:00 AM 3.59 38.462 0.079 7.23 4.09 13.37
12/14/2021 11:30:00 AM 3.75 38.75 0.079 7.25 4.11 13.32
12/14/2021 11:45:00 AM 3.92 39.056 0.079 7.23 4.1 13.27
12/14/2021 12:00:00 PM 4.07 39.326 0.079 7.26 4.09 13.23
12/14/2021 12:15:00 PM 4.19 39.542 0.079 7.28 4.13 13.18
12/14/2021 12:30:00 PM 4.31 39.758 0.079 7.27 4.06 13.14
12/14/2021 12:45:00 PM 4.41 39.938 0.079 7.3 4.03 13.1
12/14/2021 1:00:00 PM 4.49 40.082 0.079 7.26 4.09 13.06
12/14/2021 1:15:00 PM 4.57 40.226 0.079 7.3 4.09 13.02
12/14/2021 1:30:00 PM 4.64 40.352 0.078 7.28 4.09 12.98
12/14/2021 1:45:00 PM 4.67 40.406 0.078 7.28 4.06 12.95
12/14/2021 2:00:00 PM 4.68 40.424 0.078 7.27 4.1 12.92
12/14/2021 2:15:00 PM 4.67 40.406 0.078 7.27 4.05 12.89
12/14/2021 2:30:00 PM 4.64 40.352 0.078 7.25 4.07 12.86
12/14/2021 2:45:00 PM 4.6 40.28 0.078 7.17 4.05 12.83
12/14/2021 3:00:00 PM 4.56 40.208 0.078 7.21 4.09 12.8
12/14/2021 3:15:00 PM 4.53 40.154 0.079 7.18 4.07 12.79
12/14/2021 3:30:00 PM 4.5 40.1 0.079 7.2 4.06 12.77
12/14/2021 3:45:00 PM 4.47 40.046 0.079 7.17 4.05 12.76
12/14/2021 4:00:00 PM 4.44 39.992 0.079 7.17 4.1 12.73
12/14/2021 4:15:00 PM 4.41 39.938 0.079 7.14 4.1 12.71
12/14/2021 4:30:00 PM 4.37 39.866 0.079 7.14 4.08 12.68
12/14/2021 4:45:00 PM 4.34 39.812 0.079 7.12 4.11 12.65
12/14/2021 5:00:00 PM 4.29 39.722 0.079 7.09 4.09 12.62
12/14/2021 5:15:00 PM 4.24 39.632 0.079 7.1 4.08 12.61
12/14/2021 5:30:00 PM 4.19 39.542 0.079 7.08 4.08 12.61
12/14/2021 5:45:00 PM 4.13 39.434 0.079 7.06 4.13 12.61
12/14/2021 6:00:00 PM 4.08 39.344 0.079 7.02 4.15 12.62
12/14/2021 6:15:00 PM 4.04 39.272 0.079 7.03 4.15 12.63
12/14/2021 6:30:00 PM 3.99 39.182 0.079 7.06 4.11 12.64
12/14/2021 6:45:00 PM 3.95 39.11 0.08 7.04 4.12 12.66
12/14/2021 7:00:00 PM 3.92 39.056 0.08 7.05 4.08 12.67
12/14/2021 7:15:00 PM 3.89 39.002 0.08 7 4.23 12.68
12/14/2021 7:30:00 PM 3.87 38.966 0.08 7.04 4.16 12.69
12/14/2021 7:45:00 PM 3.84 38.912 0.08 7.04 4.18 12.7
12/14/2021 8:00:00 PM 3.82 38.876 0.08 7.04 4.06 12.71
12/14/2021 8:15:00 PM 3.79 38.822 0.08 7.04 4.08 12.72
12/14/2021 8:30:00 PM 3.77 38.786 0.08 7.03 4.12 12.72
12/14/2021 8:45:00 PM 3.74 38.732 0.08 7.04 4.1 12.73
12/14/2021 9:00:00 PM 3.7 38.66 0.08 7.04 4.11 12.74
12/14/2021 9:15:00 PM 3.67 38.606 0.08 7.02 4.13 12.75
12/14/2021 9:30:00 PM 3.64 38.552 0.08 7.03 4.18 12.76
12/14/2021 9:45:00 PM 3.61 38.498 0.08 7.04 4.28 12.77
12/14/2021 10:00:00 PM 3.57 38.426 0.08 7.04 4.17 12.79
12/14/2021 10:15:00 PM 3.54 38.372 0.08 7.02 4.14 12.79
12/14/2021 10:30:00 PM 3.51 38.318 0.08 6.98 4.18 12.81
12/14/2021 10:45:00 PM 3.48 38.264 0.08 7.04 4.17 12.81
12/14/2021 11:00:00 PM 3.46 38.228 0.08 7 4.14 12.83
12/14/2021 11:15:00 PM 3.44 38.192 0.08 7.04 4.11 12.83
12/14/2021 11:30:00 PM 3.43 38.174 0.08 7.03 4.15 12.84
12/14/2021 11:45:00 PM 3.41 38.138 0.08 7.03 4.1 12.85
12/15/2021 12:00:00 AM 3.4 38.12 0.08 7.03 4.2 12.85
12/15/2021 12:15:00 AM 3.39 38.102 0.08 7.04 4.21 12.85
12/15/2021 12:30:00 AM 3.36 38.048 0.08 7.03 4.19 12.86
12/15/2021 12:45:00 AM 3.34 38.012 0.08 7.03 4.1 12.87
12/15/2021 1:00:00 AM 3.32 37.976 0.08 6.98 4.09 12.87
12/15/2021 1:15:00 AM 3.29 37.922 0.08 7.02 4.12 12.88
12/15/2021 1:30:00 AM 3.27 37.886 0.08 7.01 4.23 12.88
12/15/2021 1:45:00 AM 3.24 37.832 0.08 7.02 4.17 12.89
12/15/2021 2:00:00 AM 3.21 37.778 0.08 7.02 4.2 12.9
12/15/2021 2:15:00 AM 3.18 37.724 0.08 7.02 4.2 12.91
12/15/2021 2:30:00 AM 3.15 37.67 0.08 7.03 4.08 12.92
12/15/2021 2:45:00 AM 3.12 37.616 0.08 7.03 4.18 12.93
12/15/2021 3:00:00 AM 3.1 37.58 0.08 7.01 4.16 12.94
12/15/2021 3:15:00 AM 3.07 37.526 0.08 7.02 4.11 12.95
12/15/2021 3:30:00 AM 3.05 37.49 0.08 7.02 4.22 12.96
12/15/2021 3:45:00 AM 3.02 37.436 0.08 7.01 4.23 12.96
12/15/2021 4:00:00 AM 2.99 37.382 0.08 7 4.19 12.97
12/15/2021 4:15:00 AM 2.97 37.346 0.08 7 4.18 12.98
12/15/2021 4:30:00 AM 2.96 37.328 0.08 7.02 4.21 12.99
12/15/2021 4:45:00 AM 2.94 37.292 0.08 7 4.22 12.99
12/15/2021 5:00:00 AM 2.92 37.256 0.08 7.01 4.22 13
12/15/2021 5:15:00 AM 2.9 37.22 0.08 7.02 4.18 13
12/15/2021 5:30:00 AM 2.9 37.22 0.08 7.02 4.22 13.01
12/15/2021 5:45:00 AM 2.89 37.202 0.08 7.02 4.3 13.01
12/15/2021 6:00:00 AM 2.88 37.184 0.08 7.01 4.19 13.01
12/15/2021 6:15:00 AM 2.87 37.166 0.08 7.01 4.17 13.01
12/15/2021 6:30:00 AM 2.87 37.166 0.08 7.01 4.13 13.01
12/15/2021 6:45:00 AM 2.85 37.13 0.08 7.01 4.14 13.01
12/15/2021 7:00:00 AM 2.84 37.112 0.079 7.01 4.11 13.03
12/15/2021 7:15:00 AM 2.83 37.094 0.079 7.01 4.13 13.03
12/15/2021 7:30:00 AM 2.84 37.112 0.079 7.02 4.09 13.03
12/15/2021 7:45:00 AM 2.84 37.112 0.079 7.02 4.06 13.05
12/15/2021 8:00:00 AM 2.86 37.148 0.079 7.03 4.05 13.08
12/15/2021 8:15:00 AM 2.88 37.184 0.079 7.05 4.08 13.13
12/15/2021 8:30:00 AM 2.92 37.256 0.079 7.06 4.09 13.18
12/15/2021 8:45:00 AM 2.97 37.346 0.079 7.05 4.03 13.22
12/15/2021 9:00:00 AM 3.03 37.454 0.079 7.1 4.05 13.24
12/15/2021 9:15:00 AM 3.1 37.58 0.079 7.12 4.03 13.27
12/15/2021 9:30:00 AM 3.19 37.742 0.079 7.14 4.01 13.31
12/15/2021 9:45:00 AM 3.28 37.904 0.078 7.17 4.03 13.34
12/15/2021 10:00:00 AM 3.36 38.048 0.078 7.18 3.97 13.34
12/15/2021 10:15:00 AM 3.44 38.192 0.078 7.21 3.98 13.34
12/15/2021 10:30:00 AM 3.51 38.318 0.078 7.23 4.03 13.34
12/15/2021 10:45:00 AM 3.58 38.444 0.078 7.23 4.02 13.32
12/15/2021 11:00:00 AM 3.65 38.57 0.078 7.24 4.02 13.29
12/15/2021 11:15:00 AM 3.71 38.678 0.078 7.25 3.96 13.26
12/15/2021 11:30:00 AM 3.78 38.804 0.078 7.26 3.99 13.25
12/15/2021 11:45:00 AM 3.85 38.93 0.078 7.23 3.97 13.23
12/15/2021 12:00:00 PM 3.91 39.038 0.078 7.26 3.98 13.2
12/15/2021 12:15:00 PM 3.97 39.146 0.078 7.27 4.05 13.16
12/15/2021 12:30:00 PM 4.03 39.254 0.078 7.27 3.99 13.12
12/15/2021 12:45:00 PM 4.06 39.308 0.078 7.27 4.04 13.05
12/15/2021 1:00:00 PM 4.1 39.38 0.078 7.24 3.97 12.99
12/15/2021 1:15:00 PM 4.13 39.434 0.078 7.24 3.97 12.96
12/15/2021 1:30:00 PM 4.17 39.506 0.077 7.24 3.99 12.93
12/15/2021 1:45:00 PM 4.21 39.578 0.077 7.23 4.02 12.91
12/15/2021 2:00:00 PM 4.25 39.65 0.077 7.23 4.01 12.9
12/15/2021 2:15:00 PM 4.3 39.74 0.077 7.24 4.02 12.9
12/15/2021 2:30:00 PM 4.34 39.812 0.077 7.21 4.02 12.86
12/15/2021 2:45:00 PM 4.37 39.866 0.077 7.21 4.04 12.83
12/15/2021 3:00:00 PM 4.4 39.92 0.077 7.18 4.04 12.77
12/15/2021 3:15:00 PM 4.43 39.974 0.078 7.2 4.03 12.71
12/15/2021 3:30:00 PM 4.46 40.028 0.078 7.19 4.02 12.67
12/15/2021 3:45:00 PM 4.49 40.082 0.078 7.19 3.99 12.64
12/15/2021 4:00:00 PM 4.52 40.136 0.078 7.14 4.06 12.61
12/15/2021 4:15:00 PM 4.54 40.172 0.078 7.17 4.02 12.55
12/15/2021 4:30:00 PM 4.56 40.208 0.078 7.14 4.05 12.5
12/15/2021 4:45:00 PM 4.58 40.244 0.078 7.15 4.01 12.46
12/15/2021 5:00:00 PM 4.6 40.28 0.078 7.13 4.02 12.43
12/15/2021 5:15:00 PM 4.61 40.298 0.078 7.13 4 12.39
12/15/2021 5:30:00 PM 4.63 40.334 0.078 7.11 4.07 12.37
12/15/2021 5:45:00 PM 4.65 40.37 0.078 7.11 4.02 12.36
12/15/2021 6:00:00 PM 4.66 40.388 0.078 7.1 4.08 12.34
12/15/2021 6:15:00 PM 4.68 40.424 0.078 7.08 4.08 12.33
12/15/2021 6:30:00 PM 4.69 40.442 0.078 7.1 4.09 12.32
12/15/2021 6:45:00 PM 4.7 40.46 0.079 7.1 4.08 12.31
12/15/2021 7:00:00 PM 4.72 40.496 0.079 7.1 4.06 12.3
12/15/2021 7:15:00 PM 4.73 40.514 0.079 7.1 4.04 12.3
12/15/2021 7:30:00 PM 4.75 40.55 0.079 7.1 4.03 12.29
12/15/2021 7:45:00 PM 4.77 40.586 0.079 7.11 4.02 12.28
12/15/2021 8:00:00 PM 4.76 40.568 0.079 7.09 4.07 12.28
12/15/2021 8:15:00 PM 4.76 40.568 0.079 7.09 4.07 12.27
12/15/2021 8:30:00 PM 4.77 40.586 0.079 7.09 4.08 12.27
12/15/2021 8:45:00 PM 4.79 40.622 0.079 7.1 4.03 12.26
12/15/2021 9:00:00 PM 4.8 40.64 0.079 7.1 4.01 12.25
12/15/2021 9:15:00 PM 4.81 40.658 0.079 7.09 4.06 12.25
12/15/2021 9:30:00 PM 4.83 40.694 0.079 7.08 4.06 12.24
12/15/2021 9:45:00 PM 4.85 40.73 0.079 7.1 4.07 12.23
12/15/2021 10:00:00 PM 4.87 40.766 0.079 7.1 4.03 12.23
12/15/2021 10:15:00 PM 4.89 40.802 0.079 7.09 3.98 12.21
12/15/2021 10:30:00 PM 4.91 40.838 0.079 7.09 4.07 12.2
12/15/2021 10:45:00 PM 4.93 40.874 0.079 7.1 4.06 12.2
12/15/2021 11:00:00 PM 4.95 40.91 0.079 7.11 4 12.19
12/15/2021 11:15:00 PM 4.95 40.91 0.079 7.1 4.08 12.19
12/15/2021 11:30:00 PM 4.95 40.91 0.079 7.07 4.02 12.17
12/15/2021 11:45:00 PM 4.95 40.91 0.079 7.1 4.05 12.17
12/16/2021 12:00:00 AM 4.94 40.892 0.079 7.11 4.06 12.17
12/16/2021 12:15:00 AM 4.92 40.856 0.079 7.1 4.04 12.18
12/16/2021 12:30:00 AM 4.91 40.838 0.079 7.1 4.05 12.18
12/16/2021 12:45:00 AM 4.89 40.802 0.079 7.1 4.06 12.18
12/16/2021 1:00:00 AM 4.88 40.784 0.079 7.09 4.12 12.18
12/16/2021 1:15:00 AM 4.89 40.802 0.079 7.04 4.07 12.18
12/16/2021 1:30:00 AM 4.9 40.82 0.079 7.09 4.04 12.17
12/16/2021 1:45:00 AM 4.92 40.856 0.079 7.1 4.06 12.18
12/16/2021 2:00:00 AM 4.93 40.874 0.079 7.1 4.1 12.17
12/16/2021 2:15:00 AM 4.94 40.892 0.079 7.09 4.11 12.17
12/16/2021 2:30:00 AM 4.95 40.91 0.079 7.05 4.13 12.15
12/16/2021 2:45:00 AM 4.96 40.928 0.079 7.1 4.14 12.15
12/16/2021 3:00:00 AM 4.97 40.946 0.079 7.09 4.11 12.15
12/16/2021 3:15:00 AM 4.98 40.964 0.08 7.08 4.11 12.14
12/16/2021 3:30:00 AM 4.99 40.982 0.08 7.09 4.06 12.14
12/16/2021 3:45:00 AM 5 41 0.08 7.08 4.1 12.13
12/16/2021 4:00:00 AM 5.01 41.018 0.08 7.1 4.1 12.12
12/16/2021 4:15:00 AM 5.01 41.018 0.08 7.03 4.14 12.13
12/16/2021 4:30:00 AM 5.01 41.018 0.08 7.1 4.09 12.11
12/16/2021 4:45:00 AM 5 41 0.08 7.09 4.23 12.12
12/16/2021 5:00:00 AM 5 41 0.08 7.09 4.1 12.11
12/16/2021 5:15:00 AM 4.99 40.982 0.08 7.07 4.13 12.11
12/16/2021 5:30:00 AM 4.99 40.982 0.08 7.09 4.18 12.11
12/16/2021 5:45:00 AM 4.98 40.964 0.08 7.07 4.07 12.12
12/16/2021 6:00:00 AM 4.97 40.946 0.08 7.07 4.12 12.12
12/16/2021 6:15:00 AM 4.95 40.91 0.08 7.08 4.03 12.11
12/16/2021 6:30:00 AM 4.93 40.874 0.08 7.03 4.06 12.12
12/16/2021 6:45:00 AM 4.92 40.856 0.08 7.08 4.04 12.13
12/16/2021 7:00:00 AM 4.91 40.838 0.08 7.09 4.09 12.12
12/16/2021 7:15:00 AM 4.89 40.802 0.08 7.09 4.1 12.13
12/16/2021 7:30:00 AM 4.87 40.766 0.08 7.08 4.08 12.13
12/16/2021 7:45:00 AM 4.85 40.73 0.08 7.09 4.04 12.16
12/16/2021 8:00:00 AM 4.84 40.712 0.08 7.08 4.06 12.19
12/16/2021 8:15:00 AM 4.83 40.694 0.08 7.11 4.02 12.25
12/16/2021 8:30:00 AM 4.83 40.694 0.079 7.13 4.04 12.32
12/16/2021 8:45:00 AM 4.83 40.694 0.079 7.14 4.02 12.38
12/16/2021 9:00:00 AM 4.84 40.712 0.079 7.17 4.01 12.43
12/16/2021 9:15:00 AM 4.86 40.748 0.079 7.16 4.04 12.48
12/16/2021 9:30:00 AM 4.9 40.82 0.079 7.21 4 12.52
12/16/2021 9:45:00 AM 4.94 40.892 0.079 7.22 3.98 12.56
12/16/2021 10:00:00 AM 5.01 41.018 0.079 7.25 3.98 12.58
12/16/2021 10:15:00 AM 5.1 41.18 0.079 7.28 3.98 12.6
12/16/2021 10:30:00 AM 5.21 41.378 0.079 7.26 3.98 12.61
12/16/2021 10:45:00 AM 5.34 41.612 0.078 7.28 3.91 12.59
12/16/2021 11:00:00 AM 5.47 41.846 0.078 7.35 4 12.58
12/16/2021 11:15:00 AM 5.63 42.134 0.078 7.36 3.98 12.56
12/16/2021 11:30:00 AM 5.74 42.332 0.078 7.38 3.99 12.53
12/16/2021 11:45:00 AM 5.82 42.476 0.078 7.39 3.96 12.5
12/16/2021 12:00:00 PM 5.89 42.602 0.078 7.4 3.92 12.48
12/16/2021 12:15:00 PM 5.96 42.728 0.078 7.41 3.92 12.45
12/16/2021 12:45:00 PM 6.14 43.052 0.078 7.42 3.94 12.38
12/16/2021 1:00:00 PM 6.21 43.178 0.078 7.42 3.93 12.33
12/16/2021 1:15:00 PM 6.28 43.304 0.078 7.41 3.96 12.29
12/16/2021 1:30:00 PM 6.34 43.412 0.078 7.4 3.96 12.27
12/16/2021 1:45:00 PM 6.39 43.502 0.078 7.36 3.92 12.24
12/16/2021 2:00:00 PM 6.44 43.592 0.078 7.39 3.94 12.2
12/16/2021 2:15:00 PM 6.48 43.664 0.078 7.4 3.93 12.16
12/16/2021 2:30:00 PM 6.53 43.754 0.078 7.37 4 12.12
12/16/2021 2:45:00 PM 6.57 43.826 0.078 7.38 3.94 12.08
12/16/2021 3:00:00 PM 6.61 43.898 0.078 7.37 3.92 12.03
12/16/2021 3:15:00 PM 6.65 43.97 0.078 7.36 3.96 12
12/16/2021 3:30:00 PM 6.68 44.024 0.078 7.35 3.92 11.95
12/16/2021 3:45:00 PM 6.71 44.078 0.078 7.29 3.98 11.9
12/16/2021 4:00:00 PM 6.73 44.114 0.078 7.31 3.95 11.82
12/16/2021 4:15:00 PM 6.75 44.15 0.078 7.25 4 11.75
12/16/2021 4:30:00 PM 6.77 44.186 0.078 7.26 4 11.69
12/16/2021 4:45:00 PM 6.78 44.204 0.078 7.24 4.02 11.63
12/16/2021 5:00:00 PM 6.8 44.24 0.078 7.22 4.01 11.58
12/16/2021 5:15:00 PM 6.82 44.276 0.078 7.2 4.06 11.54
12/16/2021 5:30:00 PM 6.84 44.312 0.078 7.13 4.08 11.52
12/16/2021 5:45:00 PM 6.87 44.366 0.079 7.19 4.07 11.5
12/16/2021 6:00:00 PM 6.88 44.384 0.079 7.2 4.16 11.49
12/16/2021 6:15:00 PM 6.91 44.438 0.079 7.11 4.06 11.47
12/16/2021 6:30:00 PM 6.94 44.492 0.079 7.18 4.06 11.46
12/16/2021 6:45:00 PM 6.99 44.582 0.079 7.19 4.13 11.45
12/16/2021 7:00:00 PM 7.01 44.618 0.079 7.19 3.98 11.44
12/16/2021 7:15:00 PM 7.04 44.672 0.079 7.17 4.01 11.42
12/16/2021 7:30:00 PM 7.05 44.69 0.079 7.14 4 11.42
12/16/2021 7:45:00 PM 7.07 44.726 0.079 7.19 4.02 11.41
12/16/2021 8:00:00 PM 7.09 44.762 0.079 7.17 4.07 11.4
12/16/2021 8:15:00 PM 7.12 44.816 0.079 7.18 4.04 11.39
12/16/2021 8:30:00 PM 7.14 44.852 0.079 7.17 3.99 11.38
12/16/2021 8:45:00 PM 7.14 44.852 0.079 7.18 4.01 11.37
12/16/2021 9:00:00 PM 7.16 44.888 0.079 7.17 4.08 11.37
12/16/2021 9:15:00 PM 7.17 44.906 0.079 7.18 3.97 11.36
12/16/2021 9:30:00 PM 7.18 44.924 0.08 7.17 3.99 11.36
12/16/2021 9:45:00 PM 7.2 44.96 0.08 7.18 3.94 11.35
12/16/2021 10:00:00 PM 7.21 44.978 0.08 7.16 4.01 11.35
12/16/2021 10:15:00 PM 7.22 44.996 0.08 7.11 4.03 11.34
12/16/2021 10:30:00 PM 7.24 45.032 0.08 7.11 4 11.34
12/16/2021 10:45:00 PM 7.26 45.068 0.08 7.18 3.98 11.33
12/16/2021 11:00:00 PM 7.28 45.104 0.08 7.18 3.99 11.33
12/16/2021 11:15:00 PM 7.28 45.104 0.08 7.13 3.98 11.33
12/16/2021 11:30:00 PM 7.27 45.086 0.08 7.17 4.04 11.32
12/16/2021 11:45:00 PM 7.25 45.05 0.08 7.18 4 11.33
12/17/2021 12:00:00 AM 7.23 45.014 0.08 7.18 3.96 11.34
12/17/2021 12:15:00 AM 7.18 44.924 0.08 7.18 3.96 11.35
12/17/2021 12:30:00 AM 7.14 44.852 0.08 7.17 4.04 11.36
12/17/2021 12:45:00 AM 7.1 44.78 0.08 7.17 3.96 11.37
12/17/2021 1:00:00 AM 7.04 44.672 0.08 7.17 4.15 11.39
12/17/2021 1:15:00 AM 6.99 44.582 0.08 7.17 4 11.41
12/17/2021 1:30:00 AM 6.93 44.474 0.08 7.17 4.03 11.43
12/17/2021 1:45:00 AM 6.88 44.384 0.08 7.16 4.08 11.45
12/17/2021 2:00:00 AM 6.82 44.276 0.08 7.15 4.04 11.47
12/17/2021 2:15:00 AM 6.76 44.168 0.08 7.16 4.05 11.49
12/17/2021 2:30:00 AM 6.7 44.06 0.08 7.16 3.96 11.51
12/17/2021 2:45:00 AM 6.64 43.952 0.08 7.14 3.99 11.53
12/17/2021 3:00:00 AM 6.57 43.826 0.08 7.15 3.98 11.55
12/17/2021 3:15:00 AM 6.51 43.718 0.08 7.14 3.98 11.57
12/17/2021 3:30:00 AM 6.44 43.592 0.08 7.13 4.01 11.59
12/17/2021 3:45:00 AM 6.38 43.484 0.08 7.11 4 11.61
12/17/2021 4:00:00 AM 6.31 43.358 0.08 7.14 4.1 11.64
12/17/2021 4:15:00 AM 6.23 43.214 0.08 7.15 4.08 11.66
12/17/2021 4:30:00 AM 6.16 43.088 0.08 7.14 4.03 11.68
12/17/2021 4:45:00 AM 6.09 42.962 0.08 7.14 4.06 11.71
12/17/2021 5:00:00 AM 6.01 42.818 0.08 7.08 4.12 11.73
12/17/2021 5:15:00 AM 5.94 42.692 0.08 7.14 4.05 11.76
12/17/2021 5:30:00 AM 5.87 42.566 0.08 7.12 4.03 11.78
12/17/2021 5:45:00 AM 5.8 42.44 0.08 7.13 4.1 11.81
12/17/2021 6:00:00 AM 5.73 42.314 0.08 7.09 4.06 11.83
12/17/2021 6:15:00 AM 5.65 42.17 0.08 7.12 4.07 11.86
12/17/2021 6:30:00 AM 5.59 42.062 0.08 7.06 4.05 11.88
12/17/2021 6:45:00 AM 5.52 41.936 0.08 7.13 4.09 11.9
12/17/2021 7:00:00 AM 5.44 41.792 0.08 7.12 4.03 11.93
12/17/2021 7:15:00 AM 5.38 41.684 0.08 7.13 3.98 11.95
12/17/2021 7:30:00 AM 5.31 41.558 0.08 7.09 3.99 11.99
12/17/2021 7:45:00 AM 5.25 41.45 0.08 7.11 4.07 12.01
12/17/2021 8:00:00 AM 5.19 41.342 0.08 7.13 4.02 12.06
12/17/2021 8:15:00 AM 5.14 41.252 0.08 7.06 4.04 12.13
12/17/2021 8:30:00 AM 5.09 41.162 0.08 7.15 3.98 12.2
12/17/2021 8:45:00 AM 5.04 41.072 0.08 7.14 4 12.26
12/17/2021 9:00:00 AM 5.01 41.018 0.08 7.17 3.97 12.34
12/17/2021 9:15:00 AM 4.99 40.982 0.08 7.19 4.01 12.39
12/17/2021 9:30:00 AM 4.99 40.982 0.079 7.22 4.01 12.44
12/17/2021 9:45:00 AM 4.99 40.982 0.079 7.23 3.96 12.51
12/17/2021 10:00:00 AM 5.03 41.054 0.079 7.25 3.96 12.54
12/17/2021 10:15:00 AM 5.1 41.18 0.079 7.25 3.99 12.58
12/17/2021 10:30:00 AM 5.17 41.306 0.079 7.3 4 12.6
12/17/2021 10:45:00 AM 5.25 41.45 0.079 7.32 3.96 12.6
12/17/2021 11:00:00 AM 5.34 41.612 0.079 7.33 3.94 12.58
12/17/2021 11:15:00 AM 5.44 41.792 0.079 7.36 3.98 12.57
12/17/2021 11:30:00 AM 5.55 41.99 0.078 7.36 3.94 12.56
12/17/2021 11:45:00 AM 5.65 42.17 0.078 7.37 3.96 12.55
12/17/2021 12:00:00 PM 5.74 42.332 0.078 7.38 3.91 12.52
12/17/2021 12:15:00 PM 5.83 42.494 0.078 7.4 3.86 12.49
12/17/2021 12:30:00 PM 5.92 42.656 0.078 7.41 3.87 12.47
12/17/2021 12:45:00 PM 6.01 42.818 0.078 7.31 3.88 12.44
12/17/2021 1:00:00 PM 6.08 42.944 0.078 7.42 3.88 12.42
12/17/2021 1:15:00 PM 6.13 43.034 0.078 7.41 3.92 12.4
12/17/2021 1:30:00 PM 6.14 43.052 0.078 7.39 3.88 12.38
12/17/2021 1:45:00 PM 6.13 43.034 0.078 7.42 3.89 12.39
12/17/2021 2:00:00 PM 6.07 42.926 0.078 7.41 3.91 12.37
12/17/2021 2:15:00 PM 6.02 42.836 0.078 7.39 3.95 12.38
12/17/2021 2:30:00 PM 5.98 42.764 0.078 7.34 3.91 12.41
12/17/2021 2:45:00 PM 5.97 42.746 0.078 7.4 3.89 12.42
12/17/2021 3:00:00 PM 5.95 42.71 0.077 7.38 3.94 12.42
12/17/2021 3:15:00 PM 5.93 42.674 0.077 7.4 3.93 12.41
12/17/2021 3:30:00 PM 5.9 42.62 0.077 7.31 3.92 12.39
12/17/2021 3:45:00 PM 5.87 42.566 0.077 7.37 3.95 12.36
12/17/2021 4:00:00 PM 5.84 42.512 0.078 7.36 3.97 12.32
12/17/2021 4:15:00 PM 5.82 42.476 0.078 7.33 3.91 12.26
12/17/2021 4:30:00 PM 5.78 42.404 0.078 7.24 3.98 12.19
12/17/2021 4:45:00 PM 5.74 42.332 0.078 7.26 3.96 12.12
12/17/2021 5:00:00 PM 5.7 42.26 0.078 7.24 3.96 12.06
12/17/2021 5:15:00 PM 5.65 42.17 0.078 7.21 3.97 12.03
12/17/2021 5:30:00 PM 5.6 42.08 0.079 7.16 3.97 12.01
12/17/2021 5:45:00 PM 5.54 41.972 0.079 7.17 3.97 12
12/17/2021 6:00:00 PM 5.48 41.864 0.079 7.17 3.97 12.01
12/17/2021 6:15:00 PM 5.43 41.774 0.079 7.16 3.97 12.01
12/17/2021 6:30:00 PM 5.38 41.684 0.079 7.13 4.01 12.03
12/17/2021 6:45:00 PM 5.33 41.594 0.079 7.13 3.98 12.03
12/17/2021 7:00:00 PM 5.27 41.486 0.079 7.14 4.02 12.05
12/17/2021 7:15:00 PM 5.21 41.378 0.079 7.14 4.28 12.08
12/17/2021 7:30:00 PM 5.16 41.288 0.079 7.13 3.97 12.09
12/17/2021 7:45:00 PM 5.11 41.198 0.079 7.13 3.94 12.11
12/17/2021 8:00:00 PM 5.05 41.09 0.079 7.12 3.96 12.12
12/17/2021 8:15:00 PM 5.01 41.018 0.08 7.12 3.98 12.13
12/17/2021 8:30:00 PM 4.97 40.946 0.08 7.12 3.95 12.15
12/17/2021 8:45:00 PM 4.92 40.856 0.08 7.12 3.96 12.16
12/17/2021 9:00:00 PM 4.89 40.802 0.08 7.12 3.97 12.17
12/17/2021 9:15:00 PM 4.85 40.73 0.08 7.12 3.98 12.19
12/17/2021 9:30:00 PM 4.82 40.676 0.08 7.12 3.96 12.2
12/17/2021 9:45:00 PM 4.79 40.622 0.08 7.09 3.97 12.21
12/17/2021 10:00:00 PM 4.77 40.586 0.08 7.13 3.94 12.22
12/17/2021 10:15:00 PM 4.74 40.532 0.08 7.13 4 12.22
12/17/2021 10:30:00 PM 4.71 40.478 0.08 7.12 3.99 12.23
12/17/2021 10:45:00 PM 4.69 40.442 0.08 7.12 4 12.24
12/17/2021 11:00:00 PM 4.67 40.406 0.08 7.13 4.03 12.25
12/17/2021 11:15:00 PM 4.66 40.388 0.08 7.1 4.04 12.25
12/17/2021 11:30:00 PM 4.65 40.37 0.08 7.12 4.03 12.25
12/17/2021 11:45:00 PM 4.63 40.334 0.08 7.13 4.01 12.26
12/18/2021 12:00:00 AM 4.62 40.316 0.08 7.11 3.99 12.26
12/18/2021 12:15:00 AM 4.61 40.298 0.08 7.12 3.98 12.26
12/18/2021 12:30:00 AM 4.6 40.28 0.08 7.12 3.97 12.27
12/18/2021 12:45:00 AM 4.59 40.262 0.08 7.12 3.96 12.27
12/18/2021 1:00:00 AM 4.59 40.262 0.08 7.13 3.92 12.27
12/18/2021 1:15:00 AM 4.58 40.244 0.08 7.11 3.97 12.27
12/18/2021 1:30:00 AM 4.58 40.244 0.08 7.13 3.96 12.27
12/18/2021 1:45:00 AM 4.58 40.244 0.08 7.12 3.96 12.27
12/18/2021 2:00:00 AM 4.57 40.226 0.08 7.11 3.94 12.27
12/18/2021 2:15:00 AM 4.57 40.226 0.08 7.11 4.02 12.27
12/18/2021 2:30:00 AM 4.57 40.226 0.08 7.12 3.96 12.27
12/18/2021 2:45:00 AM 4.57 40.226 0.08 7.11 4.02 12.27
12/18/2021 3:00:00 AM 4.57 40.226 0.08 7.12 4.01 12.26
12/18/2021 3:15:00 AM 4.57 40.226 0.08 7.13 4 12.27
12/18/2021 3:30:00 AM 4.58 40.244 0.08 7.11 3.97 12.26
12/18/2021 3:45:00 AM 4.58 40.244 0.08 7.13 3.93 12.26
12/18/2021 4:00:00 AM 4.59 40.262 0.08 7.07 3.94 12.26
12/18/2021 4:15:00 AM 4.6 40.28 0.08 7.12 3.89 12.26
12/18/2021 4:30:00 AM 4.6 40.28 0.08 7.11 4.02 12.25
12/18/2021 4:45:00 AM 4.61 40.298 0.08 7.13 3.86 12.25
12/18/2021 5:00:00 AM 4.62 40.316 0.08 7.12 4 12.24
12/18/2021 5:15:00 AM 4.62 40.316 0.08 7.07 3.89 12.24
12/18/2021 5:30:00 AM 4.63 40.334 0.08 7.14 4 12.24
12/18/2021 5:45:00 AM 4.62 40.316 0.08 7.13 4.03 12.23
12/18/2021 6:00:00 AM 4.62 40.316 0.08 7.13 4.04 12.24
12/18/2021 6:15:00 AM 4.62 40.316 0.08 7.13 3.97 12.24
12/18/2021 6:30:00 AM 4.62 40.316 0.08 7.12 3.97 12.23
12/18/2021 6:45:00 AM 4.62 40.316 0.08 7.13 3.92 12.23
12/18/2021 7:00:00 AM 4.62 40.316 0.08 7.13 4.26 12.23
12/18/2021 7:15:00 AM 4.62 40.316 0.08 7.13 4.02 12.23
12/18/2021 7:30:00 AM 4.62 40.316 0.08 7.13 4 12.23
12/18/2021 7:45:00 AM 4.61 40.298 0.08 7.14 3.94 12.24
12/18/2021 8:00:00 AM 4.61 40.298 0.08 7.14 3.92 12.26
12/18/2021 8:15:00 AM 4.61 40.298 0.08 7.15 3.95 12.3
12/18/2021 8:30:00 AM 4.61 40.298 0.079 7.15 3.93 12.33
12/18/2021 8:45:00 AM 4.61 40.298 0.079 7.16 3.86 12.35
12/18/2021 9:00:00 AM 4.61 40.298 0.079 7.15 3.92 12.38
12/18/2021 9:15:00 AM 4.61 40.298 0.079 7.11 3.93 12.42
12/18/2021 9:30:00 AM 4.61 40.298 0.079 7.19 3.93 12.42
12/18/2021 9:45:00 AM 4.62 40.316 0.079 7.19 4.01 12.44
12/18/2021 10:00:00 AM 4.62 40.316 0.079 7.17 3.93 12.45
12/18/2021 10:15:00 AM 4.62 40.316 0.079 7.17 3.97 12.48
12/18/2021 10:30:00 AM 4.63 40.334 0.079 7.2 3.93 12.49
12/18/2021 10:45:00 AM 4.64 40.352 0.079 7.23 3.95 12.52
12/18/2021 11:00:00 AM 4.65 40.37 0.079 7.24 3.9 12.54
12/18/2021 11:15:00 AM 4.67 40.406 0.08 7.25 3.93 12.57
12/18/2021 11:30:00 AM 4.69 40.442 0.08 7.26 3.96 12.6
12/18/2021 11:45:00 AM 4.71 40.478 0.08 7.28 3.94 12.61
12/18/2021 12:00:00 PM 4.73 40.514 0.08 7.28 3.9 12.61
12/18/2021 12:15:00 PM 4.75 40.55 0.08 7.29 3.97 12.6
12/18/2021 12:30:00 PM 4.77 40.586 0.08 7.3 3.92 12.6
12/18/2021 12:45:00 PM 4.78 40.604 0.08 7.29 3.95 12.55
12/18/2021 1:00:00 PM 4.79 40.622 0.081 7.29 4.02 12.53
12/18/2021 1:15:00 PM 4.81 40.658 0.081 7.27 4.19 12.53
12/18/2021 1:30:00 PM 4.83 40.694 0.081 7.29 4.37 12.53
12/18/2021 1:45:00 PM 4.84 40.712 0.081 7.3 4.94 12.5
12/18/2021 2:00:00 PM 4.85 40.73 0.081 7.29 5.88 12.48
12/18/2021 2:15:00 PM 4.86 40.748 0.082 7.27 6.68 12.45
12/18/2021 2:30:00 PM 4.88 40.784 0.082 7.29 6.99 12.43
12/18/2021 2:45:00 PM 4.89 40.802 0.082 7.29 6.93 12.4
12/18/2021 3:00:00 PM 4.91 40.838 0.082 7.28 6.68 12.38
12/18/2021 3:15:00 PM 4.92 40.856 0.082 7.28 6.25 12.37
12/18/2021 3:30:00 PM 4.93 40.874 0.083 7.27 5.81 12.34
12/18/2021 3:45:00 PM 4.94 40.892 0.083 7.27 5.67 12.31
12/18/2021 4:00:00 PM 4.95 40.91 0.083 7.24 5.42 12.27
12/18/2021 4:15:00 PM 4.95 40.91 0.083 7.25 5.47 12.23
12/18/2021 4:30:00 PM 4.95 40.91 0.083 7.23 5.58 12.19
12/18/2021 4:45:00 PM 4.95 40.91 0.083 7.22 5.63 12.15
12/18/2021 5:00:00 PM 4.96 40.928 0.083 7.21 5.72 12.13
12/18/2021 5:15:00 PM 4.96 40.928 0.083 7.2 5.95 12.09
12/18/2021 5:30:00 PM 4.96 40.928 0.084 7.17 5.81 12.07
12/18/2021 5:45:00 PM 4.96 40.928 0.084 7.17 5.99 12.07
12/18/2021 6:00:00 PM 4.97 40.946 0.084 7.18 5.8 12.06
12/18/2021 6:15:00 PM 4.97 40.946 0.084 7.17 5.76 12.06
12/18/2021 6:30:00 PM 4.97 40.946 0.085 7.18 5.48 12.06
12/18/2021 6:45:00 PM 4.98 40.964 0.085 7.19 5.49 12.04
12/18/2021 7:00:00 PM 4.98 40.964 0.085 7.19 5.44 12.04
12/18/2021 7:15:00 PM 4.99 40.982 0.085 7.19 5.44 12.04
12/18/2021 7:30:00 PM 4.99 40.982 0.086 7.18 5.29 12.05
12/18/2021 7:45:00 PM 4.99 40.982 0.086 7.19 5.37 12.04
12/18/2021 8:00:00 PM 5 41 0.086 7.18 5.39 12.04
12/18/2021 8:15:00 PM 5 41 0.086 7.18 5.2 12.03
12/18/2021 8:30:00 PM 5.01 41.018 0.087 7.19 5.06 12.03
12/18/2021 8:45:00 PM 5.01 41.018 0.087 7.19 5.13 12.04
12/18/2021 9:00:00 PM 5.02 41.036 0.087 7.19 5.03 12.03
12/18/2021 9:15:00 PM 5.02 41.036 0.087 7.19 4.85 12.02
12/18/2021 9:30:00 PM 5.03 41.054 0.087 7.19 4.87 12.02
12/18/2021 9:45:00 PM 5.03 41.054 0.088 7.18 5.1 12.03
12/18/2021 10:00:00 PM 5.04 41.072 0.088 7.19 4.78 12.02
12/18/2021 10:15:00 PM 5.05 41.09 0.088 7.19 4.75 12.02
12/18/2021 10:30:00 PM 5.05 41.09 0.088 7.2 4.71 12.03
12/18/2021 10:45:00 PM 5.05 41.09 0.088 7.18 4.75 12.03
12/18/2021 11:00:00 PM 5.06 41.108 0.088 7.19 4.78 12.03
12/18/2021 11:15:00 PM 5.05 41.09 0.089 7.19 5.04 12.05
12/18/2021 11:30:00 PM 5.04 41.072 0.089 7.19 4.98 12.03
12/18/2021 11:45:00 PM 5.01 41.018 0.089 7.2 4.92 12.04
12/19/2021 12:00:00 AM 4.98 40.964 0.089 7.19 4.89 12.06
12/19/2021 12:15:00 AM 4.96 40.928 0.089 7.2 4.84 12.06
12/19/2021 12:30:00 AM 4.94 40.892 0.088 7.18 4.9 12.08
12/19/2021 12:45:00 AM 4.91 40.838 0.088 7.19 4.88 12.09
12/19/2021 1:00:00 AM 4.88 40.784 0.088 7.18 4.97 12.1
12/19/2021 1:15:00 AM 4.84 40.712 0.088 7.19 5.02 12.12
12/19/2021 1:30:00 AM 4.81 40.658 0.088 7.18 5.08 12.14
12/19/2021 1:45:00 AM 4.78 40.604 0.088 7.18 5.14 12.15
12/19/2021 2:00:00 AM 4.75 40.55 0.088 7.19 5.04 12.17
12/19/2021 2:15:00 AM 4.73 40.514 0.089 7.19 5.07 12.18
12/19/2021 2:30:00 AM 4.7 40.46 0.089 7.19 4.95 12.19
12/19/2021 2:45:00 AM 4.67 40.406 0.089 7.19 4.98 12.21
12/19/2021 3:00:00 AM 4.64 40.352 0.089 7.18 5.01 12.22
12/19/2021 3:15:00 AM 4.6 40.28 0.089 7.19 4.87 12.23
12/19/2021 3:30:00 AM 4.56 40.208 0.089 7.19 4.96 12.25
12/19/2021 3:45:00 AM 4.52 40.136 0.089 7.18 4.88 12.27
12/19/2021 4:00:00 AM 4.48 40.064 0.089 7.19 4.87 12.28
12/19/2021 4:15:00 AM 4.44 39.992 0.089 7.19 4.84 12.3
12/19/2021 4:30:00 AM 4.4 39.92 0.089 7.19 4.79 12.31
12/19/2021 4:45:00 AM 4.38 39.884 0.089 7.18 4.74 12.32
12/19/2021 5:00:00 AM 4.35 39.83 0.089 7.18 4.84 12.33
12/19/2021 5:15:00 AM 4.32 39.776 0.089 7.19 4.71 12.34
12/19/2021 5:30:00 AM 4.27 39.686 0.089 7.18 5.4 12.36
12/19/2021 5:45:00 AM 4.23 39.614 0.089 7.18 4.85 12.37
12/19/2021 6:00:00 AM 4.19 39.542 0.089 7.18 4.73 12.38
12/19/2021 6:15:00 AM 4.15 39.47 0.089 7.17 4.68 12.4
12/19/2021 6:30:00 AM 4.11 39.398 0.089 7.18 4.65 12.42
12/19/2021 6:45:00 AM 4.09 39.362 0.089 7.15 4.6 12.43
12/19/2021 7:00:00 AM 4.05 39.29 0.089 7.18 4.55 12.45
12/19/2021 7:15:00 AM 4.01 39.218 0.088 7.17 4.5 12.46
12/19/2021 7:30:00 AM 3.98 39.164 0.088 7.16 4.49 12.47
12/19/2021 7:45:00 AM 3.95 39.11 0.088 7.17 4.42 12.49
12/19/2021 8:00:00 AM 3.92 39.056 0.088 7.17 4.4 12.51
12/19/2021 8:15:00 AM 3.89 39.002 0.088 7.16 4.38 12.53
12/19/2021 8:30:00 AM 3.84 38.912 0.088 7.17 4.36 12.56
12/19/2021 8:45:00 AM 3.81 38.858 0.088 7.18 4.3 12.61
12/19/2021 9:00:00 AM 3.78 38.804 0.087 7.2 4.35 12.7
12/19/2021 9:15:00 AM 3.76 38.768 0.087 7.21 4.31 12.78
12/19/2021 9:30:00 AM 3.76 38.768 0.087 7.23 4.31 12.86
12/19/2021 9:45:00 AM 3.77 38.786 0.087 7.25 4.24 12.93
12/19/2021 10:00:00 AM 3.78 38.804 0.086 7.27 4.26 12.98
12/19/2021 10:15:00 AM 3.79 38.822 0.086 7.29 4.19 13.02
12/19/2021 10:30:00 AM 3.81 38.858 0.086 7.31 4.26 13.04
12/19/2021 10:45:00 AM 3.83 38.894 0.086 7.33 4.16 13.07
12/19/2021 11:00:00 AM 3.84 38.912 0.086 7.34 4.15 13.09
12/19/2021 11:15:00 AM 3.87 38.966 0.085 7.36 4.13 13.1
12/19/2021 11:30:00 AM 3.9 39.02 0.085 7.37 4.12 13.11
12/19/2021 11:45:00 AM 3.95 39.11 0.085 7.38 4.07 13.1
12/19/2021 12:00:00 PM 4.01 39.218 0.085 7.39 4.11 13.1
12/19/2021 12:15:00 PM 4.02 39.236 0.085 7.4 4.07 13.09
12/19/2021 12:30:00 PM 4.05 39.29 0.084 7.39 4.12 13.08
12/19/2021 12:45:00 PM 4.11 39.398 0.084 7.41 4.12 13.06
12/19/2021 1:00:00 PM 4.13 39.434 0.084 7.4 4.05 13.05
12/19/2021 1:15:00 PM 4.14 39.452 0.084 7.41 4.03 13.04
12/19/2021 1:30:00 PM 4.14 39.452 0.084 7.4 4.05 13.01
12/19/2021 1:45:00 PM 4.23 39.614 0.084 7.41 4.06 13.01
12/19/2021 2:00:00 PM 4.34 39.812 0.084 7.42 4.03 12.98
12/19/2021 2:15:00 PM 4.34 39.812 0.083 7.42 4.1 12.95
12/19/2021 2:30:00 PM 4.3 39.74 0.083 7.4 4.08 12.94
12/19/2021 2:45:00 PM 4.26 39.668 0.083 7.41 4 12.92
12/19/2021 3:00:00 PM 4.23 39.614 0.083 7.39 4.02 12.9
12/19/2021 3:15:00 PM 4.2 39.56 0.083 7.37 4.01 12.92
12/19/2021 3:30:00 PM 4.15 39.47 0.083 7.37 4.04 12.91
12/19/2021 3:45:00 PM 4.1 39.38 0.083 7.35 4 12.88
12/19/2021 4:00:00 PM 4.03 39.254 0.083 7.34 4.01 12.85
12/19/2021 4:15:00 PM 3.95 39.11 0.083 7.31 4.03 12.81
12/19/2021 4:30:00 PM 3.89 39.002 0.083 7.28 4.03 12.76
12/19/2021 4:45:00 PM 3.84 38.912 0.083 7.26 4.02 12.73
12/19/2021 5:00:00 PM 3.79 38.822 0.083 7.23 4.04 12.69
12/19/2021 5:15:00 PM 3.74 38.732 0.084 7.21 4.04 12.66
12/19/2021 5:30:00 PM 3.68 38.624 0.084 7.2 4.05 12.66
12/19/2021 5:45:00 PM 3.62 38.516 0.084 7.18 4.04 12.66
12/19/2021 6:00:00 PM 3.56 38.408 0.084 7.18 4.01 12.67
12/19/2021 6:15:00 PM 3.51 38.318 0.084 7.17 4.04 12.68
12/19/2021 6:30:00 PM 3.46 38.228 0.084 7.16 4.06 12.7
12/19/2021 6:45:00 PM 3.41 38.138 0.084 7.16 4.05 12.71
12/19/2021 7:00:00 PM 3.35 38.03 0.084 7.15 4.01 12.73
12/19/2021 7:15:00 PM 3.3 37.94 0.084 7.15 4.03 12.75
12/19/2021 7:30:00 PM 3.24 37.832 0.084 7.14 4.02 12.77
12/19/2021 7:45:00 PM 3.18 37.724 0.084 7.14 3.98 12.79
12/19/2021 8:00:00 PM 3.12 37.616 0.084 7.14 3.98 12.81
12/19/2021 8:15:00 PM 3.07 37.526 0.084 7.14 3.99 12.83
12/19/2021 8:30:00 PM 3.01 37.418 0.084 7.14 4.04 12.85
12/19/2021 8:45:00 PM 2.96 37.328 0.084 7.13 4.05 12.87
12/19/2021 9:00:00 PM 2.91 37.238 0.084 7.11 4 12.89
12/19/2021 9:15:00 PM 2.85 37.13 0.084 7.13 3.98 12.91
12/19/2021 9:30:00 PM 2.8 37.04 0.084 7.13 3.99 12.93
12/19/2021 9:45:00 PM 2.74 36.932 0.085 7.13 4.04 12.95
12/19/2021 10:00:00 PM 2.69 36.842 0.085 7.12 3.99 12.97
12/19/2021 10:15:00 PM 2.64 36.752 0.085 7.13 4.02 12.98
12/19/2021 10:30:00 PM 2.59 36.662 0.085 7.13 4.02 13.01
12/19/2021 10:45:00 PM 2.55 36.59 0.085 7.12 4.01 13.02
12/19/2021 11:00:00 PM 2.5 36.5 0.085 7.1 4 13.04
12/19/2021 11:15:00 PM 2.45 36.41 0.085 7.13 4 13.06
12/19/2021 11:30:00 PM 2.41 36.338 0.085 7.12 3.95 13.07
12/19/2021 11:45:00 PM 2.36 36.248 0.085 7.12 3.97 13.09
12/20/2021 12:00:00 AM 2.32 36.176 0.085 7.12 3.96 13.1
12/20/2021 12:15:00 AM 2.28 36.104 0.085 7.12 3.96 13.11
12/20/2021 12:30:00 AM 2.24 36.032 0.085 7.12 3.96 13.14
12/20/2021 12:45:00 AM 2.2 35.96 0.085 7.13 3.93 13.14
12/20/2021 1:00:00 AM 2.16 35.888 0.085 7.12 3.92 13.16
12/20/2021 1:15:00 AM 2.12 35.816 0.085 7.12 3.98 13.18
12/20/2021 1:30:00 AM 2.07 35.726 0.085 7.11 3.97 13.19
12/20/2021 1:45:00 AM 2.04 35.672 0.085 7.1 3.97 13.2
12/20/2021 2:00:00 AM 2 35.6 0.085 7.12 4 13.22
12/20/2021 2:15:00 AM 1.96 35.528 0.085 7.1 4.01 13.24
12/20/2021 2:30:00 AM 1.92 35.456 0.084 7.12 3.97 13.24
12/20/2021 2:45:00 AM 1.88 35.384 0.084 7.12 3.98 13.26
12/20/2021 3:00:00 AM 1.84 35.312 0.084 7.11 4.03 13.28
12/20/2021 3:15:00 AM 1.8 35.24 0.084 7.11 3.96 13.29
12/20/2021 3:30:00 AM 1.77 35.186 0.084 7.11 3.94 13.3
12/20/2021 3:45:00 AM 1.73 35.114 0.084 7.11 3.95 13.32
12/20/2021 4:00:00 AM 1.69 35.042 0.084 7.11 3.97 13.33
12/20/2021 4:15:00 AM 1.66 34.988 0.084 7.12 3.93 13.35
12/20/2021 4:30:00 AM 1.62 34.916 0.084 7.1 3.92 13.37
12/20/2021 4:45:00 AM 1.59 34.862 0.084 7.08 3.87 13.38
12/20/2021 5:00:00 AM 1.56 34.808 0.084 7.11 3.89 13.39
12/20/2021 5:15:00 AM 1.53 34.754 0.084 7.11 3.95 13.4
12/20/2021 5:30:00 AM 1.49 34.682 0.084 7.11 3.97 13.41
12/20/2021 5:45:00 AM 1.46 34.628 0.084 7.11 3.92 13.43
12/20/2021 6:00:00 AM 1.43 34.574 0.084 7.11 3.92 13.44
12/20/2021 6:15:00 AM 1.41 34.538 0.084 7.11 3.93 13.45
12/20/2021 6:30:00 AM 1.38 34.484 0.084 7.1 3.89 13.46
12/20/2021 6:45:00 AM 1.35 34.43 0.084 7.09 3.9 13.46
12/20/2021 7:00:00 AM 1.32 34.376 0.084 7.1 3.95 13.48
12/20/2021 7:15:00 AM 1.29 34.322 0.084 7.08 3.89 13.48
12/20/2021 7:30:00 AM 1.27 34.286 0.084 7.11 3.88 13.51
12/20/2021 7:45:00 AM 1.24 34.232 0.084 7.11 3.95 13.53
12/20/2021 8:00:00 AM 1.22 34.196 0.084 7.1 3.96 13.58
12/20/2021 8:15:00 AM 1.23 34.214 0.084 7.12 3.9 13.64
12/20/2021 8:30:00 AM 1.25 34.25 0.084 7.15 3.91 13.71
12/20/2021 8:45:00 AM 1.29 34.322 0.083 7.12 3.97 13.77
12/20/2021 9:00:00 AM 1.31 34.358 0.083 7.18 3.9 13.81
12/20/2021 9:15:00 AM 1.32 34.376 0.083 7.17 3.91 13.83
12/20/2021 9:30:00 AM 1.36 34.448 0.083 7.19 3.95 13.86
12/20/2021 9:45:00 AM 1.42 34.556 0.083 7.2 3.94 13.89
12/20/2021 10:00:00 AM 1.51 34.718 0.083 7.22 3.9 13.89
12/20/2021 10:15:00 AM 1.59 34.862 0.083 7.25 3.91 13.88
12/20/2021 10:30:00 AM 1.68 35.024 0.082 7.26 3.85 13.88
12/20/2021 10:45:00 AM 1.77 35.186 0.082 7.28 3.86 13.87
12/20/2021 11:00:00 AM 1.84 35.312 0.082 7.29 3.84 13.86
12/20/2021 11:15:00 AM 1.92 35.456 0.082 7.29 3.81 13.84
12/20/2021 11:30:00 AM 2.02 35.636 0.082 7.24 3.87 13.81
12/20/2021 11:45:00 AM 2.07 35.726 0.082 7.3 3.83 13.78
12/20/2021 12:00:00 PM 2.16 35.888 0.082 7.29 3.91 13.74
12/20/2021 12:15:00 PM 2.25 36.05 0.081 7.31 3.84 13.68
12/20/2021 12:30:00 PM 2.37 36.266 0.081 7.3 3.8 13.62
12/20/2021 12:45:00 PM 2.5 36.5 0.081 7.26 3.8 13.58
12/20/2021 1:00:00 PM 2.63 36.734 0.081 7.33 3.84 13.52
12/20/2021 1:15:00 PM 2.71 36.878 0.081 7.32 3.79 13.47
12/20/2021 1:30:00 PM 2.77 36.986 0.081 7.31 3.79 13.42
12/20/2021 1:45:00 PM 2.82 37.076 0.081 7.32 3.83 13.39
12/20/2021 2:00:00 PM 2.83 37.094 0.081 7.3 3.81 13.35
12/20/2021 2:15:00 PM 2.84 37.112 0.081 7.31 3.78 13.33
12/20/2021 2:30:00 PM 2.82 37.076 0.081 7.29 3.77 13.3
12/20/2021 2:45:00 PM 2.79 37.022 0.081 7.27 3.81 13.27
12/20/2021 3:00:00 PM 2.77 36.986 0.081 7.27 3.82 13.22
12/20/2021 3:15:00 PM 2.76 36.968 0.081 7.25 3.82 13.21
12/20/2021 3:30:00 PM 2.75 36.95 0.081 7.25 3.9 13.2
12/20/2021 3:45:00 PM 2.74 36.932 0.081 7.25 3.82 13.19
12/20/2021 4:00:00 PM 2.72 36.896 0.081 7.25 3.82 13.16
12/20/2021 4:15:00 PM 2.69 36.842 0.081 7.22 3.85 13.15
12/20/2021 4:30:00 PM 2.66 36.788 0.081 7.22 3.82 13.12
12/20/2021 4:45:00 PM 2.65 36.77 0.081 7.21 3.81 13.09
12/20/2021 5:00:00 PM 2.63 36.734 0.081 7.19 3.84 13.05
12/20/2021 5:15:00 PM 2.62 36.716 0.081 7.19 3.85 13.02
12/20/2021 5:30:00 PM 2.6 36.68 0.082 7.18 3.88 13
12/20/2021 5:45:00 PM 2.57 36.626 0.082 7.17 3.86 12.99
12/20/2021 6:00:00 PM 2.54 36.572 0.082 7.16 3.89 12.99
12/20/2021 6:15:00 PM 2.5 36.5 0.082 7.15 3.85 13
12/20/2021 6:30:00 PM 2.47 36.446 0.082 7.14 3.9 13
12/20/2021 6:45:00 PM 2.44 36.392 0.082 7.14 3.85 13.01
12/20/2021 7:00:00 PM 2.41 36.338 0.082 7.14 3.86 13.02
12/20/2021 7:15:00 PM 2.38 36.284 0.082 7.14 3.9 13.02
12/20/2021 7:30:00 PM 2.35 36.23 0.082 7.13 3.9 13.03
12/20/2021 7:45:00 PM 2.32 36.176 0.082 7.13 3.95 13.04
12/20/2021 8:00:00 PM 2.29 36.122 0.082 7.13 3.9 13.05
12/20/2021 8:15:00 PM 2.26 36.068 0.083 7.12 3.85 13.06
12/20/2021 8:30:00 PM 2.24 36.032 0.083 7.1 3.91 13.06
12/20/2021 8:45:00 PM 2.22 35.996 0.083 7.14 3.97 13.07
12/20/2021 9:00:00 PM 2.2 35.96 0.083 7.1 3.99 13.08
12/20/2021 9:15:00 PM 2.18 35.924 0.083 7.07 3.98 13.09
12/20/2021 9:30:00 PM 2.16 35.888 0.083 7.13 3.95 13.09
12/20/2021 9:45:00 PM 2.14 35.852 0.083 7.11 3.91 13.1
12/20/2021 10:00:00 PM 2.11 35.798 0.083 7.13 3.87 13.11
12/20/2021 10:15:00 PM 2.09 35.762 0.083 7.12 3.88 13.11
12/20/2021 10:30:00 PM 2.06 35.708 0.083 7.11 3.81 13.12
12/20/2021 10:45:00 PM 2.03 35.654 0.083 7.12 3.87 13.13
12/20/2021 11:00:00 PM 2 35.6 0.083 7.08 3.88 13.14
12/20/2021 11:15:00 PM 1.98 35.564 0.083 7.12 3.86 13.15
12/20/2021 11:30:00 PM 1.95 35.51 0.083 7.12 3.91 13.15
12/20/2021 11:45:00 PM 1.93 35.474 0.083 7.12 3.92 13.16
12/21/2021 12:00:00 AM 1.91 35.438 0.083 7.12 3.89 13.17
12/21/2021 12:15:00 AM 1.88 35.384 0.083 7.11 3.94 13.17
12/21/2021 12:30:00 AM 1.86 35.348 0.083 7.09 3.9 13.18
12/21/2021 12:45:00 AM 1.84 35.312 0.083 7.12 3.89 13.19
12/21/2021 1:00:00 AM 1.82 35.276 0.083 7.12 3.91 13.19
12/21/2021 1:15:00 AM 1.79 35.222 0.083 7.09 3.92 13.21
12/21/2021 1:30:00 AM 1.77 35.186 0.083 7.11 3.95 13.21
12/21/2021 1:45:00 AM 1.75 35.15 0.083 7.11 4.01 13.22
12/21/2021 2:00:00 AM 1.73 35.114 0.083 7.1 4 13.23
12/21/2021 2:15:00 AM 1.7 35.06 0.083 7.11 3.94 13.24
12/21/2021 2:30:00 AM 1.68 35.024 0.083 7.11 3.95 13.24
12/21/2021 2:45:00 AM 1.66 34.988 0.083 7.07 3.88 13.25
12/21/2021 3:00:00 AM 1.64 34.952 0.083 7.12 3.91 13.26
12/21/2021 3:15:00 AM 1.62 34.916 0.083 7.11 3.94 13.27
12/21/2021 3:30:00 AM 1.6 34.88 0.083 7.11 3.92 13.27
12/21/2021 3:45:00 AM 1.59 34.862 0.083 7.11 3.91 13.29
12/21/2021 4:00:00 AM 1.58 34.844 0.083 7.11 3.9 13.29
12/21/2021 4:15:00 AM 1.57 34.826 0.083 7.09 3.9 13.29
12/21/2021 4:30:00 AM 1.58 34.844 0.083 7.11 3.9 13.3
12/21/2021 4:45:00 AM 1.6 34.88 0.083 7.1 3.92 13.29
12/21/2021 5:00:00 AM 1.61 34.898 0.083 7.12 3.92 13.29
12/21/2021 5:15:00 AM 1.63 34.934 0.083 7.11 3.95 13.28
12/21/2021 5:30:00 AM 1.65 34.97 0.083 7.1 3.91 13.28
12/21/2021 5:45:00 AM 1.68 35.024 0.083 7.12 3.89 13.27
12/21/2021 6:00:00 AM 1.7 35.06 0.083 7.07 3.87 13.26
12/21/2021 6:15:00 AM 1.73 35.114 0.083 7.11 3.88 13.26
12/21/2021 6:30:00 AM 1.75 35.15 0.083 7.1 3.87 13.24
12/21/2021 6:45:00 AM 1.78 35.204 0.083 7.13 3.89 13.24
12/21/2021 7:00:00 AM 1.8 35.24 0.083 7.12 3.87 13.23
12/21/2021 7:15:00 AM 1.83 35.294 0.083 7.12 3.84 13.22
12/21/2021 7:30:00 AM 1.85 35.33 0.083 7.11 3.82 13.21
12/21/2021 7:45:00 AM 1.88 35.384 0.083 7.1 3.87 13.21
12/21/2021 8:00:00 AM 1.91 35.438 0.083 7.11 3.92 13.22
12/21/2021 8:15:00 AM 1.94 35.492 0.083 7.14 3.87 13.24
12/21/2021 8:30:00 AM 1.98 35.564 0.083 7.15 3.85 13.29
12/21/2021 8:45:00 AM 2.03 35.654 0.083 7.16 3.86 13.35
12/21/2021 9:00:00 AM 2.08 35.744 0.082 7.19 3.83 13.4
12/21/2021 9:15:00 AM 2.13 35.834 0.082 7.19 3.85 13.44
12/21/2021 9:30:00 AM 2.19 35.942 0.082 7.18 3.84 13.47
12/21/2021 9:45:00 AM 2.24 36.032 0.082 7.19 3.8 13.47
12/21/2021 10:00:00 AM 2.3 36.14 0.082 7.22 3.78 13.47
12/21/2021 10:15:00 AM 2.37 36.266 0.082 7.23 3.8 13.48
12/21/2021 10:30:00 AM 2.43 36.374 0.082 7.26 3.84 13.47
12/21/2021 10:45:00 AM 2.51 36.518 0.082 7.27 3.83 13.46
12/21/2021 11:00:00 AM 2.59 36.662 0.082 7.3 3.87 13.45
12/21/2021 11:15:00 AM 2.68 36.824 0.081 7.3 3.8 13.45
12/21/2021 11:30:00 AM 2.79 37.022 0.081 7.27 3.79 13.44
12/21/2021 11:45:00 AM 2.87 37.166 0.081 7.31 3.77 13.41
12/21/2021 12:00:00 PM 2.95 37.31 0.081 7.33 3.81 13.37
12/21/2021 12:15:00 PM 3.04 37.472 0.081 7.34 3.79 13.34
12/21/2021 12:30:00 PM 3.12 37.616 0.081 7.31 3.82 13.32
12/21/2021 12:45:00 PM 3.18 37.724 0.081 7.36 3.78 13.29
12/21/2021 1:00:00 PM 3.26 37.868 0.081 7.36 3.8 13.24
12/21/2021 1:15:00 PM 3.37 38.066 0.081 7.36 3.76 13.19
12/21/2021 1:30:00 PM 3.44 38.192 0.081 7.37 3.8 13.15
12/21/2021 1:45:00 PM 3.5 38.3 0.081 7.35 3.82 13.1
12/21/2021 2:00:00 PM 3.53 38.354 0.081 7.37 3.88 13.06
12/21/2021 2:15:00 PM 3.53 38.354 0.081 7.36 3.8 13.03
12/21/2021 2:30:00 PM 3.5 38.3 0.081 7.35 3.78 13
12/21/2021 2:45:00 PM 3.45 38.21 0.081 7.33 3.84 12.96
12/21/2021 3:00:00 PM 3.42 38.156 0.081 7.33 3.84 12.94
12/21/2021 3:15:00 PM 3.39 38.102 0.081 7.31 3.81 12.92
12/21/2021 3:30:00 PM 3.37 38.066 0.081 7.28 3.83 12.9
12/21/2021 3:45:00 PM 3.35 38.03 0.081 7.28 3.82 12.89
12/21/2021 4:00:00 PM 3.32 37.976 0.081 7.31 3.86 12.88
12/21/2021 4:15:00 PM 3.29 37.922 0.081 7.29 3.88 12.87
12/21/2021 4:30:00 PM 3.25 37.85 0.081 7.28 3.86 12.84
12/21/2021 4:45:00 PM 3.22 37.796 0.081 7.27 3.82 12.8
12/21/2021 5:00:00 PM 3.18 37.724 0.081 7.2 3.85 12.76
12/21/2021 5:15:00 PM 3.15 37.67 0.081 7.23 3.87 12.73
12/21/2021 5:30:00 PM 3.12 37.616 0.081 7.23 3.91 12.71
12/21/2021 5:45:00 PM 3.09 37.562 0.081 7.21 3.89 12.7
12/21/2021 6:00:00 PM 3.05 37.49 0.082 7.2 3.91 12.69
12/21/2021 6:15:00 PM 3.01 37.418 0.082 7.19 3.97 12.7
12/21/2021 6:30:00 PM 2.96 37.328 0.082 7.19 3.89 12.7
12/21/2021 6:45:00 PM 2.92 37.256 0.082 7.16 3.93 12.71
12/21/2021 7:00:00 PM 2.89 37.202 0.082 7.19 3.94 12.72
12/21/2021 7:15:00 PM 2.84 37.112 0.082 7.18 3.94 12.74
12/21/2021 7:30:00 PM 2.8 37.04 0.082 7.18 3.98 12.73
12/21/2021 7:45:00 PM 2.76 36.968 0.082 7.16 4.05 12.75
12/21/2021 8:00:00 PM 2.72 36.896 0.082 7.15 4.06 12.76
12/21/2021 8:15:00 PM 2.69 36.842 0.082 7.16 3.96 12.77
12/21/2021 8:30:00 PM 2.66 36.788 0.082 7.15 4.02 12.78
12/21/2021 8:45:00 PM 2.63 36.734 0.082 7.17 3.99 12.79
12/21/2021 9:00:00 PM 2.59 36.662 0.082 7.17 3.99 12.8
12/21/2021 9:15:00 PM 2.56 36.608 0.082 7.17 3.97 12.81
12/21/2021 9:30:00 PM 2.54 36.572 0.083 7.16 3.92 12.82
12/21/2021 9:45:00 PM 2.51 36.518 0.083 7.14 3.95 12.82
12/21/2021 10:00:00 PM 2.48 36.464 0.083 7.15 3.86 12.83
12/21/2021 10:15:00 PM 2.45 36.41 0.083 7.16 3.89 12.83
12/21/2021 10:30:00 PM 2.42 36.356 0.083 7.16 3.92 12.84
12/21/2021 10:45:00 PM 2.39 36.302 0.083 7.15 3.89 12.85
12/21/2021 11:00:00 PM 2.36 36.248 0.083 7.16 3.9 12.86
12/21/2021 11:15:00 PM 2.33 36.194 0.083 7.14 3.89 12.86
12/21/2021 11:30:00 PM 2.31 36.158 0.083 7.14 3.87 12.87
12/21/2021 11:45:00 PM 2.29 36.122 0.083 7.14 3.93 12.88
12/22/2021 12:00:00 AM 2.26 36.068 0.083 7.15 3.92 12.88
12/22/2021 12:15:00 AM 2.24 36.032 0.083 7.16 3.94 12.89
12/22/2021 12:30:00 AM 2.22 35.996 0.083 7.15 3.91 12.89
12/22/2021 12:45:00 AM 2.2 35.96 0.083 7.14 3.89 12.9
12/22/2021 1:00:00 AM 2.18 35.924 0.083 7.15 3.94 12.9
12/22/2021 1:15:00 AM 2.17 35.906 0.083 7.14 3.95 12.9
12/22/2021 1:30:00 AM 2.16 35.888 0.083 7.15 4.01 12.9
12/22/2021 1:45:00 AM 2.14 35.852 0.083 7.13 3.92 12.9
12/22/2021 2:00:00 AM 2.13 35.834 0.083 7.15 3.92 12.91
12/22/2021 2:15:00 AM 2.11 35.798 0.083 7.14 3.88 12.91
12/22/2021 2:30:00 AM 2.09 35.762 0.083 7.15 3.92 12.92
12/22/2021 2:45:00 AM 2.07 35.726 0.083 7.15 3.88 12.92
12/22/2021 3:00:00 AM 2.05 35.69 0.083 7.14 3.9 12.93
12/22/2021 3:15:00 AM 2.03 35.654 0.083 7.14 3.89 12.93
12/22/2021 3:30:00 AM 2.03 35.654 0.083 7.12 3.92 12.93
12/22/2021 3:45:00 AM 2.03 35.654 0.083 7.14 3.91 12.93
12/22/2021 4:00:00 AM 2.04 35.672 0.083 7.13 3.91 12.93
12/22/2021 4:15:00 AM 2.06 35.708 0.083 7.13 3.88 12.92
12/22/2021 4:30:00 AM 2.09 35.762 0.083 7.13 3.88 12.92
12/22/2021 4:45:00 AM 2.11 35.798 0.083 7.14 3.84 12.91
12/22/2021 5:00:00 AM 2.14 35.852 0.083 7.11 3.9 12.9
12/22/2021 5:15:00 AM 2.16 35.888 0.083 7.15 3.85 12.89
12/22/2021 5:30:00 AM 2.19 35.942 0.083 7.11 3.84 12.88
12/22/2021 5:45:00 AM 2.22 35.996 0.083 7.14 3.86 12.87
12/22/2021 6:00:00 AM 2.24 36.032 0.083 7.15 3.89 12.87
12/22/2021 6:15:00 AM 2.26 36.068 0.083 7.15 3.9 12.86
12/22/2021 6:30:00 AM 2.28 36.104 0.083 7.14 3.91 12.85
12/22/2021 6:45:00 AM 2.31 36.158 0.083 7.15 3.84 12.84
12/22/2021 7:00:00 AM 2.33 36.194 0.083 7.15 3.84 12.83
12/22/2021 7:15:00 AM 2.35 36.23 0.083 7.15 3.82 12.83
12/22/2021 7:30:00 AM 2.37 36.266 0.083 7.15 3.87 12.83
12/22/2021 7:45:00 AM 2.39 36.302 0.083 7.14 3.81 12.82
12/22/2021 8:00:00 AM 2.41 36.338 0.083 7.15 3.85 12.82
12/22/2021 8:15:00 AM 2.43 36.374 0.083 7.15 3.82 12.83
12/22/2021 8:30:00 AM 2.46 36.428 0.083 7.15 3.86 12.86
12/22/2021 8:45:00 AM 2.48 36.464 0.083 7.17 3.79 12.87
12/22/2021 9:00:00 AM 2.5 36.5 0.083 7.17 3.83 12.87
12/22/2021 9:15:00 AM 2.53 36.554 0.083 7.18 3.83 12.9
12/22/2021 9:30:00 AM 2.58 36.644 0.082 7.19 3.84 12.95
12/22/2021 9:45:00 AM 2.62 36.716 0.082 7.22 3.83 12.98
12/22/2021 10:00:00 AM 2.65 36.77 0.082 7.23 3.84 13.01
12/22/2021 10:15:00 AM 2.71 36.878 0.082 7.25 3.81 13.06
12/22/2021 10:30:00 AM 2.77 36.986 0.082 7.26 3.83 13.1
12/22/2021 10:45:00 AM 2.81 37.058 0.082 7.28 3.86 13.1
12/22/2021 11:00:00 AM 2.84 37.112 0.082 7.29 3.83 13.12
12/22/2021 11:15:00 AM 2.87 37.166 0.082 7.31 3.8 13.14
12/22/2021 11:30:00 AM 2.92 37.256 0.082 7.31 3.86 13.12
12/22/2021 11:45:00 AM 2.95 37.31 0.081 7.3 3.8 13.12
12/22/2021 12:00:00 PM 3.01 37.418 0.081 7.33 3.77 13.13
12/22/2021 12:15:00 PM 3.08 37.544 0.081 7.34 3.8 13.13
12/22/2021 12:30:00 PM 3.1 37.58 0.081 7.34 3.77 13.11
12/22/2021 12:45:00 PM 3.09 37.562 0.081 7.35 3.82 13.1
12/22/2021 1:00:00 PM 3.1 37.58 0.081 7.35 3.85 13.1
12/22/2021 1:15:00 PM 3.11 37.598 0.081 7.34 3.79 13.1
12/22/2021 1:30:00 PM 3.11 37.598 0.081 7.36 3.82 13.1
12/22/2021 1:45:00 PM 3.1 37.58 0.081 7.34 3.8 13.09
12/22/2021 2:00:00 PM 3.09 37.562 0.081 7.35 3.8 13.1
12/22/2021 2:15:00 PM 3.07 37.526 0.081 7.35 3.79 13.1
12/22/2021 2:30:00 PM 3.06 37.508 0.081 7.34 3.8 13.1
12/22/2021 2:45:00 PM 3.04 37.472 0.081 7.34 3.82 13.1
12/22/2021 3:00:00 PM 3.01 37.418 0.081 7.33 3.81 13.07
12/22/2021 3:15:00 PM 2.97 37.346 0.081 7.32 3.82 13.04
12/22/2021 3:30:00 PM 2.95 37.31 0.081 7.31 3.83 13.03
12/22/2021 3:45:00 PM 2.92 37.256 0.081 7.3 3.83 13.01
12/22/2021 4:00:00 PM 2.88 37.184 0.081 7.28 3.78 12.99
12/22/2021 4:15:00 PM 2.85 37.13 0.081 7.27 3.83 12.95
12/22/2021 4:30:00 PM 2.81 37.058 0.081 7.25 3.87 12.93
12/22/2021 4:45:00 PM 2.79 37.022 0.081 7.24 3.87 12.91
12/22/2021 5:00:00 PM 2.75 36.95 0.081 7.22 3.84 12.87
12/22/2021 5:15:00 PM 2.73 36.914 0.081 7.21 3.85 12.86
12/22/2021 5:30:00 PM 2.69 36.842 0.082 7.2 3.83 12.85
12/22/2021 5:45:00 PM 2.67 36.806 0.082 7.19 3.86 12.85
12/22/2021 6:00:00 PM 2.64 36.752 0.082 7.18 3.91 12.85
12/22/2021 6:15:00 PM 2.61 36.698 0.082 7.18 3.89 12.86
12/22/2021 6:30:00 PM 2.59 36.662 0.082 7.18 3.93 12.86
12/22/2021 6:45:00 PM 2.57 36.626 0.082 7.17 3.87 12.87
12/22/2021 7:00:00 PM 2.54 36.572 0.082 7.17 3.82 12.87
12/22/2021 7:15:00 PM 2.51 36.518 0.082 7.16 3.85 12.89
12/22/2021 7:30:00 PM 2.48 36.464 0.082 7.17 3.89 12.9
12/22/2021 7:45:00 PM 2.45 36.41 0.082 7.15 3.89 12.92
12/22/2021 8:00:00 PM 2.42 36.356 0.082 7.16 3.84 12.92
12/22/2021 8:15:00 PM 2.38 36.284 0.082 7.16 3.88 12.94
12/22/2021 8:30:00 PM 2.35 36.23 0.082 7.17 3.89 12.96
12/22/2021 8:45:00 PM 2.33 36.194 0.082 7.16 3.87 12.96
12/22/2021 9:00:00 PM 2.31 36.158 0.082 7.16 3.86 12.97
12/22/2021 9:15:00 PM 2.27 36.086 0.082 7.15 3.91 12.99
12/22/2021 9:30:00 PM 2.25 36.05 0.082 7.15 3.88 13
12/22/2021 9:45:00 PM 2.23 36.014 0.082 7.15 3.89 13.01
12/22/2021 10:00:00 PM 2.21 35.978 0.082 7.15 3.93 13.01
12/22/2021 10:15:00 PM 2.19 35.942 0.082 7.15 3.87 13.02
12/22/2021 10:30:00 PM 2.17 35.906 0.082 7.15 3.9 13.03
12/22/2021 10:45:00 PM 2.15 35.87 0.083 7.16 3.86 13.04
12/22/2021 11:00:00 PM 2.12 35.816 0.083 7.12 3.9 13.05
12/22/2021 11:15:00 PM 2.1 35.78 0.083 7.16 3.85 13.07
12/22/2021 11:30:00 PM 2.08 35.744 0.083 7.15 3.84 13.07
12/22/2021 11:45:00 PM 2.06 35.708 0.083 7.15 3.88 13.08
12/23/2021 12:00:00 AM 2.04 35.672 0.083 7.15 3.97 13.08
12/23/2021 12:15:00 AM 2.03 35.654 0.083 7.15 3.94 13.1
12/23/2021 12:30:00 AM 2.01 35.618 0.083 7.13 3.91 13.1
12/23/2021 12:45:00 AM 1.99 35.582 0.083 7.14 3.9 13.11
12/23/2021 1:00:00 AM 1.97 35.546 0.083 7.15 3.87 13.11
12/23/2021 1:15:00 AM 1.95 35.51 0.083 7.16 3.87 13.12
12/23/2021 1:30:00 AM 1.93 35.474 0.083 7.16 3.93 13.13
12/23/2021 1:45:00 AM 1.92 35.456 0.083 7.15 3.89 13.14
12/23/2021 2:00:00 AM 1.9 35.42 0.083 7.14 3.88 13.15
12/23/2021 2:15:00 AM 1.86 35.348 0.083 7.15 3.86 13.16
12/23/2021 2:30:00 AM 1.82 35.276 0.083 7.14 3.88 13.17
12/23/2021 2:45:00 AM 1.78 35.204 0.083 7.15 3.86 13.18
12/23/2021 3:00:00 AM 1.75 35.15 0.083 7.15 3.85 13.2
12/23/2021 3:15:00 AM 1.71 35.078 0.083 7.14 3.81 13.21
12/23/2021 3:30:00 AM 1.69 35.042 0.083 7.14 3.86 13.23
12/23/2021 3:45:00 AM 1.67 35.006 0.083 7.15 3.86 13.24
12/23/2021 4:00:00 AM 1.65 34.97 0.083 7.15 3.84 13.25
12/23/2021 4:15:00 AM 1.64 34.952 0.083 7.15 3.88 13.25
12/23/2021 4:30:00 AM 1.63 34.934 0.083 7.16 3.88 13.26
12/23/2021 4:45:00 AM 1.62 34.916 0.083 7.16 3.86 13.27
12/23/2021 5:00:00 AM 1.6 34.88 0.083 7.16 3.86 13.27
12/23/2021 5:15:00 AM 1.59 34.862 0.083 7.16 3.87 13.28
12/23/2021 5:30:00 AM 1.58 34.844 0.083 7.14 3.91 13.28
12/23/2021 5:45:00 AM 1.58 34.844 0.082 7.15 3.85 13.29
12/23/2021 6:00:00 AM 1.58 34.844 0.082 7.16 3.88 13.3
12/23/2021 6:15:00 AM 1.59 34.862 0.082 7.12 3.83 13.3
12/23/2021 6:30:00 AM 1.59 34.862 0.082 7.15 3.92 13.3
12/23/2021 6:45:00 AM 1.6 34.88 0.082 7.15 3.86 13.3
12/23/2021 7:00:00 AM 1.6 34.88 0.082 7.15 3.87 13.31
12/23/2021 7:15:00 AM 1.6 34.88 0.082 7.14 3.9 13.31
12/23/2021 7:30:00 AM 1.61 34.898 0.082 7.16 3.83 13.31
12/23/2021 7:45:00 AM 1.61 34.898 0.082 7.15 3.84 13.32
12/23/2021 8:00:00 AM 1.61 34.898 0.082 7.16 3.87 13.34
12/23/2021 8:15:00 AM 1.63 34.934 0.082 7.17 3.88 13.38
12/23/2021 8:30:00 AM 1.64 34.952 0.082 7.18 3.89 13.42
12/23/2021 8:45:00 AM 1.65 34.97 0.082 7.15 3.84 13.48
12/23/2021 9:00:00 AM 1.68 35.024 0.082 7.23 3.85 13.53
12/23/2021 9:15:00 AM 1.71 35.078 0.082 7.23 3.84 13.59
12/23/2021 9:30:00 AM 1.74 35.132 0.082 7.24 3.81 13.64
12/23/2021 9:45:00 AM 1.8 35.24 0.082 7.27 3.78 13.67
12/23/2021 10:00:00 AM 1.85 35.33 0.081 7.27 3.83 13.69
12/23/2021 10:15:00 AM 1.9 35.42 0.081 7.29 3.82 13.68
12/23/2021 10:30:00 AM 1.93 35.474 0.081 7.31 3.84 13.68
12/23/2021 10:45:00 AM 1.99 35.582 0.081 7.31 3.8 13.68
12/23/2021 11:00:00 AM 2.11 35.798 0.081 7.32 3.82 13.67
12/23/2021 11:15:00 AM 2.24 36.032 0.081 7.34 3.82 13.65
12/23/2021 11:30:00 AM 2.32 36.176 0.081 7.34 3.76 13.62
12/23/2021 11:45:00 AM 2.34 36.212 0.081 7.34 3.79 13.6
12/23/2021 12:00:00 PM 2.41 36.338 0.081 7.35 3.77 13.58
12/23/2021 12:15:00 PM 2.53 36.554 0.081 7.35 3.82 13.53
12/23/2021 12:30:00 PM 2.63 36.734 0.08 7.36 3.78 13.49
12/23/2021 12:45:00 PM 2.73 36.914 0.08 7.37 3.81 13.45
12/23/2021 1:00:00 PM 2.81 37.058 0.08 7.37 3.76 13.41
12/23/2021 1:15:00 PM 2.89 37.202 0.08 7.37 3.74 13.38
12/23/2021 1:30:00 PM 2.9 37.22 0.08 7.37 3.78 13.36
12/23/2021 1:45:00 PM 2.9 37.22 0.08 7.37 3.81 13.37
12/23/2021 2:00:00 PM 2.89 37.202 0.08 7.36 3.81 13.36
12/23/2021 2:15:00 PM 2.87 37.166 0.08 7.36 3.76 13.36
12/23/2021 2:30:00 PM 2.85 37.13 0.08 7.35 3.86 13.35
12/23/2021 2:45:00 PM 2.84 37.112 0.08 7.35 3.79 13.33
12/23/2021 3:00:00 PM 2.83 37.094 0.08 7.35 3.81 13.31
12/23/2021 3:15:00 PM 2.83 37.094 0.08 7.35 3.82 13.3
12/23/2021 3:30:00 PM 2.82 37.076 0.08 7.35 3.8 13.29
12/23/2021 3:45:00 PM 2.79 37.022 0.08 7.33 3.82 13.27
12/23/2021 4:00:00 PM 2.77 36.986 0.08 7.32 3.81 13.24
12/23/2021 4:15:00 PM 2.74 36.932 0.08 7.31 3.84 13.19
12/23/2021 4:30:00 PM 2.71 36.878 0.08 7.29 3.84 13.13
12/23/2021 4:45:00 PM 2.68 36.824 0.08 7.27 3.84 13.08
12/23/2021 5:00:00 PM 2.65 36.77 0.08 7.24 3.83 13.04
12/23/2021 5:15:00 PM 2.62 36.716 0.08 7.23 3.84 13.01
12/23/2021 5:30:00 PM 2.61 36.698 0.081 7.22 3.82 12.99
12/23/2021 5:45:00 PM 2.59 36.662 0.081 7.21 3.85 12.97
12/23/2021 6:00:00 PM 2.55 36.59 0.081 7.21 3.89 12.96
12/23/2021 6:15:00 PM 2.46 36.428 0.081 7.18 3.9 12.96
12/23/2021 6:30:00 PM 2.42 36.356 0.081 7.2 3.84 12.97
12/23/2021 6:45:00 PM 2.4 36.32 0.081 7.19 3.85 12.98
12/23/2021 7:00:00 PM 2.39 36.302 0.081 7.18 3.85 12.99
12/23/2021 7:15:00 PM 2.37 36.266 0.081 7.2 3.85 12.99
12/23/2021 7:30:00 PM 2.37 36.266 0.081 7.17 3.89 12.99
12/23/2021 7:45:00 PM 2.36 36.248 0.081 7.19 3.87 13
12/23/2021 8:00:00 PM 2.35 36.23 0.081 7.19 3.86 13
12/23/2021 8:15:00 PM 2.35 36.23 0.081 7.19 3.91 13
12/23/2021 8:30:00 PM 2.35 36.23 0.081 7.19 3.89 13
12/23/2021 8:45:00 PM 2.34 36.212 0.081 7.18 3.9 13
12/23/2021 9:00:00 PM 2.34 36.212 0.081 7.19 3.87 12.99
12/23/2021 9:15:00 PM 2.34 36.212 0.081 7.18 3.83 13
12/23/2021 9:30:00 PM 2.34 36.212 0.081 7.19 3.84 12.99
12/23/2021 9:45:00 PM 2.33 36.194 0.082 7.19 3.91 12.99
12/23/2021 10:00:00 PM 2.33 36.194 0.082 7.2 3.89 12.99
12/23/2021 10:15:00 PM 2.33 36.194 0.082 7.19 3.9 12.99
12/23/2021 10:30:00 PM 2.32 36.176 0.082 7.15 3.9 12.98
12/23/2021 10:45:00 PM 2.31 36.158 0.082 7.19 3.87 12.98
12/23/2021 11:00:00 PM 2.31 36.158 0.082 7.18 3.95 12.99
12/23/2021 11:15:00 PM 2.31 36.158 0.082 7.19 3.87 12.99
12/23/2021 11:30:00 PM 2.3 36.14 0.082 7.18 3.92 12.99
12/23/2021 11:45:00 PM 2.24 36.032 0.082 7.18 3.91 12.99
12/24/2021 12:00:00 AM 2.18 35.924 0.082 7.19 3.93 13
12/24/2021 12:15:00 AM 2.12 35.816 0.082 7.18 3.92 13.01
12/24/2021 12:30:00 AM 2.1 35.78 0.082 7.17 3.86 13.03
12/24/2021 12:45:00 AM 2.1 35.78 0.082 7.17 3.88 13.04
12/24/2021 1:00:00 AM 2.1 35.78 0.082 7.18 3.87 13.04
12/24/2021 1:15:00 AM 2.1 35.78 0.082 7.17 3.96 13.05
12/24/2021 1:30:00 AM 2.11 35.798 0.082 7.17 3.83 13.04
12/24/2021 1:45:00 AM 2.11 35.798 0.082 7.18 3.87 13.05
12/24/2021 2:00:00 AM 2.12 35.816 0.082 7.18 3.84 13.04
12/24/2021 2:15:00 AM 2.13 35.834 0.082 7.19 3.83 13.04
12/24/2021 2:30:00 AM 2.13 35.834 0.082 7.18 3.85 13.04
12/24/2021 2:45:00 AM 2.14 35.852 0.082 7.16 3.86 13.04
12/24/2021 3:00:00 AM 2.14 35.852 0.082 7.18 3.83 13.04
12/24/2021 3:15:00 AM 2.14 35.852 0.082 7.18 3.86 13.04
12/24/2021 3:30:00 AM 2.15 35.87 0.082 7.19 3.83 13.04
12/24/2021 3:45:00 AM 2.16 35.888 0.082 7.19 3.88 13.03
12/24/2021 4:00:00 AM 2.16 35.888 0.082 7.17 3.88 13.03
12/24/2021 4:15:00 AM 2.17 35.906 0.082 7.16 3.91 13.03
12/24/2021 4:30:00 AM 2.18 35.924 0.082 7.17 3.88 13.03
12/24/2021 4:45:00 AM 2.18 35.924 0.082 7.18 3.83 13.03
12/24/2021 5:00:00 AM 2.19 35.942 0.082 7.19 3.85 13.02
12/24/2021 5:15:00 AM 2.2 35.96 0.082 7.18 3.84 13.02
12/24/2021 5:30:00 AM 2.21 35.978 0.082 7.17 3.85 13.03
12/24/2021 5:45:00 AM 2.22 35.996 0.082 7.17 3.79 13.02
12/24/2021 6:00:00 AM 2.23 36.014 0.082 7.18 3.82 13.02
12/24/2021 6:15:00 AM 2.24 36.032 0.082 7.19 3.85 13.01
12/24/2021 6:30:00 AM 2.25 36.05 0.082 7.19 3.86 13.01
12/24/2021 6:45:00 AM 2.26 36.068 0.082 7.19 3.84 13.01
12/24/2021 7:00:00 AM 2.27 36.086 0.082 7.18 3.89 13.01
12/24/2021 7:15:00 AM 2.28 36.104 0.082 7.18 3.87 13
12/24/2021 7:30:00 AM 2.29 36.122 0.082 7.19 3.86 13
12/24/2021 7:45:00 AM 2.3 36.14 0.082 7.16 3.84 13
12/24/2021 8:00:00 AM 2.31 36.158 0.082 7.16 3.88 13.01
12/24/2021 8:15:00 AM 2.32 36.176 0.082 7.19 3.84 13.02
12/24/2021 8:30:00 AM 2.34 36.212 0.082 7.2 3.86 13.04
12/24/2021 8:45:00 AM 2.35 36.23 0.082 7.2 3.82 13.08
12/24/2021 9:00:00 AM 2.37 36.266 0.082 7.22 3.81 13.11
12/24/2021 9:15:00 AM 2.39 36.302 0.082 7.23 3.84 13.14
12/24/2021 9:30:00 AM 2.42 36.356 0.082 7.24 3.78 13.17
12/24/2021 9:45:00 AM 2.45 36.41 0.082 7.23 3.78 13.22
12/24/2021 10:00:00 AM 2.49 36.482 0.082 7.26 3.83 13.26
12/24/2021 10:15:00 AM 2.54 36.572 0.081 7.29 3.77 13.28
12/24/2021 10:30:00 AM 2.61 36.698 0.081 7.3 3.81 13.31
12/24/2021 10:45:00 AM 2.68 36.824 0.081 7.32 3.8 13.33
12/24/2021 11:00:00 AM 2.75 36.95 0.081 7.32 3.78 13.34
12/24/2021 11:15:00 AM 2.86 37.148 0.081 7.34 3.82 13.34
12/24/2021 11:30:00 AM 2.96 37.328 0.081 7.36 3.84 13.31
12/24/2021 11:45:00 AM 3.06 37.508 0.081 7.32 3.82 13.27
12/24/2021 12:00:00 PM 3.17 37.706 0.081 7.38 3.79 13.23
12/24/2021 12:15:00 PM 3.29 37.922 0.081 7.38 3.78 13.18
12/24/2021 12:30:00 PM 3.42 38.156 0.081 7.39 3.81 13.14
12/24/2021 12:45:00 PM 3.56 38.408 0.081 7.4 3.82 13.11
12/24/2021 1:00:00 PM 3.69 38.642 0.08 7.41 3.82 13.07
12/24/2021 1:15:00 PM 3.74 38.732 0.08 7.41 3.76 13.03
12/24/2021 1:30:00 PM 3.79 38.822 0.08 7.39 3.81 12.99
12/24/2021 1:45:00 PM 3.84 38.912 0.08 7.42 3.73 12.96
12/24/2021 2:00:00 PM 3.87 38.966 0.08 7.39 3.79 12.94
12/24/2021 2:15:00 PM 3.91 39.038 0.08 7.41 3.77 12.92
12/24/2021 2:30:00 PM 3.92 39.056 0.08 7.42 3.83 12.91
12/24/2021 2:45:00 PM 3.92 39.056 0.08 7.41 3.85 12.9
12/24/2021 3:00:00 PM 3.91 39.038 0.08 7.4 3.85 12.88
12/24/2021 3:15:00 PM 3.91 39.038 0.08 7.4 3.88 12.86
12/24/2021 3:30:00 PM 3.91 39.038 0.08 7.39 3.9 12.84
12/24/2021 3:45:00 PM 3.9 39.02 0.08 7.39 3.92 12.81
12/24/2021 4:00:00 PM 3.89 39.002 0.08 7.38 3.86 12.79
12/24/2021 4:15:00 PM 3.87 38.966 0.08 7.37 3.87 12.76
12/24/2021 4:30:00 PM 3.84 38.912 0.081 7.35 3.85 12.69
12/24/2021 4:45:00 PM 3.8 38.84 0.081 7.3 3.88 12.64
12/24/2021 5:00:00 PM 3.76 38.768 0.081 7.31 3.82 12.59
12/24/2021 5:15:00 PM 3.72 38.696 0.081 7.29 3.9 12.55
12/24/2021 5:30:00 PM 3.69 38.642 0.081 7.27 3.88 12.53
12/24/2021 5:45:00 PM 3.67 38.606 0.081 7.26 3.88 12.52
12/24/2021 6:00:00 PM 3.65 38.57 0.081 7.21 3.91 12.51
12/24/2021 6:15:00 PM 3.64 38.552 0.081 7.24 3.89 12.51
12/24/2021 6:30:00 PM 3.62 38.516 0.081 7.24 3.86 12.5
12/24/2021 6:45:00 PM 3.61 38.498 0.081 7.17 3.94 12.5
12/24/2021 7:00:00 PM 3.59 38.462 0.081 7.24 3.91 12.5
12/24/2021 7:15:00 PM 3.59 38.462 0.082 7.23 3.9 12.5
12/24/2021 7:30:00 PM 3.58 38.444 0.082 7.23 3.9 12.5
12/24/2021 7:45:00 PM 3.57 38.426 0.082 7.23 3.95 12.5
12/24/2021 8:00:00 PM 3.56 38.408 0.082 7.17 3.89 12.5
12/24/2021 8:15:00 PM 3.56 38.408 0.082 7.18 3.94 12.5
12/24/2021 8:30:00 PM 3.56 38.408 0.082 7.23 3.9 12.5
12/24/2021 8:45:00 PM 3.56 38.408 0.082 7.22 3.9 12.5
12/24/2021 9:00:00 PM 3.57 38.426 0.082 7.22 3.94 12.49
12/24/2021 9:15:00 PM 3.57 38.426 0.082 7.23 4.02 12.49
12/24/2021 9:30:00 PM 3.57 38.426 0.082 7.19 3.98 12.49
12/24/2021 9:45:00 PM 3.58 38.444 0.082 7.22 3.95 12.48
12/24/2021 10:00:00 PM 3.58 38.444 0.082 7.22 3.96 12.48
12/24/2021 10:15:00 PM 3.59 38.462 0.082 7.22 3.99 12.48
12/24/2021 10:30:00 PM 3.59 38.462 0.083 7.23 3.87 12.47
12/24/2021 10:45:00 PM 3.6 38.48 0.083 7.23 3.98 12.47
12/24/2021 11:00:00 PM 3.6 38.48 0.083 7.24 3.93 12.46
12/24/2021 11:15:00 PM 3.61 38.498 0.083 7.23 3.97 12.46
12/24/2021 11:30:00 PM 3.62 38.516 0.083 7.23 3.95 12.46
12/24/2021 11:45:00 PM 3.62 38.516 0.083 7.24 3.95 12.45
12/25/2021 12:00:00 AM 3.63 38.534 0.083 7.22 3.95 12.45
12/25/2021 12:15:00 AM 3.64 38.552 0.083 7.24 3.9 12.44
12/25/2021 12:30:00 AM 3.65 38.57 0.083 7.24 3.93 12.44
12/25/2021 12:45:00 AM 3.65 38.57 0.083 7.22 3.95 12.43
12/25/2021 1:00:00 AM 3.66 38.588 0.083 7.24 4 12.43
12/25/2021 1:15:00 AM 3.66 38.588 0.083 7.24 3.9 12.42
12/25/2021 1:30:00 AM 3.67 38.606 0.083 7.24 3.88 12.41
12/25/2021 1:45:00 AM 3.68 38.624 0.083 7.25 3.93 12.41
12/25/2021 2:00:00 AM 3.69 38.642 0.083 7.23 3.9 12.4
12/25/2021 2:15:00 AM 3.7 38.66 0.083 7.25 3.97 12.39
12/25/2021 2:30:00 AM 3.71 38.678 0.083 7.24 3.96 12.38
12/25/2021 2:45:00 AM 3.71 38.678 0.084 7.23 3.9 12.38
12/25/2021 3:00:00 AM 3.72 38.696 0.084 7.24 3.91 12.37
12/25/2021 3:15:00 AM 3.73 38.714 0.084 7.23 3.88 12.37
12/25/2021 3:30:00 AM 3.73 38.714 0.084 7.24 3.93 12.36
12/25/2021 3:45:00 AM 3.74 38.732 0.084 7.25 3.97 12.36
12/25/2021 4:00:00 AM 3.75 38.75 0.084 7.24 4.01 12.35
12/25/2021 4:15:00 AM 3.76 38.768 0.084 7.24 3.96 12.35
12/25/2021 4:30:00 AM 3.77 38.786 0.084 7.24 3.96 12.34
12/25/2021 4:45:00 AM 3.78 38.804 0.084 7.21 3.91 12.33
12/25/2021 5:00:00 AM 3.78 38.804 0.084 7.24 4.05 12.33
12/25/2021 5:15:00 AM 3.79 38.822 0.084 7.24 4.09 12.32
12/25/2021 5:30:00 AM 3.8 38.84 0.084 7.18 4.08 12.31
12/25/2021 5:45:00 AM 3.81 38.858 0.084 7.25 3.99 12.31
12/25/2021 6:00:00 AM 3.82 38.876 0.084 7.25 4.01 12.3
12/25/2021 6:15:00 AM 3.82 38.876 0.084 7.24 4.01 12.3
12/25/2021 6:30:00 AM 3.83 38.894 0.084 7.24 3.97 12.3
12/25/2021 6:45:00 AM 3.83 38.894 0.083 7.25 4.06 12.29
12/25/2021 7:00:00 AM 3.84 38.912 0.083 7.24 4.07 12.29
12/25/2021 7:15:00 AM 3.84 38.912 0.083 7.25 4.06 12.29
12/25/2021 7:30:00 AM 3.85 38.93 0.083 7.24 4.04 12.28
12/25/2021 7:45:00 AM 3.86 38.948 0.083 7.21 4.09 12.27
12/25/2021 8:00:00 AM 3.86 38.948 0.083 7.25 3.99 12.29
12/25/2021 8:15:00 AM 3.87 38.966 0.083 7.21 4 12.29
12/25/2021 8:30:00 AM 3.88 38.984 0.083 7.26 3.98 12.3
12/25/2021 8:45:00 AM 3.89 39.002 0.083 7.26 3.99 12.32
12/25/2021 9:00:00 AM 3.9 39.02 0.083 7.27 4.01 12.34
12/25/2021 9:15:00 AM 3.91 39.038 0.083 7.27 4.03 12.36
12/25/2021 9:30:00 AM 3.93 39.074 0.083 7.28 4 12.38
12/25/2021 9:45:00 AM 3.95 39.11 0.083 7.22 4.03 12.42
12/25/2021 10:00:00 AM 3.98 39.164 0.083 7.32 4.08 12.47
12/25/2021 10:15:00 AM 4.02 39.236 0.083 7.33 4.03 12.52
12/25/2021 10:30:00 AM 4.07 39.326 0.083 7.35 4.05 12.56
12/25/2021 10:45:00 AM 4.12 39.416 0.083 7.37 4.1 12.57
12/25/2021 11:00:00 AM 4.15 39.47 0.083 7.33 4.05 12.55
12/25/2021 11:15:00 AM 4.18 39.524 0.083 7.38 4.12 12.53
12/25/2021 11:30:00 AM 4.22 39.596 0.083 7.39 4.08 12.54
12/25/2021 11:45:00 AM 4.25 39.65 0.084 7.33 4.1 12.53
12/25/2021 12:00:00 PM 4.28 39.704 0.084 7.41 4.08 12.51
12/25/2021 12:15:00 PM 4.32 39.776 0.084 7.39 4.03 12.53
12/25/2021 12:30:00 PM 4.38 39.884 0.084 7.42 4.08 12.55
12/25/2021 12:45:00 PM 4.44 39.992 0.085 7.4 4.1 12.55
12/25/2021 1:00:00 PM 4.5 40.1 0.085 7.44 4.13 12.54
12/25/2021 1:15:00 PM 4.54 40.172 0.085 7.44 4.12 12.51
12/25/2021 1:30:00 PM 4.59 40.262 0.085 7.43 4.14 12.5
12/25/2021 1:45:00 PM 4.64 40.352 0.085 7.44 4.18 12.49
12/25/2021 2:00:00 PM 4.67 40.406 0.085 7.45 4.21 12.48
12/25/2021 2:15:00 PM 4.72 40.496 0.085 7.41 4.27 12.47
12/25/2021 2:30:00 PM 4.76 40.568 0.086 7.47 4.52 12.45
12/25/2021 2:45:00 PM 4.79 40.622 0.086 7.46 4.41 12.43
12/25/2021 3:00:00 PM 4.81 40.658 0.086 7.47 4.44 12.39
12/25/2021 3:15:00 PM 4.82 40.676 0.086 7.45 4.39 12.34
12/25/2021 3:30:00 PM 4.83 40.694 0.087 7.4 4.44 12.28
12/25/2021 3:45:00 PM 4.83 40.694 0.087 7.42 4.51 12.22
12/25/2021 4:00:00 PM 4.83 40.694 0.087 7.4 4.5 12.16
12/25/2021 4:15:00 PM 4.83 40.694 0.088 7.37 4.59 12.12
12/25/2021 4:30:00 PM 4.83 40.694 0.088 7.37 4.59 12.09
12/25/2021 4:45:00 PM 4.83 40.694 0.088 7.36 4.68 12.06
12/25/2021 5:00:00 PM 4.82 40.676 0.088 7.34 4.82 12.04
12/25/2021 5:15:00 PM 4.82 40.676 0.089 7.34 4.8 12.03
12/25/2021 5:30:00 PM 4.82 40.676 0.089 7.31 4.89 12.01
12/25/2021 5:45:00 PM 4.83 40.694 0.09 7.33 4.75 12.01
12/25/2021 6:00:00 PM 4.83 40.694 0.09 7.31 4.75 12
12/25/2021 6:15:00 PM 4.83 40.694 0.09 7.32 4.82 12
12/25/2021 6:30:00 PM 4.83 40.694 0.091 7.3 4.74 12
12/25/2021 6:45:00 PM 4.82 40.676 0.091 7.31 4.71 12
12/25/2021 7:00:00 PM 4.82 40.676 0.091 7.32 4.64 12
12/25/2021 7:15:00 PM 4.82 40.676 0.092 7.32 4.66 12
12/25/2021 7:30:00 PM 4.81 40.658 0.092 7.32 4.66 12.01
12/25/2021 7:45:00 PM 4.81 40.658 0.092 7.32 4.71 12.01
12/25/2021 8:00:00 PM 4.8 40.64 0.092 7.32 4.77 12.01
12/25/2021 8:15:00 PM 4.8 40.64 0.093 7.32 4.75 12.02
12/25/2021 8:30:00 PM 4.79 40.622 0.093 7.32 4.94 12.02
12/25/2021 8:45:00 PM 4.79 40.622 0.093 7.32 4.68 12.02
12/25/2021 9:00:00 PM 4.8 40.64 0.093 7.32 4.61 12.03
12/25/2021 9:15:00 PM 4.8 40.64 0.093 7.29 4.69 12.03
12/25/2021 9:30:00 PM 4.8 40.64 0.093 7.34 4.68 12.04
12/25/2021 9:45:00 PM 4.8 40.64 0.093 7.33 4.72 12.04
12/25/2021 10:00:00 PM 4.81 40.658 0.093 7.34 4.9 12.04
12/25/2021 10:15:00 PM 4.81 40.658 0.093 7.33 5.05 12.04
12/25/2021 10:30:00 PM 4.81 40.658 0.093 7.33 5.05 12.04
12/25/2021 10:45:00 PM 4.82 40.676 0.093 7.3 4.77 12.05
12/25/2021 11:00:00 PM 4.82 40.676 0.093 7.34 4.64 12.05
12/25/2021 11:15:00 PM 4.83 40.694 0.093 7.28 4.62 12.05
12/25/2021 11:30:00 PM 4.83 40.694 0.093 7.35 4.57 12.05
12/25/2021 11:45:00 PM 4.82 40.676 0.093 7.34 4.63 12.05
12/26/2021 12:00:00 AM 4.82 40.676 0.093 7.34 4.6 12.05
12/26/2021 12:15:00 AM 4.82 40.676 0.093 7.34 4.57 12.06
12/26/2021 12:30:00 AM 4.81 40.658 0.093 7.35 4.53 12.06
12/26/2021 12:45:00 AM 4.8 40.64 0.093 7.28 4.55 12.06
12/26/2021 1:00:00 AM 4.79 40.622 0.093 7.35 4.46 12.07
12/26/2021 1:15:00 AM 4.78 40.604 0.093 7.34 4.63 12.07
12/26/2021 1:30:00 AM 4.77 40.586 0.092 7.35 4.54 12.08
12/26/2021 1:45:00 AM 4.75 40.55 0.092 7.34 4.43 12.08
12/26/2021 2:00:00 AM 4.74 40.532 0.092 7.34 4.7 12.09
12/26/2021 2:15:00 AM 4.73 40.514 0.092 7.34 4.45 12.1
12/26/2021 2:30:00 AM 4.72 40.496 0.092 7.34 4.5 12.1
12/26/2021 2:45:00 AM 4.71 40.478 0.092 7.34 4.37 12.11
12/26/2021 3:00:00 AM 4.7 40.46 0.092 7.31 4.4 12.11
12/26/2021 3:15:00 AM 4.69 40.442 0.092 7.29 4.38 12.12
12/26/2021 3:30:00 AM 4.68 40.424 0.091 7.33 4.32 12.13
12/26/2021 3:45:00 AM 4.66 40.388 0.091 7.33 4.43 12.13
12/26/2021 4:00:00 AM 4.65 40.37 0.091 7.31 4.46 12.14
12/26/2021 4:15:00 AM 4.63 40.334 0.091 7.33 4.31 12.15
12/26/2021 4:30:00 AM 4.62 40.316 0.091 7.33 4.33 12.16
12/26/2021 4:45:00 AM 4.61 40.298 0.091 7.32 4.23 12.15
12/26/2021 5:00:00 AM 4.59 40.262 0.091 7.32 4.36 12.17
12/26/2021 5:15:00 AM 4.57 40.226 0.091 7.33 4.26 12.18
12/26/2021 5:30:00 AM 4.55 40.19 0.091 7.33 4.34 12.18
12/26/2021 5:45:00 AM 4.52 40.136 0.091 7.33 4.32 12.19
12/26/2021 6:00:00 AM 4.5 40.1 0.091 7.33 4.32 12.2
12/26/2021 6:15:00 AM 4.49 40.082 0.09 7.33 4.33 12.21
12/26/2021 6:30:00 AM 4.48 40.064 0.09 7.32 4.31 12.22
12/26/2021 6:45:00 AM 4.46 40.028 0.09 7.32 4.25 12.22
12/26/2021 7:00:00 AM 4.41 39.938 0.09 7.32 4.27 12.23
12/26/2021 7:15:00 AM 4.36 39.848 0.09 7.3 4.28 12.25
12/26/2021 7:30:00 AM 4.32 39.776 0.09 7.28 4.21 12.26
12/26/2021 7:45:00 AM 4.27 39.686 0.09 7.32 4.25 12.29
12/26/2021 8:00:00 AM 4.22 39.596 0.09 7.32 4.22 12.33
12/26/2021 8:15:00 AM 4.17 39.506 0.09 7.32 4.21 12.39
12/26/2021 8:30:00 AM 4.13 39.434 0.09 7.34 4.17 12.45
12/26/2021 8:45:00 AM 4.09 39.362 0.09 7.35 4.16 12.5
12/26/2021 9:00:00 AM 4.06 39.308 0.09 7.35 4.13 12.56
12/26/2021 9:15:00 AM 4.04 39.272 0.089 7.36 4.18 12.6
12/26/2021 9:30:00 AM 4.03 39.254 0.089 7.38 4.15 12.66
12/26/2021 9:45:00 AM 4.06 39.308 0.089 7.4 4.1 12.7
12/26/2021 10:00:00 AM 4.08 39.344 0.089 7.39 4.09 12.72
12/26/2021 10:15:00 AM 4.14 39.452 0.089 7.38 4.08 12.75
12/26/2021 10:30:00 AM 4.21 39.578 0.089 7.44 4.08 12.78
12/26/2021 10:45:00 AM 4.25 39.65 0.089 7.45 4.04 12.77
12/26/2021 11:00:00 AM 4.27 39.686 0.088 7.46 4.05 12.77
12/26/2021 11:15:00 AM 4.31 39.758 0.088 7.47 4.07 12.77
12/26/2021 11:30:00 AM 4.39 39.902 0.088 7.48 4 12.77
12/26/2021 11:45:00 AM 4.48 40.064 0.088 7.5 4.07 12.78
12/26/2021 12:00:00 PM 4.58 40.244 0.088 7.51 4.11 12.75
12/26/2021 12:15:00 PM 4.65 40.37 0.088 7.52 4.08 12.73
12/26/2021 12:30:00 PM 4.74 40.532 0.087 7.52 4.03 12.71
12/26/2021 12:45:00 PM 4.79 40.622 0.087 7.53 3.97 12.71
12/26/2021 1:00:00 PM 4.84 40.712 0.087 7.54 4 12.7
12/26/2021 1:15:00 PM 4.86 40.748 0.087 7.54 4.03 12.68
12/26/2021 1:30:00 PM 4.87 40.766 0.087 7.55 3.99 12.66
12/26/2021 1:45:00 PM 4.88 40.784 0.087 7.54 4.03 12.66
12/26/2021 2:00:00 PM 4.89 40.802 0.087 7.55 4.01 12.66
12/26/2021 2:15:00 PM 4.9 40.82 0.087 7.54 3.96 12.64
12/26/2021 2:30:00 PM 4.89 40.802 0.087 7.53 4.03 12.62
12/26/2021 2:45:00 PM 4.86 40.748 0.087 7.52 3.97 12.6
12/26/2021 3:00:00 PM 4.8 40.64 0.087 7.51 4.03 12.56
12/26/2021 3:15:00 PM 4.75 40.55 0.087 7.5 3.98 12.55
12/26/2021 3:30:00 PM 4.71 40.478 0.087 7.47 4 12.55
12/26/2021 3:45:00 PM 4.67 40.406 0.087 7.46 4.01 12.54
12/26/2021 4:00:00 PM 4.63 40.334 0.087 7.46 4.01 12.53
12/26/2021 4:15:00 PM 4.57 40.226 0.087 7.4 3.96 12.49
12/26/2021 4:30:00 PM 4.51 40.118 0.087 7.43 4.03 12.46
12/26/2021 4:45:00 PM 4.43 39.974 0.087 7.41 4.05 12.43
12/26/2021 5:00:00 PM 4.36 39.848 0.087 7.39 3.98 12.41
12/26/2021 5:15:00 PM 4.29 39.722 0.087 7.36 4.02 12.4
12/26/2021 5:30:00 PM 4.22 39.596 0.087 7.35 4.03 12.4
12/26/2021 5:45:00 PM 4.15 39.47 0.087 7.31 4.08 12.4
12/26/2021 6:00:00 PM 4.1 39.38 0.087 7.33 4.1 12.41
12/26/2021 6:15:00 PM 4.05 39.29 0.087 7.32 4.11 12.43
12/26/2021 6:30:00 PM 3.99 39.182 0.087 7.28 4.08 12.44
12/26/2021 6:45:00 PM 3.93 39.074 0.087 7.3 4.08 12.45
12/26/2021 7:00:00 PM 3.87 38.966 0.087 7.3 4.07 12.47
12/26/2021 7:15:00 PM 3.81 38.858 0.087 7.31 4.11 12.49
12/26/2021 7:30:00 PM 3.75 38.75 0.087 7.31 4.04 12.51
12/26/2021 7:45:00 PM 3.69 38.642 0.087 7.29 4.1 12.53
12/26/2021 8:00:00 PM 3.64 38.552 0.087 7.27 4.03 12.55
12/26/2021 8:15:00 PM 3.59 38.462 0.087 7.28 4.13 12.57
12/26/2021 8:30:00 PM 3.56 38.408 0.087 7.29 4.08 12.58
12/26/2021 8:45:00 PM 3.54 38.372 0.087 7.3 4.08 12.59
12/26/2021 9:00:00 PM 3.53 38.354 0.087 7.3 4.09 12.6
12/26/2021 9:15:00 PM 3.53 38.354 0.087 7.29 4.1 12.61
12/26/2021 9:30:00 PM 3.52 38.336 0.087 7.3 4.06 12.61
12/26/2021 9:45:00 PM 3.52 38.336 0.087 7.3 4.02 12.61
12/26/2021 10:00:00 PM 3.52 38.336 0.087 7.3 4.08 12.61
12/26/2021 10:15:00 PM 3.51 38.318 0.087 7.3 4.08 12.61
12/26/2021 10:30:00 PM 3.5 38.3 0.087 7.3 4.08 12.61
12/26/2021 10:45:00 PM 3.49 38.282 0.087 7.31 4.06 12.62
12/26/2021 11:00:00 PM 3.49 38.282 0.088 7.3 4.04 12.62
12/26/2021 11:15:00 PM 3.49 38.282 0.088 7.3 4.05 12.63
12/26/2021 11:30:00 PM 3.49 38.282 0.088 7.31 4.05 12.63
12/26/2021 11:45:00 PM 3.48 38.264 0.088 7.3 4.13 12.63
12/27/2021 12:00:00 AM 3.47 38.246 0.088 7.3 4.21 12.63
12/27/2021 12:15:00 AM 3.47 38.246 0.088 7.3 4.15 12.63
12/27/2021 12:30:00 AM 3.45 38.21 0.088 7.28 4.17 12.64
12/27/2021 12:45:00 AM 3.44 38.192 0.088 7.26 4.15 12.64
12/27/2021 1:00:00 AM 3.43 38.174 0.088 7.31 4.09 12.65
12/27/2021 1:15:00 AM 3.43 38.174 0.088 7.3 4.07 12.65
12/27/2021 1:30:00 AM 3.42 38.156 0.088 7.3 4.08 12.65
12/27/2021 1:45:00 AM 3.4 38.12 0.088 7.3 4.07 12.65
12/27/2021 2:00:00 AM 3.39 38.102 0.088 7.3 4.06 12.65
12/27/2021 2:15:00 AM 3.37 38.066 0.088 7.3 4.08 12.65
12/27/2021 2:30:00 AM 3.35 38.03 0.088 7.29 4.06 12.66
12/27/2021 2:45:00 AM 3.34 38.012 0.088 7.28 4.09 12.66
12/27/2021 3:00:00 AM 3.32 37.976 0.088 7.29 4.04 12.67
12/27/2021 3:15:00 AM 3.3 37.94 0.088 7.29 4.04 12.67
12/27/2021 3:30:00 AM 3.27 37.886 0.088 7.29 4.01 12.68
12/27/2021 3:45:00 AM 3.26 37.868 0.087 7.3 4.03 12.68
12/27/2021 4:00:00 AM 3.25 37.85 0.087 7.28 4.03 12.68
12/27/2021 4:15:00 AM 3.23 37.814 0.087 7.27 4.01 12.69
12/27/2021 4:30:00 AM 3.22 37.796 0.087 7.29 4.06 12.7
12/27/2021 4:45:00 AM 3.21 37.778 0.087 7.29 3.99 12.7
12/27/2021 5:00:00 AM 3.2 37.76 0.087 7.28 4.03 12.7
12/27/2021 5:15:00 AM 3.19 37.742 0.087 7.29 4.01 12.71
12/27/2021 5:30:00 AM 3.18 37.724 0.087 7.29 4 12.71
12/27/2021 5:45:00 AM 3.17 37.706 0.087 7.27 4.01 12.71
12/27/2021 6:00:00 AM 3.17 37.706 0.087 7.29 4.01 12.71
12/27/2021 6:15:00 AM 3.16 37.688 0.087 7.28 4 12.7
12/27/2021 6:30:00 AM 3.15 37.67 0.087 7.26 4.02 12.71
12/27/2021 6:45:00 AM 3.15 37.67 0.087 7.29 4.02 12.71
12/27/2021 7:00:00 AM 3.15 37.67 0.087 7.29 4.02 12.71
12/27/2021 7:15:00 AM 3.15 37.67 0.087 7.27 4.01 12.71
12/27/2021 7:30:00 AM 3.14 37.652 0.087 7.28 4.01 12.71
12/27/2021 7:45:00 AM 3.15 37.67 0.087 7.3 4.05 12.72
12/27/2021 8:00:00 AM 3.15 37.67 0.087 7.29 3.99 12.73
12/27/2021 8:15:00 AM 3.15 37.67 0.087 7.29 3.97 12.74
12/27/2021 8:30:00 AM 3.15 37.67 0.087 7.3 3.99 12.74
12/27/2021 8:45:00 AM 3.15 37.67 0.087 7.3 4.01 12.74
12/27/2021 9:00:00 AM 3.13 37.634 0.087 7.3 3.99 12.76
12/27/2021 9:15:00 AM 3.07 37.526 0.087 7.31 3.98 12.78
12/27/2021 9:30:00 AM 2.98 37.364 0.087 7.29 4.05 12.83
12/27/2021 9:45:00 AM 2.96 37.328 0.087 7.33 4.02 12.9
12/27/2021 10:00:00 AM 2.99 37.382 0.087 7.34 4.03 12.97
12/27/2021 10:15:00 AM 3.02 37.436 0.087 7.29 3.98 13.03
12/27/2021 10:30:00 AM 3.05 37.49 0.086 7.38 3.98 13.06
12/27/2021 10:45:00 AM 3.08 37.544 0.086 7.39 3.93 13.08
12/27/2021 11:00:00 AM 3.12 37.616 0.086 7.4 4.07 13.1
12/27/2021 11:15:00 AM 3.17 37.706 0.086 7.42 4.03 13.1
12/27/2021 11:30:00 AM 3.21 37.778 0.086 7.42 3.96 13.09
12/27/2021 11:45:00 AM 3.24 37.832 0.086 7.43 3.95 13.08
12/27/2021 12:00:00 PM 3.24 37.832 0.086 7.42 3.97 13.08
12/27/2021 12:15:00 PM 3.26 37.868 0.086 7.45 3.94 13.06
12/27/2021 12:30:00 PM 3.27 37.886 0.086 7.43 3.96 13
12/27/2021 12:45:00 PM 3.27 37.886 0.086 7.43 3.94 12.96
12/27/2021 1:00:00 PM 3.28 37.904 0.086 7.42 3.96 12.95
12/27/2021 1:15:00 PM 3.29 37.922 0.086 7.42 3.93 12.94
12/27/2021 1:30:00 PM 3.3 37.94 0.086 7.4 3.93 12.93
12/27/2021 1:45:00 PM 3.31 37.958 0.086 7.43 3.94 12.92
12/27/2021 2:00:00 PM 3.31 37.958 0.086 7.41 3.93 12.9
12/27/2021 2:15:00 PM 3.31 37.958 0.086 7.41 3.96 12.89
12/27/2021 2:30:00 PM 3.31 37.958 0.086 7.38 3.98 12.86
12/27/2021 2:45:00 PM 3.31 37.958 0.086 7.41 3.93 12.85
12/27/2021 3:00:00 PM 3.31 37.958 0.086 7.39 4 12.84
12/27/2021 3:15:00 PM 3.31 37.958 0.086 7.4 3.96 12.81
12/27/2021 3:30:00 PM 3.31 37.958 0.086 7.38 4.02 12.78
12/27/2021 3:45:00 PM 3.3 37.94 0.086 7.38 4 12.75
12/27/2021 4:00:00 PM 3.3 37.94 0.086 7.37 3.95 12.72
12/27/2021 4:15:00 PM 3.29 37.922 0.086 7.37 3.99 12.7
12/27/2021 4:30:00 PM 3.29 37.922 0.086 7.35 4.01 12.68
12/27/2021 4:45:00 PM 3.29 37.922 0.086 7.35 3.98 12.66
12/27/2021 5:00:00 PM 3.28 37.904 0.086 7.33 3.97 12.63
12/27/2021 5:15:00 PM 3.27 37.886 0.086 7.34 3.96 12.62
12/27/2021 5:30:00 PM 3.27 37.886 0.086 7.33 3.96 12.6
12/27/2021 5:45:00 PM 3.27 37.886 0.086 7.33 3.95 12.6
12/27/2021 6:00:00 PM 3.26 37.868 0.086 7.33 4.02 12.59
12/27/2021 6:15:00 PM 3.25 37.85 0.086 7.32 3.97 12.59
12/27/2021 6:30:00 PM 3.25 37.85 0.086 7.26 4.01 12.59
12/27/2021 6:45:00 PM 3.25 37.85 0.086 7.32 3.96 12.58
12/27/2021 7:00:00 PM 3.25 37.85 0.087 7.3 4.02 12.58
12/27/2021 7:15:00 PM 3.25 37.85 0.087 7.31 4.02 12.58
12/27/2021 7:30:00 PM 3.25 37.85 0.087 7.31 4.05 12.57
12/27/2021 7:45:00 PM 3.25 37.85 0.087 7.29 4.06 12.57
12/27/2021 8:00:00 PM 3.25 37.85 0.087 7.31 4.05 12.57
12/27/2021 8:15:00 PM 3.25 37.85 0.087 7.3 4.04 12.57
12/27/2021 8:30:00 PM 3.25 37.85 0.087 7.31 4.07 12.56
12/27/2021 8:45:00 PM 3.26 37.868 0.087 7.28 4.02 12.56
12/27/2021 9:00:00 PM 3.26 37.868 0.087 7.31 4.07 12.56
12/27/2021 9:15:00 PM 3.26 37.868 0.087 7.27 4.12 12.56
12/27/2021 9:30:00 PM 3.27 37.886 0.087 7.3 4.07 12.55
12/27/2021 9:45:00 PM 3.27 37.886 0.087 7.31 4.1 12.55
12/27/2021 10:00:00 PM 3.27 37.886 0.087 7.31 4.07 12.55
12/27/2021 10:15:00 PM 3.28 37.904 0.087 7.31 4.05 12.55
12/27/2021 10:30:00 PM 3.28 37.904 0.087 7.31 4.11 12.55
12/27/2021 10:45:00 PM 3.29 37.922 0.087 7.3 4.04 12.55
12/27/2021 11:00:00 PM 3.29 37.922 0.087 7.31 4.06 12.55
12/27/2021 11:15:00 PM 3.29 37.922 0.087 7.31 4.01 12.55
12/27/2021 11:30:00 PM 3.3 37.94 0.087 7.31 4.01 12.54
12/27/2021 11:45:00 PM 3.31 37.958 0.087 7.31 4.05 12.54
12/28/2021 12:00:00 AM 3.31 37.958 0.087 7.29 4.06 12.53
12/28/2021 12:15:00 AM 3.32 37.976 0.087 7.31 4.1 12.54
12/28/2021 12:30:00 AM 3.32 37.976 0.087 7.31 4.11 12.54
12/28/2021 12:45:00 AM 3.33 37.994 0.087 7.28 4.08 12.53
12/28/2021 1:00:00 AM 3.34 38.012 0.087 7.3 4.1 12.53
12/28/2021 1:15:00 AM 3.35 38.03 0.087 7.31 4.08 12.53
12/28/2021 1:30:00 AM 3.35 38.03 0.087 7.31 4.07 12.53
12/28/2021 1:45:00 AM 3.36 38.048 0.087 7.31 3.99 12.52
12/28/2021 2:00:00 AM 3.37 38.066 0.087 7.3 4.01 12.53
12/28/2021 2:15:00 AM 3.37 38.066 0.087 7.3 3.98 12.53
12/28/2021 2:30:00 AM 3.38 38.084 0.087 7.31 3.99 12.52
12/28/2021 2:45:00 AM 3.39 38.102 0.087 7.3 4 12.52
12/28/2021 3:00:00 AM 3.4 38.12 0.087 7.31 3.94 12.52
12/28/2021 3:15:00 AM 3.38 38.084 0.087 7.29 4.01 12.52
12/28/2021 3:30:00 AM 3.34 38.012 0.087 7.31 4.03 12.53
12/28/2021 3:45:00 AM 3.31 37.958 0.087 7.31 4.07 12.54
12/28/2021 4:00:00 AM 3.28 37.904 0.087 7.29 3.98 12.55
12/28/2021 4:15:00 AM 3.24 37.832 0.087 7.31 4 12.56
12/28/2021 4:30:00 AM 3.2 37.76 0.087 7.29 3.98 12.58
12/28/2021 4:45:00 AM 3.17 37.706 0.087 7.29 3.95 12.58
12/28/2021 5:00:00 AM 3.14 37.652 0.087 7.28 4.01 12.6
12/28/2021 5:15:00 AM 3.11 37.598 0.087 7.3 4.03 12.61
12/28/2021 5:30:00 AM 3.07 37.526 0.087 7.3 3.97 12.62
12/28/2021 5:45:00 AM 3.04 37.472 0.087 7.3 3.97 12.63
12/28/2021 6:00:00 AM 3 37.4 0.087 7.28 4.04 12.65
12/28/2021 6:15:00 AM 2.97 37.346 0.087 7.3 3.98 12.66
12/28/2021 6:30:00 AM 2.93 37.274 0.087 7.28 4.03 12.67
12/28/2021 6:45:00 AM 2.89 37.202 0.088 7.3 3.99 12.69
12/28/2021 7:00:00 AM 2.85 37.13 0.088 7.29 4.01 12.7
12/28/2021 7:15:00 AM 2.82 37.076 0.088 7.3 3.99 12.72
12/28/2021 7:30:00 AM 2.78 37.004 0.088 7.29 4.01 12.73
12/28/2021 7:45:00 AM 2.75 36.95 0.088 7.29 4 12.75
12/28/2021 8:00:00 AM 2.73 36.914 0.088 7.3 4.01 12.8
12/28/2021 8:15:00 AM 2.7 36.86 0.088 7.3 3.95 12.84
12/28/2021 8:30:00 AM 2.68 36.824 0.087 7.3 3.99 12.89
12/28/2021 8:45:00 AM 2.66 36.788 0.087 7.33 4.04 12.93
12/28/2021 9:00:00 AM 2.66 36.788 0.087 7.32 4.07 12.98
12/28/2021 9:15:00 AM 2.66 36.788 0.087 7.3 4 13.03
12/28/2021 9:30:00 AM 2.67 36.806 0.087 7.32 4.06 13.06
12/28/2021 9:45:00 AM 2.71 36.878 0.087 7.38 3.95 13.09
12/28/2021 10:00:00 AM 2.76 36.968 0.087 7.39 3.96 13.12
12/28/2021 10:15:00 AM 2.88 37.184 0.087 7.37 3.96 13.15
12/28/2021 10:30:00 AM 3.02 37.436 0.087 7.41 3.97 13.15
12/28/2021 10:45:00 AM 3.17 37.706 0.087 7.45 3.97 13.12
12/28/2021 11:00:00 AM 3.3 37.94 0.087 7.44 3.93 13.09
12/28/2021 11:15:00 AM 3.42 38.156 0.087 7.47 3.93 13.06
12/28/2021 11:30:00 AM 3.54 38.372 0.086 7.48 3.93 13.04
12/28/2021 11:45:00 AM 3.65 38.57 0.086 7.48 3.95 13
12/28/2021 12:00:00 PM 3.74 38.732 0.086 7.5 3.91 12.98
12/28/2021 12:15:00 PM 3.81 38.858 0.086 7.51 3.91 12.95
12/28/2021 12:30:00 PM 3.85 38.93 0.086 7.52 3.92 12.91
12/28/2021 12:45:00 PM 3.88 38.984 0.086 7.5 3.93 12.87
12/28/2021 1:00:00 PM 3.9 39.02 0.086 7.49 3.9 12.84
12/28/2021 1:15:00 PM 3.92 39.056 0.086 7.48 3.87 12.81
12/28/2021 1:30:00 PM 3.93 39.074 0.086 7.49 3.92 12.77
12/28/2021 1:45:00 PM 3.93 39.074 0.086 7.42 3.93 12.74
12/28/2021 2:00:00 PM 3.94 39.092 0.086 7.48 3.9 12.73
12/28/2021 2:15:00 PM 3.96 39.128 0.086 7.47 3.95 12.74
12/28/2021 2:30:00 PM 3.98 39.164 0.086 7.47 3.96 12.72
12/28/2021 2:45:00 PM 3.98 39.164 0.086 7.47 3.9 12.7
12/28/2021 3:00:00 PM 3.97 39.146 0.086 7.46 3.88 12.66
12/28/2021 3:15:00 PM 3.96 39.128 0.086 7.44 3.96 12.61
12/28/2021 3:30:00 PM 3.95 39.11 0.086 7.43 3.96 12.59
12/28/2021 3:45:00 PM 3.93 39.074 0.086 7.41 3.92 12.56
12/28/2021 4:00:00 PM 3.92 39.056 0.086 7.41 3.94 12.55
12/28/2021 4:15:00 PM 3.92 39.056 0.086 7.4 3.93 12.53
12/28/2021 4:30:00 PM 3.9 39.02 0.086 7.39 3.93 12.5
12/28/2021 4:45:00 PM 3.89 39.002 0.086 7.37 3.93 12.48
12/28/2021 5:00:00 PM 3.88 38.984 0.086 7.36 4.01 12.46
12/28/2021 5:15:00 PM 3.87 38.966 0.086 7.36 3.94 12.44
12/28/2021 5:30:00 PM 3.87 38.966 0.086 7.35 3.97 12.43
12/28/2021 5:45:00 PM 3.85 38.93 0.086 7.31 3.93 12.43
12/28/2021 6:00:00 PM 3.8 38.84 0.086 7.35 3.97 12.42
12/28/2021 6:15:00 PM 3.74 38.732 0.086 7.35 3.99 12.43
12/28/2021 6:30:00 PM 3.61 38.498 0.086 7.34 4.01 12.44
12/28/2021 6:45:00 PM 3.44 38.192 0.086 7.33 4 12.47
12/28/2021 7:00:00 PM 3.29 37.922 0.086 7.31 4 12.5
12/28/2021 7:15:00 PM 3.15 37.67 0.086 7.3 3.97 12.54
12/28/2021 7:30:00 PM 3.03 37.454 0.086 7.25 4.09 12.59
12/28/2021 7:45:00 PM 2.93 37.274 0.086 7.26 4.02 12.63
12/28/2021 8:00:00 PM 2.79 37.022 0.086 7.28 4.01 12.66
12/28/2021 8:15:00 PM 2.67 36.806 0.086 7.28 4.06 12.7
12/28/2021 8:30:00 PM 2.53 36.554 0.086 7.24 4.08 12.74
12/28/2021 8:45:00 PM 2.5 36.5 0.086 7.27 4.08 12.77
12/28/2021 9:00:00 PM 2.52 36.536 0.086 7.27 4.07 12.8
12/28/2021 9:15:00 PM 2.57 36.626 0.086 7.28 4.1 12.8
12/28/2021 9:30:00 PM 2.6 36.68 0.086 7.29 4.06 12.81
12/28/2021 9:45:00 PM 2.63 36.734 0.086 7.3 4.05 12.81
12/28/2021 10:00:00 PM 2.67 36.806 0.086 7.31 4.12 12.79
12/28/2021 10:15:00 PM 2.7 36.86 0.086 7.3 4.16 12.79
12/28/2021 10:30:00 PM 2.73 36.914 0.087 7.3 4.12 12.77
12/28/2021 10:45:00 PM 2.75 36.95 0.087 7.28 4.07 12.77
12/28/2021 11:00:00 PM 2.77 36.986 0.087 7.32 4.04 12.76
12/28/2021 11:15:00 PM 2.78 37.004 0.087 7.27 4.09 12.76
12/28/2021 11:30:00 PM 2.8 37.04 0.087 7.31 4.02 12.75
12/28/2021 11:45:00 PM 2.81 37.058 0.087 7.32 4.04 12.74
12/29/2021 12:00:00 AM 2.83 37.094 0.087 7.32 4.03 12.73
12/29/2021 12:15:00 AM 2.84 37.112 0.087 7.32 4.07 12.73
12/29/2021 12:30:00 AM 2.85 37.13 0.087 7.32 4.07 12.72
12/29/2021 12:45:00 AM 2.87 37.166 0.087 7.3 4.09 12.71
12/29/2021 1:00:00 AM 2.88 37.184 0.087 7.31 4.05 12.7
12/29/2021 1:15:00 AM 2.89 37.202 0.087 7.31 4.08 12.69
12/29/2021 1:30:00 AM 2.9 37.22 0.087 7.26 4.07 12.69
12/29/2021 1:45:00 AM 2.92 37.256 0.087 7.3 4.15 12.69
12/29/2021 2:00:00 AM 2.93 37.274 0.088 7.32 4.08 12.68
12/29/2021 2:15:00 AM 2.94 37.292 0.088 7.32 4.13 12.68
12/29/2021 2:30:00 AM 2.95 37.31 0.088 7.32 4.07 12.67
12/29/2021 2:45:00 AM 2.97 37.346 0.088 7.32 4.09 12.66
12/29/2021 3:00:00 AM 2.98 37.364 0.088 7.33 4.07 12.66
12/29/2021 3:15:00 AM 2.99 37.382 0.089 7.31 4.07 12.66
12/29/2021 3:30:00 AM 3 37.4 0.089 7.33 4.07 12.66
12/29/2021 3:45:00 AM 3.01 37.418 0.089 7.33 4.07 12.65
12/29/2021 4:00:00 AM 3.02 37.436 0.09 7.31 4.07 12.65
12/29/2021 4:15:00 AM 3.03 37.454 0.09 7.32 4.13 12.65
12/29/2021 4:30:00 AM 3.05 37.49 0.09 7.32 4.06 12.64
12/29/2021 4:45:00 AM 3.06 37.508 0.091 7.33 4.09 12.64
12/29/2021 5:00:00 AM 3.07 37.526 0.091 7.33 4.13 12.63
12/29/2021 5:15:00 AM 3.08 37.544 0.092 7.31 4.2 12.63
12/29/2021 5:30:00 AM 3.09 37.562 0.092 7.28 4.08 12.62
12/29/2021 5:45:00 AM 3.1 37.58 0.093 7.32 4.18 12.62
12/29/2021 6:00:00 AM 3.11 37.598 0.093 7.31 4.09 12.61
12/29/2021 6:15:00 AM 3.12 37.616 0.094 7.33 4.1 12.61
12/29/2021 6:30:00 AM 3.13 37.634 0.094 7.33 4.15 12.61
12/29/2021 6:45:00 AM 3.14 37.652 0.095 7.33 4.12 12.61
12/29/2021 7:00:00 AM 3.15 37.67 0.095 7.32 4.16 12.61
12/29/2021 7:15:00 AM 3.16 37.688 0.095 7.28 4.06 12.61
12/29/2021 7:30:00 AM 3.17 37.706 0.095 7.33 4.21 12.61
12/29/2021 7:45:00 AM 3.18 37.724 0.095 7.32 4.08 12.61
12/29/2021 8:00:00 AM 3.19 37.742 0.096 7.33 4.15 12.62
12/29/2021 8:15:00 AM 3.2 37.76 0.096 7.33 4.1 12.63
12/29/2021 8:30:00 AM 3.21 37.778 0.096 7.32 4.13 12.65
12/29/2021 8:45:00 AM 3.22 37.796 0.096 7.35 4.09 12.67
12/29/2021 9:00:00 AM 3.24 37.832 0.096 7.35 4.09 12.7
12/29/2021 9:15:00 AM 3.26 37.868 0.096 7.36 4.12 12.74
12/29/2021 9:30:00 AM 3.29 37.922 0.096 7.31 4.18 12.78
12/29/2021 9:45:00 AM 3.33 37.994 0.096 7.4 4.11 12.83
12/29/2021 10:00:00 AM 3.36 38.048 0.096 7.4 4.07 12.86
12/29/2021 10:15:00 AM 3.41 38.138 0.096 7.41 4.04 12.87
12/29/2021 10:30:00 AM 3.45 38.21 0.095 7.4 4.1 12.89
12/29/2021 10:45:00 AM 3.49 38.282 0.095 7.43 4.09 12.9
12/29/2021 11:00:00 AM 3.54 38.372 0.095 7.45 4.05 12.9
12/29/2021 11:15:00 AM 3.59 38.462 0.095 7.42 4.03 12.9
12/29/2021 11:30:00 AM 3.64 38.552 0.095 7.47 4.14 12.9
12/29/2021 11:45:00 AM 3.7 38.66 0.095 7.47 4.43 12.9
12/29/2021 12:00:00 PM 3.75 38.75 0.094 7.47 4.29 12.88
12/29/2021 12:15:00 PM 3.79 38.822 0.094 7.49 4.18 12.86
12/29/2021 12:30:00 PM 3.83 38.894 0.094 7.49 4.19 12.84
12/29/2021 12:45:00 PM 3.87 38.966 0.094 7.48 4.16 12.84
12/29/2021 1:00:00 PM 3.92 39.056 0.094 7.5 4.08 12.83
12/29/2021 1:15:00 PM 3.97 39.146 0.094 7.51 4.09 12.81
12/29/2021 1:30:00 PM 4.03 39.254 0.094 7.51 4.12 12.8
12/29/2021 1:45:00 PM 4.07 39.326 0.093 7.51 4.13 12.78
12/29/2021 2:00:00 PM 4.1 39.38 0.093 7.51 4.08 12.74
12/29/2021 2:15:00 PM 4.13 39.434 0.094 7.46 4.28 12.73
12/29/2021 2:30:00 PM 4.18 39.524 0.094 7.51 6.22 12.73
12/29/2021 2:45:00 PM 4.22 39.596 0.094 7.52 5.74 12.7
12/29/2021 3:00:00 PM 4.24 39.632 0.094 7.51 4.83 12.66
12/29/2021 3:15:00 PM 4.25 39.65 0.094 7.5 4.5 12.64
12/29/2021 3:30:00 PM 4.27 39.686 0.094 7.46 4.32 12.62
12/29/2021 3:45:00 PM 4.27 39.686 0.095 7.49 4.25 12.6
12/29/2021 4:00:00 PM 4.27 39.686 0.095 7.48 4.21 12.55
12/29/2021 4:15:00 PM 4.27 39.686 0.096 7.47 4.3 12.5
12/29/2021 4:30:00 PM 4.26 39.668 0.096 7.45 4.28 12.46
12/29/2021 4:45:00 PM 4.25 39.65 0.096 7.38 4.42 12.43
12/29/2021 5:00:00 PM 4.24 39.632 0.097 7.4 4.23 12.39
12/29/2021 5:15:00 PM 4.23 39.614 0.097 7.39 4.32 12.37
12/29/2021 5:30:00 PM 4.22 39.596 0.098 7.41 4.36 12.35
12/29/2021 5:45:00 PM 4.21 39.578 0.098 7.4 4.33 12.35
12/29/2021 6:00:00 PM 4.21 39.578 0.098 7.39 4.43 12.34
12/29/2021 6:15:00 PM 4.2 39.56 0.098 7.38 4.48 12.34
12/29/2021 6:30:00 PM 4.19 39.542 0.099 7.39 4.61 12.34
12/29/2021 6:45:00 PM 4.19 39.542 0.099 7.35 4.63 12.34
12/29/2021 7:00:00 PM 4.18 39.524 0.099 7.38 4.59 12.35
12/29/2021 7:15:00 PM 4.18 39.524 0.1 7.39 4.58 12.35
12/29/2021 7:30:00 PM 4.17 39.506 0.1 7.38 4.64 12.36
12/29/2021 7:45:00 PM 4.16 39.488 0.1 7.38 4.67 12.37
12/29/2021 8:00:00 PM 4.15 39.47 0.101 7.38 4.8 12.36
12/29/2021 8:15:00 PM 4.15 39.47 0.101 7.39 4.84 12.37
12/29/2021 8:30:00 PM 4.14 39.452 0.102 7.39 4.97 12.37
12/29/2021 8:45:00 PM 4.13 39.434 0.102 7.36 5.16 12.37
12/29/2021 9:00:00 PM 4.12 39.416 0.103 7.36 5.14 12.38
12/29/2021 9:15:00 PM 4.1 39.38 0.104 7.41 5.27 12.39
12/29/2021 9:30:00 PM 4.09 39.362 0.104 7.41 5.28 12.4
12/29/2021 9:45:00 PM 4.08 39.344 0.105 7.4 5.36 12.4
12/29/2021 10:00:00 PM 4.07 39.326 0.105 7.41 5.32 12.4
12/29/2021 10:15:00 PM 4.05 39.29 0.106 7.41 5.49 12.41
12/29/2021 10:30:00 PM 4.04 39.272 0.106 7.42 5.23 12.41
12/29/2021 10:45:00 PM 4.03 39.254 0.107 7.38 5.44 12.42
12/29/2021 11:00:00 PM 4.01 39.218 0.107 7.42 5.41 12.42
12/29/2021 11:15:00 PM 4 39.2 0.107 7.42 5.57 12.42
12/29/2021 11:30:00 PM 3.99 39.182 0.107 7.42 5.49 12.43
12/29/2021 11:45:00 PM 3.98 39.164 0.107 7.42 5.75 12.43
12/30/2021 12:00:00 AM 3.97 39.146 0.107 7.42 5.69 12.43
12/30/2021 12:15:00 AM 3.97 39.146 0.107 7.42 5.75 12.43
12/30/2021 12:30:00 AM 3.96 39.128 0.107 7.41 5.78 12.43
12/30/2021 12:45:00 AM 3.96 39.128 0.107 7.41 5.86 12.43
12/30/2021 1:00:00 AM 3.96 39.128 0.107 7.42 5.79 12.43
12/30/2021 1:15:00 AM 3.96 39.128 0.107 7.42 5.78 12.43
12/30/2021 1:30:00 AM 3.96 39.128 0.107 7.42 5.76 12.42
12/30/2021 1:45:00 AM 3.96 39.128 0.107 7.42 5.89 12.43
12/30/2021 2:00:00 AM 3.96 39.128 0.106 7.42 5.62 12.42
12/30/2021 2:15:00 AM 3.96 39.128 0.106 7.38 5.55 12.42
12/30/2021 2:30:00 AM 3.96 39.128 0.106 7.42 5.63 12.42
12/30/2021 2:45:00 AM 3.96 39.128 0.106 7.41 5.58 12.42
12/30/2021 3:00:00 AM 3.96 39.128 0.105 7.38 5.59 12.42
12/30/2021 3:15:00 AM 3.96 39.128 0.105 7.42 5.6 12.42
12/30/2021 3:30:00 AM 3.96 39.128 0.105 7.41 5.58 12.41
12/30/2021 3:45:00 AM 3.96 39.128 0.104 7.41 5.55 12.41
12/30/2021 4:00:00 AM 3.96 39.128 0.104 7.4 5.42 12.41
12/30/2021 4:15:00 AM 3.96 39.128 0.104 7.41 5.42 12.41
12/30/2021 4:30:00 AM 3.96 39.128 0.103 7.42 5.42 12.42
12/30/2021 4:45:00 AM 3.96 39.128 0.103 7.41 5.36 12.42
12/30/2021 5:00:00 AM 3.96 39.128 0.103 7.41 5.4 12.41
12/30/2021 5:15:00 AM 3.97 39.146 0.102 7.41 5.32 12.41
12/30/2021 5:30:00 AM 3.97 39.146 0.102 7.41 5.29 12.41
12/30/2021 5:45:00 AM 3.97 39.146 0.102 7.41 5.28 12.41
12/30/2021 6:00:00 AM 3.97 39.146 0.102 7.4 5.36 12.42
12/30/2021 6:15:00 AM 3.98 39.164 0.101 7.41 5.25 12.42
12/30/2021 6:30:00 AM 3.98 39.164 0.101 7.38 5.12 12.4
12/30/2021 6:45:00 AM 3.98 39.164 0.101 7.41 5.18 12.41
12/30/2021 7:00:00 AM 3.99 39.182 0.101 7.41 5.15 12.41
12/30/2021 7:15:00 AM 3.99 39.182 0.101 7.41 5.02 12.41
12/30/2021 7:30:00 AM 4 39.2 0.1 7.4 4.97 12.41
12/30/2021 7:45:00 AM 4 39.2 0.1 7.4 4.99 12.41
12/30/2021 8:00:00 AM 4 39.2 0.1 7.41 5 12.41
12/30/2021 8:15:00 AM 4.01 39.218 0.1 7.41 4.93 12.42
12/30/2021 8:30:00 AM 4.02 39.236 0.1 7.4 4.92 12.44
12/30/2021 8:45:00 AM 4.03 39.254 0.1 7.41 4.88 12.46
12/30/2021 9:00:00 AM 4.04 39.272 0.1 7.42 4.81 12.48
12/30/2021 9:15:00 AM 4.06 39.308 0.1 7.43 4.75 12.5
12/30/2021 9:30:00 AM 4.08 39.344 0.099 7.44 4.73 12.53
12/30/2021 9:45:00 AM 4.1 39.38 0.099 7.44 4.86 12.55
12/30/2021 10:00:00 AM 4.12 39.416 0.099 7.46 4.73 12.57
12/30/2021 10:15:00 AM 4.16 39.488 0.099 7.48 4.73 12.59
12/30/2021 10:30:00 AM 4.2 39.56 0.099 7.48 4.69 12.62
12/30/2021 10:45:00 AM 4.24 39.632 0.099 7.5 4.67 12.64
12/30/2021 11:00:00 AM 4.29 39.722 0.099 7.51 4.63 12.64
12/30/2021 11:15:00 AM 4.32 39.776 0.099 7.52 4.69 12.64
12/30/2021 11:30:00 AM 4.36 39.848 0.098 7.53 4.64 12.64
12/30/2021 11:45:00 AM 4.41 39.938 0.098 7.49 4.53 12.64
12/30/2021 12:00:00 PM 4.45 40.01 0.098 7.54 4.6 12.62
12/30/2021 12:15:00 PM 4.5 40.1 0.098 7.54 4.57 12.61
12/30/2021 12:30:00 PM 4.53 40.154 0.098 7.55 4.6 12.58
12/30/2021 12:45:00 PM 4.56 40.208 0.098 7.55 4.56 12.56
12/30/2021 1:00:00 PM 4.6 40.28 0.098 7.55 4.47 12.56
12/30/2021 1:15:00 PM 4.63 40.334 0.098 7.55 4.53 12.54
12/30/2021 1:30:00 PM 4.66 40.388 0.098 7.54 4.51 12.52
12/30/2021 1:45:00 PM 4.68 40.424 0.098 7.51 4.49 12.49
12/30/2021 2:00:00 PM 4.71 40.478 0.097 7.55 4.56 12.49
12/30/2021 2:15:00 PM 4.73 40.514 0.097 7.54 4.49 12.47
12/30/2021 2:30:00 PM 4.76 40.568 0.097 7.53 4.53 12.45
12/30/2021 2:45:00 PM 4.78 40.604 0.097 7.55 4.54 12.43
12/30/2021 3:00:00 PM 4.78 40.604 0.097 7.54 4.48 12.38
12/30/2021 3:15:00 PM 4.79 40.622 0.097 7.53 4.48 12.35
12/30/2021 3:30:00 PM 4.8 40.64 0.097 7.52 4.46 12.35
12/30/2021 3:45:00 PM 4.81 40.658 0.097 7.52 4.47 12.32
12/30/2021 4:00:00 PM 4.82 40.676 0.097 7.5 4.51 12.29
12/30/2021 4:15:00 PM 4.82 40.676 0.097 7.49 4.47 12.27
12/30/2021 4:30:00 PM 4.83 40.694 0.097 7.48 4.44 12.24
12/30/2021 4:45:00 PM 4.83 40.694 0.097 7.46 4.49 12.22
12/30/2021 5:00:00 PM 4.82 40.676 0.097 7.47 4.51 12.19
12/30/2021 5:15:00 PM 4.82 40.676 0.097 7.45 4.46 12.17
12/30/2021 5:30:00 PM 4.82 40.676 0.097 7.44 4.48 12.16
12/30/2021 5:45:00 PM 4.82 40.676 0.097 7.37 4.53 12.15
12/30/2021 6:00:00 PM 4.82 40.676 0.097 7.44 4.55 12.14
12/30/2021 6:15:00 PM 4.81 40.658 0.097 7.42 4.87 12.14
12/30/2021 6:30:00 PM 4.81 40.658 0.097 7.37 4.89 12.13
12/30/2021 6:45:00 PM 4.81 40.658 0.097 7.42 4.98 12.13
12/30/2021 7:00:00 PM 4.81 40.658 0.097 7.4 4.95 12.13
12/30/2021 7:15:00 PM 4.81 40.658 0.097 7.42 4.92 12.13
12/30/2021 7:30:00 PM 4.8 40.64 0.097 7.39 4.93 12.14
12/30/2021 7:45:00 PM 4.8 40.64 0.097 7.39 5.01 12.14
12/30/2021 8:00:00 PM 4.79 40.622 0.097 7.41 4.95 12.14
12/30/2021 8:15:00 PM 4.79 40.622 0.097 7.41 5.11 12.14
12/30/2021 8:30:00 PM 4.78 40.604 0.097 7.36 4.99 12.14
12/30/2021 8:45:00 PM 4.78 40.604 0.097 7.41 4.99 12.14
12/30/2021 9:00:00 PM 4.78 40.604 0.097 7.4 4.93 12.14
12/30/2021 9:15:00 PM 4.78 40.604 0.097 7.4 5 12.14
12/30/2021 9:30:00 PM 4.78 40.604 0.097 7.41 4.85 12.14
12/30/2021 9:45:00 PM 4.77 40.586 0.097 7.41 4.95 12.14
12/30/2021 10:00:00 PM 4.77 40.586 0.097 7.41 4.9 12.14
12/30/2021 10:15:00 PM 4.77 40.586 0.097 7.4 4.89 12.14
12/30/2021 10:30:00 PM 4.77 40.586 0.097 7.37 4.87 12.15
12/30/2021 10:45:00 PM 4.76 40.568 0.097 7.4 4.97 12.14
12/30/2021 11:00:00 PM 4.76 40.568 0.097 7.4 5.02 12.15
12/30/2021 11:15:00 PM 4.75 40.55 0.097 7.41 4.91 12.15
12/30/2021 11:30:00 PM 4.75 40.55 0.097 7.41 4.93 12.15
12/30/2021 11:45:00 PM 4.74 40.532 0.097 7.42 4.91 12.15
12/31/2021 12:00:00 AM 4.74 40.532 0.097 7.42 4.86 12.16
12/31/2021 12:15:00 AM 4.73 40.514 0.097 7.41 4.88 12.15
12/31/2021 12:30:00 AM 4.72 40.496 0.097 7.42 4.9 12.16
12/31/2021 12:45:00 AM 4.72 40.496 0.097 7.37 4.8 12.16
12/31/2021 1:00:00 AM 4.71 40.478 0.097 7.4 4.8 12.17
12/31/2021 1:15:00 AM 4.71 40.478 0.097 7.41 4.86 12.17
12/31/2021 1:30:00 AM 4.7 40.46 0.097 7.41 4.84 12.17
12/31/2021 1:45:00 AM 4.7 40.46 0.096 7.42 4.78 12.16
12/31/2021 2:00:00 AM 4.7 40.46 0.096 7.42 4.78 12.17
12/31/2021 2:15:00 AM 4.7 40.46 0.096 7.42 4.83 12.16
12/31/2021 2:30:00 AM 4.69 40.442 0.096 7.41 4.77 12.17
12/31/2021 2:45:00 AM 4.69 40.442 0.096 7.41 4.77 12.17
12/31/2021 3:00:00 AM 4.69 40.442 0.096 7.42 4.77 12.17
12/31/2021 3:15:00 AM 4.69 40.442 0.096 7.38 4.75 12.16
12/31/2021 3:30:00 AM 4.68 40.424 0.096 7.41 4.75 12.17
12/31/2021 3:45:00 AM 4.68 40.424 0.096 7.4 4.74 12.17
12/31/2021 4:00:00 AM 4.68 40.424 0.096 7.4 4.7 12.17
12/31/2021 4:15:00 AM 4.68 40.424 0.096 7.42 4.82 12.16
12/31/2021 4:30:00 AM 4.68 40.424 0.096 7.4 4.78 12.17
12/31/2021 4:45:00 AM 4.68 40.424 0.096 7.41 4.83 12.17
12/31/2021 5:00:00 AM 4.68 40.424 0.096 7.41 4.75 12.16
12/31/2021 5:15:00 AM 4.68 40.424 0.096 7.41 4.73 12.16
12/31/2021 5:30:00 AM 4.68 40.424 0.096 7.41 4.76 12.16
12/31/2021 5:45:00 AM 4.67 40.406 0.096 7.41 4.72 12.16
12/31/2021 6:00:00 AM 4.67 40.406 0.096 7.4 4.73 12.16
12/31/2021 6:15:00 AM 4.67 40.406 0.096 7.41 4.71 12.16
12/31/2021 6:30:00 AM 4.67 40.406 0.096 7.41 4.77 12.16
12/31/2021 6:45:00 AM 4.68 40.424 0.096 7.35 4.7 12.16
12/31/2021 7:00:00 AM 4.68 40.424 0.096 7.4 4.73 12.16
12/31/2021 7:15:00 AM 4.67 40.406 0.096 7.37 4.67 12.16
12/31/2021 7:30:00 AM 4.67 40.406 0.096 7.41 4.72 12.16
12/31/2021 7:45:00 AM 4.67 40.406 0.096 7.4 4.68 12.17
12/31/2021 8:00:00 AM 4.66 40.388 0.096 7.41 4.71 12.18
12/31/2021 8:15:00 AM 4.67 40.406 0.096 7.42 4.72 12.2
12/31/2021 8:30:00 AM 4.68 40.424 0.096 7.42 4.73 12.22
12/31/2021 8:45:00 AM 4.69 40.442 0.095 7.43 4.68 12.25
12/31/2021 9:00:00 AM 4.71 40.478 0.095 7.39 4.69 12.29
12/31/2021 9:15:00 AM 4.72 40.496 0.095 7.46 4.63 12.31
12/31/2021 9:30:00 AM 4.76 40.568 0.095 7.43 4.61 12.36
12/31/2021 9:45:00 AM 4.8 40.64 0.095 7.49 4.59 12.4
12/31/2021 10:00:00 AM 4.86 40.748 0.095 7.51 4.64 12.43
12/31/2021 10:15:00 AM 4.92 40.856 0.095 7.52 4.62 12.45
12/31/2021 10:30:00 AM 4.97 40.946 0.095 7.52 4.56 12.45
12/31/2021 10:45:00 AM 5.02 41.036 0.095 7.54 4.63 12.45
12/31/2021 11:00:00 AM 5.06 41.108 0.095 7.55 4.63 12.44
12/31/2021 11:15:00 AM 5.09 41.162 0.094 7.56 4.6 12.42
12/31/2021 11:30:00 AM 5.13 41.234 0.094 7.55 4.6 12.39
12/31/2021 11:45:00 AM 5.18 41.324 0.094 7.57 4.56 12.36
12/31/2021 12:00:00 PM 5.19 41.342 0.094 7.51 4.58 12.35
12/31/2021 12:15:00 PM 5.26 41.468 0.094 7.57 4.57 12.35
12/31/2021 12:30:00 PM 5.39 41.702 0.094 7.59 4.59 12.35
12/31/2021 12:45:00 PM 5.53 41.954 0.094 7.6 4.64 12.32
12/31/2021 1:00:00 PM 5.65 42.17 0.094 7.61 4.6 12.29
12/31/2021 1:15:00 PM 5.75 42.35 0.093 7.61 4.62 12.27
12/31/2021 1:30:00 PM 5.86 42.548 0.093 7.63 4.7 12.23
12/31/2021 1:45:00 PM 5.94 42.692 0.093 7.63 4.69 12.2
12/31/2021 2:00:00 PM 5.98 42.764 0.093 7.64 4.71 12.17
12/31/2021 2:15:00 PM 6.01 42.818 0.093 7.64 4.66 12.16
12/31/2021 2:30:00 PM 6.04 42.872 0.093 7.65 4.75 12.15
12/31/2021 2:45:00 PM 6.08 42.944 0.093 7.65 4.68 12.14
12/31/2021 3:00:00 PM 6.1 42.98 0.093 7.63 4.69 12.11
12/31/2021 3:15:00 PM 6.11 42.998 0.093 7.64 4.72 12.08
12/31/2021 3:30:00 PM 6.11 42.998 0.093 7.62 4.67 12.03
12/31/2021 3:45:00 PM 6.09 42.962 0.093 7.6 4.64 12
12/31/2021 4:00:00 PM 6.08 42.944 0.093 7.58 4.7 11.97
12/31/2021 4:15:00 PM 6.07 42.926 0.093 7.58 4.64 11.92
12/31/2021 4:30:00 PM 6.05 42.89 0.093 7.56 4.67 11.89
12/31/2021 4:45:00 PM 6.02 42.836 0.093 7.54 4.68 11.85
12/31/2021 5:00:00 PM 5.98 42.764 0.093 7.46 4.69 11.82
12/31/2021 5:15:00 PM 5.94 42.692 0.093 7.51 4.69 11.8
12/31/2021 5:30:00 PM 5.9 42.62 0.093 7.49 4.66 11.8
12/31/2021 5:45:00 PM 5.85 42.53 0.093 7.48 4.71 11.79
12/31/2021 6:00:00 PM 5.81 42.458 0.093 7.47 4.71 11.8
12/31/2021 6:15:00 PM 5.78 42.404 0.093 7.47 4.72 11.81
12/31/2021 6:30:00 PM 5.74 42.332 0.093 7.42 4.71 11.81
12/31/2021 6:45:00 PM 5.7 42.26 0.093 7.47 4.7 11.83
12/31/2021 7:00:00 PM 5.66 42.188 0.093 7.46 4.71 11.83
12/31/2021 7:15:00 PM 5.63 42.134 0.093 7.45 4.74 11.85
12/31/2021 7:30:00 PM 5.59 42.062 0.093 7.45 4.66 11.85
12/31/2021 7:45:00 PM 5.55 41.99 0.094 7.39 4.71 11.86
12/31/2021 8:00:00 PM 5.52 41.936 0.094 7.44 4.65 11.87
12/31/2021 8:15:00 PM 5.47 41.846 0.094 7.43 4.68 11.88
12/31/2021 8:30:00 PM 5.42 41.756 0.094 7.44 4.68 11.89
12/31/2021 8:45:00 PM 5.38 41.684 0.094 7.44 4.69 11.9
12/31/2021 9:00:00 PM 5.34 41.612 0.094 7.43 4.71 11.91
12/31/2021 9:15:00 PM 5.3 41.54 0.094 7.43 4.73 11.93
12/31/2021 9:30:00 PM 5.28 41.504 0.094 7.42 4.7 11.94
12/31/2021 9:45:00 PM 5.26 41.468 0.094 7.43 4.7 11.94
12/31/2021 10:00:00 PM 5.25 41.45 0.094 7.35 4.31 11.95
12/31/2021 10:15:00 PM 5.25 41.45 0.094 7.4 4.87 11.94
12/31/2021 10:30:00 PM 5.24 41.432 0.094 7.44 4.86 11.95
12/31/2021 10:45:00 PM 5.23 41.414 0.094 7.39 4.77 11.95
12/31/2021 11:00:00 PM 5.23 41.414 0.094 7.44 4.75 11.96
12/31/2021 11:15:00 PM 5.22 41.396 0.094 7.44 4.72 11.96
12/31/2021 11:30:00 PM 5.21 41.378 0.094 7.44 4.77 11.96
12/31/2021 11:45:00 PM 5.21 41.378 0.094 7.45 4.72 11.96
1/1/2022 12:00:00 AM 5.2 41.36 0.094 7.42 4.71 11.95
1/1/2022 12:15:00 AM 5.2 41.36 0.094 7.43 4.73 11.95
1/1/2022 12:30:00 AM 5.2 41.36 0.094 7.44 4.75 11.96
1/1/2022 12:45:00 AM 5.2 41.36 0.094 7.4 4.74 11.96
1/1/2022 1:00:00 AM 5.2 41.36 0.094 7.45 4.7 11.96
1/1/2022 1:15:00 AM 5.21 41.378 0.094 7.45 4.7 11.94
1/1/2022 1:30:00 AM 5.21 41.378 0.094 7.44 4.77 11.94
1/1/2022 1:45:00 AM 5.22 41.396 0.094 7.44 4.68 11.95
1/1/2022 2:00:00 AM 5.22 41.396 0.094 7.43 4.65 11.95
1/1/2022 2:15:00 AM 5.23 41.414 0.094 7.45 4.65 11.94
1/1/2022 2:30:00 AM 5.24 41.432 0.094 7.44 4.69 11.94
1/1/2022 2:45:00 AM 5.25 41.45 0.094 7.43 4.64 11.93
1/1/2022 3:00:00 AM 5.26 41.468 0.094 7.44 4.7 11.93
1/1/2022 3:15:00 AM 5.28 41.504 0.094 7.44 4.68 11.91
1/1/2022 3:30:00 AM 5.29 41.522 0.094 7.44 4.66 11.92
1/1/2022 3:45:00 AM 5.3 41.54 0.094 7.45 4.73 11.91
1/1/2022 4:00:00 AM 5.32 41.576 0.094 7.43 4.67 11.9
1/1/2022 4:15:00 AM 5.33 41.594 0.094 7.44 4.65 11.89
1/1/2022 4:30:00 AM 5.34 41.612 0.094 7.45 4.7 11.9
1/1/2022 4:45:00 AM 5.36 41.648 0.093 7.44 4.7 11.89
1/1/2022 5:00:00 AM 5.37 41.666 0.093 7.44 4.67 11.89
1/1/2022 5:15:00 AM 5.39 41.702 0.093 7.44 4.64 11.87
1/1/2022 5:30:00 AM 5.4 41.72 0.093 7.44 4.73 11.87
1/1/2022 5:45:00 AM 5.4 41.72 0.093 7.45 4.68 11.87
1/1/2022 6:00:00 AM 5.4 41.72 0.093 7.44 4.73 11.87
1/1/2022 6:15:00 AM 5.4 41.72 0.093 7.44 4.7 11.87
1/1/2022 6:30:00 AM 5.4 41.72 0.093 7.44 4.7 11.86
1/1/2022 6:45:00 AM 5.4 41.72 0.093 7.44 4.67 11.87
1/1/2022 7:00:00 AM 5.4 41.72 0.093 7.44 4.61 11.86
1/1/2022 7:15:00 AM 5.4 41.72 0.093 7.44 4.71 11.85
1/1/2022 7:30:00 AM 5.41 41.738 0.093 7.44 4.68 11.87
1/1/2022 7:45:00 AM 5.41 41.738 0.093 7.43 4.61 11.87
1/1/2022 8:00:00 AM 5.41 41.738 0.093 7.44 4.68 11.87
1/1/2022 8:15:00 AM 5.42 41.756 0.093 7.44 4.59 11.88
1/1/2022 8:30:00 AM 5.43 41.774 0.093 7.42 4.64 11.89
1/1/2022 8:45:00 AM 5.45 41.81 0.093 7.45 4.62 11.92
1/1/2022 9:00:00 AM 5.46 41.828 0.093 7.46 4.59 11.94
1/1/2022 9:15:00 AM 5.48 41.864 0.093 7.44 4.64 11.96
1/1/2022 9:30:00 AM 5.51 41.918 0.093 7.47 4.64 11.98
1/1/2022 9:45:00 AM 5.54 41.972 0.093 7.5 4.55 12.01
1/1/2022 10:00:00 AM 5.57 42.026 0.093 7.46 4.52 12.03
1/1/2022 10:15:00 AM 5.59 42.062 0.093 7.52 4.56 12.03
1/1/2022 10:30:00 AM 5.62 42.116 0.093 7.51 4.58 12.03
1/1/2022 10:45:00 AM 5.66 42.188 0.093 7.52 4.59 12.05
1/1/2022 11:00:00 AM 5.71 42.278 0.093 7.54 4.57 12.07
1/1/2022 11:15:00 AM 5.74 42.332 0.093 7.49 4.55 12.06
1/1/2022 11:30:00 AM 5.78 42.404 0.092 7.56 4.52 12.06
1/1/2022 11:45:00 AM 5.83 42.494 0.092 7.56 4.57 12.07
1/1/2022 12:00:00 PM 5.88 42.584 0.092 7.58 4.55 12.05
1/1/2022 12:15:00 PM 5.92 42.656 0.092 7.55 4.55 12.05
1/1/2022 12:30:00 PM 5.98 42.764 0.092 7.6 4.57 12.05
1/1/2022 12:45:00 PM 6.06 42.908 0.092 7.59 4.67 12.06
1/1/2022 1:00:00 PM 6.15 43.07 0.092 7.63 4.48 12.06
1/1/2022 1:15:00 PM 6.22 43.196 0.092 7.58 4.56 12.02
1/1/2022 1:30:00 PM 6.26 43.268 0.092 7.63 4.53 11.98
1/1/2022 1:45:00 PM 6.3 43.34 0.092 7.65 4.54 11.96
1/1/2022 2:00:00 PM 6.33 43.394 0.092 7.63 4.52 11.93
1/1/2022 2:15:00 PM 6.35 43.43 0.092 7.64 4.56 11.89
1/1/2022 2:30:00 PM 6.38 43.484 0.092 7.64 4.54 11.87
1/1/2022 2:45:00 PM 6.39 43.502 0.092 7.63 4.54 11.83
1/1/2022 3:00:00 PM 6.39 43.502 0.092 7.61 4.6 11.79
1/1/2022 3:15:00 PM 6.4 43.52 0.091 7.6 4.6 11.77
1/1/2022 3:30:00 PM 6.4 43.52 0.091 7.59 4.54 11.74
1/1/2022 3:45:00 PM 6.4 43.52 0.091 7.56 4.57 11.72
1/1/2022 4:00:00 PM 6.39 43.502 0.091 7.57 4.59 11.7
1/1/2022 4:15:00 PM 6.38 43.484 0.091 7.55 4.59 11.68
1/1/2022 4:30:00 PM 6.36 43.448 0.091 7.52 4.62 11.65
1/1/2022 4:45:00 PM 6.35 43.43 0.091 7.52 4.54 11.64
1/1/2022 5:00:00 PM 6.34 43.412 0.091 7.49 4.71 11.61
1/1/2022 5:15:00 PM 6.33 43.394 0.091 7.51 4.61 11.6
1/1/2022 5:30:00 PM 6.32 43.376 0.091 7.5 4.61 11.59
1/1/2022 5:45:00 PM 6.32 43.376 0.091 7.47 4.65 11.58
1/1/2022 6:00:00 PM 6.31 43.358 0.091 7.48 4.69 11.58
1/1/2022 6:15:00 PM 6.3 43.34 0.091 7.48 4.7 11.57
1/1/2022 6:30:00 PM 6.3 43.34 0.091 7.46 4.67 11.58
1/1/2022 6:45:00 PM 6.29 43.322 0.091 7.47 4.71 11.58
1/1/2022 7:00:00 PM 6.28 43.304 0.091 7.45 4.67 11.57
1/1/2022 7:15:00 PM 6.28 43.304 0.091 7.45 4.81 11.57
1/1/2022 7:30:00 PM 6.28 43.304 0.091 7.45 4.71 11.57
1/1/2022 7:45:00 PM 6.28 43.304 0.091 7.44 4.8 11.57
1/1/2022 8:00:00 PM 6.27 43.286 0.091 7.45 4.75 11.57
1/1/2022 8:15:00 PM 6.27 43.286 0.091 7.44 4.71 11.56
1/1/2022 8:30:00 PM 6.27 43.286 0.091 7.45 4.71 11.57
1/1/2022 8:45:00 PM 6.27 43.286 0.091 7.45 4.8 11.56
1/1/2022 9:00:00 PM 6.27 43.286 0.091 7.41 16.82 11.56
1/1/2022 9:15:00 PM 6.26 43.268 0.091 7.46 79.73 11.56
1/1/2022 9:30:00 PM 6.26 43.268 0.091 7.44 4.86 11.56
1/1/2022 9:45:00 PM 6.26 43.268 0.091 7.44 4.66 11.56
1/1/2022 10:00:00 PM 6.26 43.268 0.092 7.45 4.65 11.56
1/1/2022 10:15:00 PM 6.26 43.268 0.092 7.47 4.71 11.56
1/1/2022 10:30:00 PM 6.26 43.268 0.092 7.48 4.63 11.55
1/1/2022 10:45:00 PM 6.25 43.25 0.092 7.5 4.64 11.56
1/1/2022 11:00:00 PM 6.24 43.232 0.092 7.5 4.73 11.56
1/1/2022 11:15:00 PM 6.22 43.196 0.092 7.5 4.72 11.57
1/1/2022 11:30:00 PM 6.2 43.16 0.092 7.51 4.76 11.58
1/1/2022 11:45:00 PM 6.17 43.106 0.092 7.46 4.84 11.59
1/2/2022 12:00:00 AM 6.15 43.07 0.092 7.5 4.9 11.6
1/2/2022 12:15:00 AM 6.12 43.016 0.092 7.51 4.98 11.61
1/2/2022 12:30:00 AM 6.1 42.98 0.092 7.5 5.05 11.62
1/2/2022 12:45:00 AM 6.08 42.944 0.093 7.5 5.15 11.62
1/2/2022 1:00:00 AM 6.05 42.89 0.093 7.5 5.1 11.63
1/2/2022 1:15:00 AM 6.03 42.854 0.094 7.5 5.11 11.63
1/2/2022 1:30:00 AM 6.01 42.818 0.094 7.5 5.07 11.64
1/2/2022 1:45:00 AM 5.99 42.782 0.094 7.5 5.15 11.64
1/2/2022 2:00:00 AM 5.96 42.728 0.095 7.5 5.27 11.66
1/2/2022 2:15:00 AM 5.94 42.692 0.095 7.5 5.26 11.67
1/2/2022 2:30:00 AM 5.91 42.638 0.095 7.5 5.37 11.67
1/2/2022 2:45:00 AM 5.89 42.602 0.095 7.5 5.44 11.69
1/2/2022 3:00:00 AM 5.86 42.548 0.095 7.5 5.71 11.69
1/2/2022 3:15:00 AM 5.84 42.512 0.095 7.51 5.95 11.7
1/2/2022 3:30:00 AM 5.81 42.458 0.095 7.5 6.24 11.71
1/2/2022 3:45:00 AM 5.78 42.404 0.096 7.5 6.54 11.72
1/2/2022 4:00:00 AM 5.75 42.35 0.096 7.49 7.43 11.73
1/2/2022 4:15:00 AM 5.72 42.296 0.096 7.52 24.98 11.75
1/2/2022 4:30:00 AM 5.69 42.242 0.097 7.51 13.21 11.76
1/2/2022 4:45:00 AM 5.66 42.188 0.097 7.52 13.33 11.77
1/2/2022 5:00:00 AM 5.63 42.134 0.098 7.51 369.13 11.78
1/2/2022 5:15:00 AM 5.59 42.062 0.098 7.52 11.23 11.79
1/2/2022 5:30:00 AM 5.56 42.008 0.098 7.5 6.49 11.8
1/2/2022 5:45:00 AM 5.53 41.954 0.099 7.52 6.96 11.81
1/2/2022 6:00:00 AM 5.5 41.9 0.099 7.53 7.24 11.82
1/2/2022 6:15:00 AM 5.47 41.846 0.099 7.53 6.59 11.82
1/2/2022 6:30:00 AM 5.44 41.792 0.099 7.53 6.51 11.83
1/2/2022 6:45:00 AM 5.41 41.738 0.1 7.53 6.64 11.85
1/2/2022 7:00:00 AM 5.38 41.684 0.1 7.52 6.77 11.87
1/2/2022 7:15:00 AM 5.35 41.63 0.1 7.53 6.54 11.86
1/2/2022 7:30:00 AM 5.32 41.576 0.1 7.52 6.35 11.89
1/2/2022 7:45:00 AM 5.29 41.522 0.1 7.46 6.56 11.9
1/2/2022 8:00:00 AM 5.26 41.468 0.1 7.52 6.65 11.91
1/2/2022 8:15:00 AM 5.23 41.414 0.1 7.53 6.92 11.94
1/2/2022 8:30:00 AM 5.21 41.378 0.1 7.53 6.48 11.96
1/2/2022 8:45:00 AM 5.18 41.324 0.1 7.53 6.57 11.98
1/2/2022 9:00:00 AM 5.16 41.288 0.1 7.54 6.47 12.02
1/2/2022 9:15:00 AM 5.14 41.252 0.1 7.55 6.77 12.05
1/2/2022 9:30:00 AM 5.12 41.216 0.1 7.55 6.45 12.09
1/2/2022 9:45:00 AM 5.09 41.162 0.1 7.56 6.24 12.11
1/2/2022 10:00:00 AM 5.07 41.126 0.099 7.57 6.27 12.15
1/2/2022 10:15:00 AM 5.07 41.126 0.099 7.56 6.3 12.17
1/2/2022 10:30:00 AM 5.06 41.108 0.099 7.58 6.13 12.19
1/2/2022 10:45:00 AM 5.05 41.09 0.099 7.58 6.23 12.22
1/2/2022 11:00:00 AM 5.04 41.072 0.098 7.59 6.11 12.26
1/2/2022 11:15:00 AM 5.03 41.054 0.098 7.6 6.23 12.25
1/2/2022 11:30:00 AM 5.02 41.036 0.098 7.6 5.99 12.29
1/2/2022 11:45:00 AM 5.04 41.072 0.098 7.61 5.94 12.3
1/2/2022 12:00:00 PM 5.04 41.072 0.097 7.61 5.93 12.32
1/2/2022 12:15:00 PM 5.02 41.036 0.097 7.61 5.75 12.31
1/2/2022 12:30:00 PM 5.01 41.018 0.097 7.6 5.69 12.33
1/2/2022 12:45:00 PM 5 41 0.097 7.62 5.73 12.33
1/2/2022 1:00:00 PM 4.98 40.964 0.096 7.61 5.66 12.32
1/2/2022 1:15:00 PM 4.96 40.928 0.096 7.61 5.61 12.33
1/2/2022 1:30:00 PM 4.95 40.91 0.096 7.62 5.43 12.33
1/2/2022 1:45:00 PM 4.93 40.874 0.096 7.62 5.41 12.35
1/2/2022 2:00:00 PM 4.91 40.838 0.095 7.61 5.46 12.35
1/2/2022 2:15:00 PM 4.89 40.802 0.095 7.6 5.29 12.35
1/2/2022 2:30:00 PM 4.89 40.802 0.095 7.61 5.29 12.37
1/2/2022 2:45:00 PM 4.88 40.784 0.095 7.6 5.16 12.36
1/2/2022 3:00:00 PM 4.86 40.748 0.095 7.6 5.38 12.35
1/2/2022 3:15:00 PM 4.82 40.676 0.095 7.58 5.18 12.31
1/2/2022 3:30:00 PM 4.78 40.604 0.095 7.58 5.08 12.3
1/2/2022 3:45:00 PM 4.72 40.496 0.094 7.55 5.17 12.29
1/2/2022 4:00:00 PM 4.68 40.424 0.094 7.55 5.12 12.27
1/2/2022 4:15:00 PM 4.63 40.334 0.094 7.52 5.05 12.27
1/2/2022 4:30:00 PM 4.59 40.262 0.094 7.53 5.12 12.27
1/2/2022 4:45:00 PM 4.55 40.19 0.094 7.5 5.05 12.27
1/2/2022 5:00:00 PM 4.51 40.118 0.094 7.51 5.06 12.27
1/2/2022 5:15:00 PM 4.47 40.046 0.094 7.5 5.09 12.28
1/2/2022 5:30:00 PM 4.43 39.974 0.094 7.5 4.89 12.29
1/2/2022 5:45:00 PM 4.39 39.902 0.094 7.49 4.91 12.3
1/2/2022 6:00:00 PM 4.35 39.83 0.094 7.49 4.91 12.31
1/2/2022 6:15:00 PM 4.32 39.776 0.094 7.48 4.82 12.33
1/2/2022 6:30:00 PM 4.28 39.704 0.094 7.48 4.97 12.33
1/2/2022 6:45:00 PM 4.24 39.632 0.094 7.47 4.83 12.35
1/2/2022 7:00:00 PM 4.2 39.56 0.094 7.48 4.8 12.37
1/2/2022 7:15:00 PM 4.16 39.488 0.094 7.44 4.81 12.38
1/2/2022 7:30:00 PM 4.13 39.434 0.094 7.48 4.79 12.4
1/2/2022 7:45:00 PM 4.09 39.362 0.094 7.46 4.71 12.41
1/2/2022 8:00:00 PM 4.06 39.308 0.093 7.47 4.77 12.42
1/2/2022 8:15:00 PM 4.03 39.254 0.093 7.47 4.8 12.43
1/2/2022 8:30:00 PM 3.99 39.182 0.093 7.46 4.7 12.45
1/2/2022 8:45:00 PM 3.96 39.128 0.093 7.46 4.69 12.45
1/2/2022 9:00:00 PM 3.92 39.056 0.093 7.46 4.65 12.47
1/2/2022 9:15:00 PM 3.88 38.984 0.093 7.44 4.7 12.48
1/2/2022 9:30:00 PM 3.86 38.948 0.093 7.45 4.7 12.5
1/2/2022 9:45:00 PM 3.82 38.876 0.093 7.46 4.67 12.5
1/2/2022 10:00:00 PM 3.79 38.822 0.093 7.46 4.72 12.52
1/2/2022 10:15:00 PM 3.75 38.75 0.093 7.41 4.64 12.53
1/2/2022 10:30:00 PM 3.71 38.678 0.093 7.45 4.67 12.54
1/2/2022 10:45:00 PM 3.67 38.606 0.093 7.45 4.66 12.57
1/2/2022 11:00:00 PM 3.62 38.516 0.093 7.45 4.75 12.58
1/2/2022 11:15:00 PM 3.58 38.444 0.093 7.45 5.18 12.59
1/2/2022 11:30:00 PM 3.54 38.372 0.092 7.45 4.8 12.61
1/2/2022 11:45:00 PM 3.49 38.282 0.092 7.44 4.75 12.62
1/3/2022 12:00:00 AM 3.46 38.228 0.092 7.41 4.79 12.64
1/3/2022 12:15:00 AM 3.42 38.156 0.092 7.44 4.78 12.66
1/3/2022 12:30:00 AM 3.38 38.084 0.092 7.38 4.8 12.68
1/3/2022 12:45:00 AM 3.36 38.048 0.092 7.43 4.85 12.68
1/3/2022 1:00:00 AM 3.32 37.976 0.092 7.42 4.72 12.7
1/3/2022 1:15:00 AM 3.29 37.922 0.092 7.43 4.75 12.71
1/3/2022 1:30:00 AM 3.26 37.868 0.092 7.42 4.72 12.72
1/3/2022 1:45:00 AM 3.22 37.796 0.092 7.42 4.72 12.74
1/3/2022 2:00:00 AM 3.18 37.724 0.092 7.41 4.72 12.75
1/3/2022 2:15:00 AM 3.15 37.67 0.092 7.43 4.73 12.76
1/3/2022 2:30:00 AM 3.1 37.58 0.092 7.41 4.67 12.79
1/3/2022 2:45:00 AM 3.05 37.49 0.092 7.42 4.81 12.8
1/3/2022 3:00:00 AM 3 37.4 0.092 7.42 4.71 12.82
1/3/2022 3:15:00 AM 2.96 37.328 0.092 7.42 4.67 12.84
1/3/2022 3:30:00 AM 2.91 37.238 0.091 7.41 4.77 12.85
1/3/2022 3:45:00 AM 2.85 37.13 0.091 7.4 4.88 12.86
1/3/2022 4:00:00 AM 2.79 37.022 0.091 7.41 4.71 12.9
1/3/2022 4:15:00 AM 2.72 36.896 0.091 7.39 4.69 12.92
1/3/2022 4:30:00 AM 2.67 36.806 0.091 7.4 4.68 12.94
1/3/2022 4:45:00 AM 2.61 36.698 0.091 7.35 4.74 12.95
1/3/2022 5:00:00 AM 2.56 36.608 0.091 7.39 4.63 12.97
1/3/2022 5:15:00 AM 2.52 36.536 0.091 7.38 4.64 12.99
1/3/2022 5:30:00 AM 2.48 36.464 0.091 7.4 4.65 13.01
1/3/2022 5:45:00 AM 2.44 36.392 0.091 7.38 4.68 13.01
1/3/2022 6:00:00 AM 2.4 36.32 0.091 7.4 4.66 13.03
1/3/2022 6:15:00 AM 2.37 36.266 0.091 7.38 4.66 13.05
1/3/2022 6:30:00 AM 2.35 36.23 0.091 7.39 4.69 13.06
1/3/2022 6:45:00 AM 2.32 36.176 0.091 7.38 4.74 13.07
1/3/2022 7:00:00 AM 2.28 36.104 0.091 7.39 4.65 13.08
1/3/2022 7:15:00 AM 2.25 36.05 0.091 7.39 4.63 13.1
1/3/2022 7:30:00 AM 2.22 35.996 0.091 7.39 4.7 13.11
1/3/2022 7:45:00 AM 2.18 35.924 0.091 7.38 4.66 13.13
1/3/2022 8:00:00 AM 2.15 35.87 0.091 7.39 4.62 13.15
1/3/2022 8:15:00 AM 2.11 35.798 0.091 7.39 4.65 13.18
1/3/2022 8:30:00 AM 2.08 35.744 0.091 7.39 4.61 13.23
1/3/2022 8:45:00 AM 2.04 35.672 0.091 7.4 4.63 13.28
1/3/2022 9:00:00 AM 2.02 35.636 0.091 7.4 4.61 13.32
1/3/2022 9:15:00 AM 1.99 35.582 0.091 7.41 4.58 13.37
1/3/2022 9:30:00 AM 1.98 35.564 0.09 7.4 4.56 13.41
1/3/2022 9:45:00 AM 1.98 35.564 0.09 7.43 4.57 13.45
1/3/2022 10:00:00 AM 1.99 35.582 0.09 7.45 4.51 13.47
1/3/2022 10:15:00 AM 1.99 35.582 0.09 7.44 4.54 13.49
1/3/2022 10:30:00 AM 2 35.6 0.09 7.46 4.53 13.5
1/3/2022 10:45:00 AM 2.02 35.636 0.09 7.46 4.51 13.51
1/3/2022 11:00:00 AM 2.01 35.618 0.09 7.46 4.51 13.51
1/3/2022 11:15:00 AM 2.01 35.618 0.09 7.47 4.48 13.52
1/3/2022 11:30:00 AM 2.05 35.69 0.09 7.42 4.5 13.51
1/3/2022 11:45:00 AM 2.09 35.762 0.09 7.49 4.48 13.49
1/3/2022 12:00:00 PM 2.16 35.888 0.089 7.48 4.51 13.48
1/3/2022 12:15:00 PM 2.21 35.978 0.089 7.49 4.47 13.47
1/3/2022 12:30:00 PM 2.22 35.996 0.089 7.46 4.44 13.46
1/3/2022 12:45:00 PM 2.22 35.996 0.089 7.48 4.42 13.45
1/3/2022 1:00:00 PM 2.27 36.086 0.089 7.43 4.47 13.43
1/3/2022 1:15:00 PM 2.33 36.194 0.089 7.48 4.45 13.4
1/3/2022 1:30:00 PM 2.4 36.32 0.089 7.46 4.44 13.36
1/3/2022 1:45:00 PM 2.44 36.392 0.089 7.49 4.43 13.34
1/3/2022 2:00:00 PM 2.44 36.392 0.089 7.47 4.47 13.32
1/3/2022 2:15:00 PM 2.42 36.356 0.089 7.48 4.42 13.31
1/3/2022 2:30:00 PM 2.36 36.248 0.088 7.46 4.41 13.31
1/3/2022 2:45:00 PM 2.29 36.122 0.088 7.46 4.46 13.31
1/3/2022 3:00:00 PM 2.21 35.978 0.088 7.44 4.52 13.3
1/3/2022 3:15:00 PM 2.16 35.888 0.088 7.44 4.46 13.3
1/3/2022 3:30:00 PM 2.11 35.798 0.088 7.42 4.5 13.31
1/3/2022 3:45:00 PM 2.07 35.726 0.088 7.43 4.43 13.32
1/3/2022 4:00:00 PM 2.01 35.618 0.088 7.42 6.92 13.33
1/3/2022 4:15:00 PM 1.94 35.492 0.088 7.4 4.45 13.35
1/3/2022 4:30:00 PM 1.9 35.42 0.088 7.4 4.45 13.36
1/3/2022 4:45:00 PM 1.87 35.366 0.088 7.4 4.45 13.36
1/3/2022 5:00:00 PM 1.83 35.294 0.088 7.4 4.39 13.35
1/3/2022 5:15:00 PM 1.79 35.222 0.088 7.39 4.57 13.35
1/3/2022 5:30:00 PM 1.72 35.096 0.088 7.36 4.47 13.35
1/3/2022 5:45:00 PM 1.67 35.006 0.088 7.35 4.5 13.36
1/3/2022 6:00:00 PM 1.62 34.916 0.088 7.36 4.52 13.37
1/3/2022 6:15:00 PM 1.56 34.808 0.088 7.35 4.45 13.39
1/3/2022 6:30:00 PM 1.52 34.736 0.088 7.36 4.49 13.41
1/3/2022 6:45:00 PM 1.47 34.646 0.088 7.36 4.52 13.42
1/3/2022 7:00:00 PM 1.43 34.574 0.088 7.3 4.49 13.44
1/3/2022 7:15:00 PM 1.38 34.484 0.088 7.35 4.48 13.46
1/3/2022 7:30:00 PM 1.34 34.412 0.088 7.32 4.44 13.47
1/3/2022 7:45:00 PM 1.3 34.34 0.088 7.35 4.51 13.49
1/3/2022 8:00:00 PM 1.26 34.268 0.088 7.33 4.52 13.51
1/3/2022 8:15:00 PM 1.22 34.196 0.088 7.32 4.53 13.52
1/3/2022 8:30:00 PM 1.19 34.142 0.088 7.29 4.44 13.54
1/3/2022 8:45:00 PM 1.15 34.07 0.088 7.35 4.57 13.55
1/3/2022 9:00:00 PM 1.11 33.998 0.089 7.32 4.49 13.57
1/3/2022 9:15:00 PM 1.07 33.926 0.089 7.33 4.48 13.59
1/3/2022 9:30:00 PM 1.03 33.854 0.089 7.33 4.52 13.61
1/3/2022 9:45:00 PM 1 33.8 0.089 7.33 4.52 13.62
1/3/2022 10:00:00 PM 0.96 33.728 0.089 7.33 4.49 13.64
1/3/2022 10:15:00 PM 0.92 33.656 0.089 7.32 4.46 13.65
1/3/2022 10:30:00 PM 0.89 33.602 0.089 7.32 4.52 13.67
1/3/2022 10:45:00 PM 0.85 33.53 0.089 7.33 4.55 13.69
1/3/2022 11:00:00 PM 0.82 33.476 0.089 7.32 4.46 13.7
1/3/2022 11:15:00 PM 0.79 33.422 0.089 7.24 4.47 13.71
1/3/2022 11:30:00 PM 0.76 33.368 0.088 7.33 4.49 13.72
1/3/2022 11:45:00 PM 0.73 33.314 0.088 7.31 4.54 13.74
1/4/2022 12:00:00 AM 0.7 33.26 0.088 7.31 4.56 13.75
1/4/2022 12:15:00 AM 0.66 33.188 0.088 7.3 4.51 13.76
1/4/2022 12:30:00 AM 0.64 33.152 0.088 7.31 4.53 13.78
1/4/2022 12:45:00 AM 0.61 33.098 0.088 7.3 4.44 13.79
1/4/2022 1:00:00 AM 0.58 33.044 0.088 7.31 4.47 13.8
1/4/2022 1:15:00 AM 0.55 32.99 0.088 7.31 4.5 13.81
1/4/2022 1:30:00 AM 0.52 32.936 0.088 7.31 4.5 13.82
1/4/2022 1:45:00 AM 0.5 32.9 0.088 7.3 4.44 13.83
1/4/2022 2:00:00 AM 0.48 32.864 0.088 7.29 4.49 13.84
1/4/2022 2:15:00 AM 0.47 32.846 0.088 7.29 4.53 13.85
1/4/2022 2:30:00 AM 0.48 32.864 0.088 7.31 4.59 13.86
1/4/2022 2:45:00 AM 0.48 32.864 0.087 7.27 4.65 13.86
1/4/2022 3:00:00 AM 0.48 32.864 0.087 7.29 4.6 13.86
1/4/2022 3:15:00 AM 0.47 32.846 0.087 7.29 4.52 13.86
1/4/2022 3:30:00 AM 0.45 32.81 0.087 7.31 4.49 13.86
1/4/2022 3:45:00 AM 0.44 32.792 0.087 7.3 4.47 13.87
1/4/2022 4:00:00 AM 0.42 32.756 0.087 7.29 4.58 13.87
1/4/2022 4:15:00 AM 0.4 32.72 0.087 7.3 4.49 13.87
1/4/2022 4:30:00 AM 0.38 32.684 0.087 7.28 4.47 13.88
1/4/2022 4:45:00 AM 0.36 32.648 0.087 7.29 4.51 13.89
1/4/2022 5:00:00 AM 0.34 32.612 0.087 7.3 4.49 13.89
1/4/2022 5:15:00 AM 0.32 32.576 0.087 7.29 4.44 13.9
1/4/2022 5:30:00 AM 0.31 32.558 0.087 7.27 4.44 13.91
1/4/2022 5:45:00 AM 0.29 32.522 0.087 7.3 4.51 13.92
1/4/2022 6:00:00 AM 0.27 32.486 0.087 7.28 4.51 13.92
1/4/2022 6:15:00 AM 0.25 32.45 0.086 7.29 4.51 13.93
1/4/2022 6:30:00 AM 0.24 32.432 0.086 7.3 4.48 13.94
1/4/2022 6:45:00 AM 0.23 32.414 0.086 7.28 4.55 13.94
1/4/2022 7:00:00 AM 0.21 32.378 0.086 7.29 4.45 13.95
1/4/2022 7:15:00 AM 0.2 32.36 0.086 7.29 4.46 13.96
1/4/2022 7:30:00 AM 0.19 32.342 0.086 7.28 4.45 13.97
1/4/2022 7:45:00 AM 0.17 32.306 0.086 7.28 4.56 13.98
1/4/2022 8:00:00 AM 0.17 32.306 0.086 7.3 4.5 14
1/4/2022 8:15:00 AM 0.16 32.288 0.086 7.23 4.42 14.03
1/4/2022 8:30:00 AM 0.17 32.306 0.086 7.31 4.45 14.06
1/4/2022 8:45:00 AM 0.18 32.324 0.086 7.3 4.43 14.08
1/4/2022 9:00:00 AM 0.18 32.324 0.086 7.32 4.42 14.1
1/4/2022 9:15:00 AM 0.2 32.36 0.086 7.31 4.41 14.12
1/4/2022 9:30:00 AM 0.23 32.414 0.086 7.33 4.45 14.13
1/4/2022 9:45:00 AM 0.28 32.504 0.086 7.3 4.43